<?xml version="1.0" encoding="ISO-8859-1" standalone="yes"?>
<gpx
  xmlns="http://www.topografix.com/GPX/1/1"
  version="1.1" creator="LoadMyTracks/099 http://www.cluetrust.com/LoadMyTracks.html"
  xmlns:xsi="http://www.w3.org/2001/XMLSchema-instance"
  xmlns:gpxdata="http://www.cluetrust.com/XML/GPXDATA/1/0"
  xmlns:geocache="http://www.groundspeak.com/cache/1/0"
  xsi:schemaLocation="http://www.topografix.com/GPX/1/1 http://www.topografix.com/GPX/1/1/gpx.xsd
http://www.cluetrust.com/XML/GPXDATA/1/0 http://www.cluetrust.com/Schemas/gpxdata10.xsd">
<trk>
<name>2010/8/11 8:55:33 GMT</name>
<trkseg>
	<trkpt lat="51.93157167" lon="-2.222136667"><ele>13.000000</ele><time>2010-08-11T08:55:33Z</time></trkpt>
	<trkpt lat="51.93157333" lon="-2.222135"><ele>14.000000</ele><time>2010-08-11T08:55:39Z</time></trkpt>
	<trkpt lat="51.93157" lon="-2.222141667"><ele>15.000000</ele><time>2010-08-11T08:55:44Z</time></trkpt>
	<trkpt lat="51.93156833" lon="-2.22213"><ele>13.000000</ele><time>2010-08-11T08:55:49Z</time></trkpt>
	<trkpt lat="51.93156667" lon="-2.222141667"><ele>13.000000</ele><time>2010-08-11T08:55:54Z</time></trkpt>
	<trkpt lat="51.93157333" lon="-2.222148333"><ele>13.000000</ele><time>2010-08-11T08:55:59Z</time></trkpt>
	<trkpt lat="51.93157667" lon="-2.222145"><ele>13.000000</ele><time>2010-08-11T08:56:04Z</time></trkpt>
	<trkpt lat="51.93155667" lon="-2.222183333"><ele>14.000000</ele><time>2010-08-11T08:56:09Z</time></trkpt>
	<trkpt lat="51.931515" lon="-2.222233333"><ele>17.000000</ele><time>2010-08-11T08:56:14Z</time></trkpt>
	<trkpt lat="51.93145167" lon="-2.222231667"><ele>18.000000</ele><time>2010-08-11T08:56:19Z</time></trkpt>
	<trkpt lat="51.93139333" lon="-2.2222"><ele>17.000000</ele><time>2010-08-11T08:56:24Z</time></trkpt>
	<trkpt lat="51.93132833" lon="-2.222198333"><ele>17.000000</ele><time>2010-08-11T08:56:29Z</time></trkpt>
	<trkpt lat="51.93126667" lon="-2.222243333"><ele>17.000000</ele><time>2010-08-11T08:56:34Z</time></trkpt>
	<trkpt lat="51.93120667" lon="-2.222293333"><ele>17.000000</ele><time>2010-08-11T08:56:39Z</time></trkpt>
	<trkpt lat="51.931145" lon="-2.222345"><ele>17.000000</ele><time>2010-08-11T08:56:44Z</time></trkpt>
	<trkpt lat="51.93108667" lon="-2.222405"><ele>17.000000</ele><time>2010-08-11T08:56:49Z</time></trkpt>
	<trkpt lat="51.931035" lon="-2.222445"><ele>17.000000</ele><time>2010-08-11T08:56:54Z</time></trkpt>
	<trkpt lat="51.93098833" lon="-2.222491667"><ele>17.000000</ele><time>2010-08-11T08:56:59Z</time></trkpt>
	<trkpt lat="51.93095167" lon="-2.222536667"><ele>17.000000</ele><time>2010-08-11T08:57:04Z</time></trkpt>
	<trkpt lat="51.930905" lon="-2.222588333"><ele>17.000000</ele><time>2010-08-11T08:57:09Z</time></trkpt>
	<trkpt lat="51.93085167" lon="-2.22264"><ele>17.000000</ele><time>2010-08-11T08:57:14Z</time></trkpt>
	<trkpt lat="51.93081" lon="-2.222693333"><ele>18.000000</ele><time>2010-08-11T08:57:19Z</time></trkpt>
	<trkpt lat="51.930775" lon="-2.222756667"><ele>18.000000</ele><time>2010-08-11T08:57:24Z</time></trkpt>
	<trkpt lat="51.930735" lon="-2.222815"><ele>19.000000</ele><time>2010-08-11T08:57:29Z</time></trkpt>
	<trkpt lat="51.9307" lon="-2.222865"><ele>19.000000</ele><time>2010-08-11T08:57:34Z</time></trkpt>
	<trkpt lat="51.930665" lon="-2.222915"><ele>20.000000</ele><time>2010-08-11T08:57:39Z</time></trkpt>
	<trkpt lat="51.93064" lon="-2.22294"><ele>20.000000</ele><time>2010-08-11T08:57:44Z</time></trkpt>
	<trkpt lat="51.93063667" lon="-2.22294"><ele>20.000000</ele><time>2010-08-11T08:57:49Z</time></trkpt>
	<trkpt lat="51.93063" lon="-2.222953333"><ele>21.000000</ele><time>2010-08-11T08:57:54Z</time></trkpt>
	<trkpt lat="51.93061833" lon="-2.222968333"><ele>21.000000</ele><time>2010-08-11T08:57:59Z</time></trkpt>
	<trkpt lat="51.93060167" lon="-2.222983333"><ele>21.000000</ele><time>2010-08-11T08:58:04Z</time></trkpt>
	<trkpt lat="51.93055167" lon="-2.223008333"><ele>22.000000</ele><time>2010-08-11T08:58:09Z</time></trkpt>
	<trkpt lat="51.93051" lon="-2.22305"><ele>24.000000</ele><time>2010-08-11T08:58:14Z</time></trkpt>
	<trkpt lat="51.93047833" lon="-2.2231"><ele>25.000000</ele><time>2010-08-11T08:58:19Z</time></trkpt>
	<trkpt lat="51.930455" lon="-2.223151667"><ele>27.000000</ele><time>2010-08-11T08:58:24Z</time></trkpt>
	<trkpt lat="51.93042833" lon="-2.223193333"><ele>28.000000</ele><time>2010-08-11T08:58:29Z</time></trkpt>
	<trkpt lat="51.93040167" lon="-2.223236667"><ele>29.000000</ele><time>2010-08-11T08:58:34Z</time></trkpt>
	<trkpt lat="51.93037333" lon="-2.223281667"><ele>30.000000</ele><time>2010-08-11T08:58:39Z</time></trkpt>
	<trkpt lat="51.93035333" lon="-2.223328333"><ele>31.000000</ele><time>2010-08-11T08:58:44Z</time></trkpt>
	<trkpt lat="51.93032667" lon="-2.223376667"><ele>31.000000</ele><time>2010-08-11T08:58:49Z</time></trkpt>
	<trkpt lat="51.93032333" lon="-2.223433333"><ele>33.000000</ele><time>2010-08-11T08:58:54Z</time></trkpt>
	<trkpt lat="51.93032333" lon="-2.223496667"><ele>33.000000</ele><time>2010-08-11T08:58:59Z</time></trkpt>
	<trkpt lat="51.93031667" lon="-2.223553333"><ele>33.000000</ele><time>2010-08-11T08:59:04Z</time></trkpt>
	<trkpt lat="51.93029333" lon="-2.223631667"><ele>31.000000</ele><time>2010-08-11T08:59:09Z</time></trkpt>
	<trkpt lat="51.93027167" lon="-2.223703333"><ele>31.000000</ele><time>2010-08-11T08:59:14Z</time></trkpt>
	<trkpt lat="51.93024833" lon="-2.223766667"><ele>31.000000</ele><time>2010-08-11T08:59:19Z</time></trkpt>
	<trkpt lat="51.93022833" lon="-2.223828333"><ele>31.000000</ele><time>2010-08-11T08:59:24Z</time></trkpt>
	<trkpt lat="51.93021333" lon="-2.223883333"><ele>31.000000</ele><time>2010-08-11T08:59:29Z</time></trkpt>
	<trkpt lat="51.93019333" lon="-2.223935"><ele>32.000000</ele><time>2010-08-11T08:59:34Z</time></trkpt>
	<trkpt lat="51.93017833" lon="-2.223971667"><ele>32.000000</ele><time>2010-08-11T08:59:39Z</time></trkpt>
	<trkpt lat="51.93017333" lon="-2.223983333"><ele>32.000000</ele><time>2010-08-11T08:59:44Z</time></trkpt>
	<trkpt lat="51.93016167" lon="-2.22401"><ele>32.000000</ele><time>2010-08-11T08:59:49Z</time></trkpt>
	<trkpt lat="51.93015833" lon="-2.224011667"><ele>32.000000</ele><time>2010-08-11T08:59:54Z</time></trkpt>
	<trkpt lat="51.93015833" lon="-2.224013333"><ele>32.000000</ele><time>2010-08-11T08:59:59Z</time></trkpt>
	<trkpt lat="51.93015833" lon="-2.224026667"><ele>32.000000</ele><time>2010-08-11T09:00:04Z</time></trkpt>
	<trkpt lat="51.93014833" lon="-2.224053333"><ele>33.000000</ele><time>2010-08-11T09:00:09Z</time></trkpt>
	<trkpt lat="51.93013833" lon="-2.224066667"><ele>33.000000</ele><time>2010-08-11T09:00:14Z</time></trkpt>
	<trkpt lat="51.930125" lon="-2.224098333"><ele>34.000000</ele><time>2010-08-11T09:00:19Z</time></trkpt>
	<trkpt lat="51.93009167" lon="-2.224126667"><ele>35.000000</ele><time>2010-08-11T09:00:24Z</time></trkpt>
	<trkpt lat="51.93006167" lon="-2.224161667"><ele>36.000000</ele><time>2010-08-11T09:00:29Z</time></trkpt>
	<trkpt lat="51.93004167" lon="-2.224226667"><ele>36.000000</ele><time>2010-08-11T09:00:34Z</time></trkpt>
	<trkpt lat="51.93002333" lon="-2.224286667"><ele>37.000000</ele><time>2010-08-11T09:00:39Z</time></trkpt>
	<trkpt lat="51.930005" lon="-2.224353333"><ele>38.000000</ele><time>2010-08-11T09:00:44Z</time></trkpt>
	<trkpt lat="51.92998833" lon="-2.224421667"><ele>39.000000</ele><time>2010-08-11T09:00:49Z</time></trkpt>
	<trkpt lat="51.92997333" lon="-2.22449"><ele>39.000000</ele><time>2010-08-11T09:00:54Z</time></trkpt>
	<trkpt lat="51.92995833" lon="-2.224556667"><ele>40.000000</ele><time>2010-08-11T09:00:59Z</time></trkpt>
	<trkpt lat="51.929945" lon="-2.224626667"><ele>40.000000</ele><time>2010-08-11T09:01:04Z</time></trkpt>
	<trkpt lat="51.92993167" lon="-2.224698333"><ele>40.000000</ele><time>2010-08-11T09:01:09Z</time></trkpt>
	<trkpt lat="51.92991667" lon="-2.224775"><ele>41.000000</ele><time>2010-08-11T09:01:14Z</time></trkpt>
	<trkpt lat="51.9299" lon="-2.224853333"><ele>41.000000</ele><time>2010-08-11T09:01:19Z</time></trkpt>
	<trkpt lat="51.929885" lon="-2.224933333"><ele>42.000000</ele><time>2010-08-11T09:01:24Z</time></trkpt>
	<trkpt lat="51.92986833" lon="-2.225018333"><ele>42.000000</ele><time>2010-08-11T09:01:29Z</time></trkpt>
	<trkpt lat="51.92985" lon="-2.225105"><ele>42.000000</ele><time>2010-08-11T09:01:34Z</time></trkpt>
	<trkpt lat="51.92983333" lon="-2.225191667"><ele>42.000000</ele><time>2010-08-11T09:01:39Z</time></trkpt>
	<trkpt lat="51.92981833" lon="-2.225276667"><ele>42.000000</ele><time>2010-08-11T09:01:44Z</time></trkpt>
	<trkpt lat="51.92980333" lon="-2.225356667"><ele>43.000000</ele><time>2010-08-11T09:01:49Z</time></trkpt>
	<trkpt lat="51.92979" lon="-2.225438333"><ele>43.000000</ele><time>2010-08-11T09:01:54Z</time></trkpt>
	<trkpt lat="51.92977833" lon="-2.22552"><ele>44.000000</ele><time>2010-08-11T09:01:59Z</time></trkpt>
	<trkpt lat="51.92976667" lon="-2.225605"><ele>44.000000</ele><time>2010-08-11T09:02:04Z</time></trkpt>
	<trkpt lat="51.92974667" lon="-2.225683333"><ele>45.000000</ele><time>2010-08-11T09:02:09Z</time></trkpt>
	<trkpt lat="51.92973333" lon="-2.225771667"><ele>45.000000</ele><time>2010-08-11T09:02:14Z</time></trkpt>
	<trkpt lat="51.92972" lon="-2.225861667"><ele>44.000000</ele><time>2010-08-11T09:02:19Z</time></trkpt>
	<trkpt lat="51.92970833" lon="-2.225951667"><ele>45.000000</ele><time>2010-08-11T09:02:24Z</time></trkpt>
	<trkpt lat="51.92969667" lon="-2.22604"><ele>45.000000</ele><time>2010-08-11T09:02:29Z</time></trkpt>
	<trkpt lat="51.929685" lon="-2.226128333"><ele>45.000000</ele><time>2010-08-11T09:02:34Z</time></trkpt>
	<trkpt lat="51.92967333" lon="-2.226215"><ele>44.000000</ele><time>2010-08-11T09:02:39Z</time></trkpt>
	<trkpt lat="51.92966333" lon="-2.226303333"><ele>44.000000</ele><time>2010-08-11T09:02:44Z</time></trkpt>
	<trkpt lat="51.92965833" lon="-2.226373333"><ele>43.000000</ele><time>2010-08-11T09:02:49Z</time></trkpt>
	<trkpt lat="51.92966833" lon="-2.22641"><ele>43.000000</ele><time>2010-08-11T09:02:54Z</time></trkpt>
	<trkpt lat="51.92967167" lon="-2.226413333"><ele>42.000000</ele><time>2010-08-11T09:02:59Z</time></trkpt>
	<trkpt lat="51.92967" lon="-2.226411667"><ele>42.000000</ele><time>2010-08-11T09:03:04Z</time></trkpt>
	<trkpt lat="51.929655" lon="-2.22646"><ele>42.000000</ele><time>2010-08-11T09:03:09Z</time></trkpt>
	<trkpt lat="51.92963667" lon="-2.226551667"><ele>42.000000</ele><time>2010-08-11T09:03:14Z</time></trkpt>
	<trkpt lat="51.92962167" lon="-2.226645"><ele>42.000000</ele><time>2010-08-11T09:03:19Z</time></trkpt>
	<trkpt lat="51.92960333" lon="-2.226733333"><ele>42.000000</ele><time>2010-08-11T09:03:24Z</time></trkpt>
	<trkpt lat="51.929585" lon="-2.226821667"><ele>42.000000</ele><time>2010-08-11T09:03:29Z</time></trkpt>
	<trkpt lat="51.929565" lon="-2.226911667"><ele>42.000000</ele><time>2010-08-11T09:03:34Z</time></trkpt>
	<trkpt lat="51.929545" lon="-2.227"><ele>43.000000</ele><time>2010-08-11T09:03:39Z</time></trkpt>
	<trkpt lat="51.92952333" lon="-2.227091667"><ele>43.000000</ele><time>2010-08-11T09:03:44Z</time></trkpt>
	<trkpt lat="51.92950333" lon="-2.227186667"><ele>43.000000</ele><time>2010-08-11T09:03:49Z</time></trkpt>
	<trkpt lat="51.92948167" lon="-2.227276667"><ele>43.000000</ele><time>2010-08-11T09:03:54Z</time></trkpt>
	<trkpt lat="51.92946167" lon="-2.227363333"><ele>44.000000</ele><time>2010-08-11T09:03:59Z</time></trkpt>
	<trkpt lat="51.929445" lon="-2.227455"><ele>44.000000</ele><time>2010-08-11T09:04:04Z</time></trkpt>
	<trkpt lat="51.92943" lon="-2.227546667"><ele>44.000000</ele><time>2010-08-11T09:04:09Z</time></trkpt>
	<trkpt lat="51.92941333" lon="-2.227635"><ele>44.000000</ele><time>2010-08-11T09:04:14Z</time></trkpt>
	<trkpt lat="51.92941" lon="-2.227695"><ele>44.000000</ele><time>2010-08-11T09:04:19Z</time></trkpt>
	<trkpt lat="51.929405" lon="-2.227758333"><ele>45.000000</ele><time>2010-08-11T09:04:24Z</time></trkpt>
	<trkpt lat="51.92940167" lon="-2.227773333"><ele>45.000000</ele><time>2010-08-11T09:04:29Z</time></trkpt>
	<trkpt lat="51.92940167" lon="-2.227795"><ele>44.000000</ele><time>2010-08-11T09:04:34Z</time></trkpt>
	<trkpt lat="51.9294" lon="-2.227813333"><ele>44.000000</ele><time>2010-08-11T09:04:39Z</time></trkpt>
	<trkpt lat="51.92938" lon="-2.227831667"><ele>45.000000</ele><time>2010-08-11T09:04:44Z</time></trkpt>
	<trkpt lat="51.92935" lon="-2.227836667"><ele>46.000000</ele><time>2010-08-11T09:04:49Z</time></trkpt>
	<trkpt lat="51.92932667" lon="-2.227843333"><ele>47.000000</ele><time>2010-08-11T09:04:54Z</time></trkpt>
	<trkpt lat="51.929315" lon="-2.227875"><ele>46.000000</ele><time>2010-08-11T09:04:59Z</time></trkpt>
	<trkpt lat="51.92930667" lon="-2.227903333"><ele>46.000000</ele><time>2010-08-11T09:05:04Z</time></trkpt>
	<trkpt lat="51.92930667" lon="-2.22793"><ele>46.000000</ele><time>2010-08-11T09:05:09Z</time></trkpt>
	<trkpt lat="51.92930667" lon="-2.227961667"><ele>46.000000</ele><time>2010-08-11T09:05:14Z</time></trkpt>
	<trkpt lat="51.92929667" lon="-2.228003333"><ele>46.000000</ele><time>2010-08-11T09:05:19Z</time></trkpt>
	<trkpt lat="51.92928667" lon="-2.228046667"><ele>48.000000</ele><time>2010-08-11T09:05:24Z</time></trkpt>
	<trkpt lat="51.92927167" lon="-2.228105"><ele>49.000000</ele><time>2010-08-11T09:05:29Z</time></trkpt>
	<trkpt lat="51.92926167" lon="-2.228165"><ele>51.000000</ele><time>2010-08-11T09:05:34Z</time></trkpt>
	<trkpt lat="51.92925667" lon="-2.228238333"><ele>53.000000</ele><time>2010-08-11T09:05:39Z</time></trkpt>
	<trkpt lat="51.92925167" lon="-2.22831"><ele>53.000000</ele><time>2010-08-11T09:05:44Z</time></trkpt>
	<trkpt lat="51.929235" lon="-2.228358333"><ele>54.000000</ele><time>2010-08-11T09:05:49Z</time></trkpt>
	<trkpt lat="51.92922167" lon="-2.228408333"><ele>56.000000</ele><time>2010-08-11T09:05:54Z</time></trkpt>
	<trkpt lat="51.929215" lon="-2.228473333"><ele>57.000000</ele><time>2010-08-11T09:05:59Z</time></trkpt>
	<trkpt lat="51.92920167" lon="-2.228513333"><ele>58.000000</ele><time>2010-08-11T09:06:04Z</time></trkpt>
	<trkpt lat="51.92919667" lon="-2.228556667"><ele>59.000000</ele><time>2010-08-11T09:06:09Z</time></trkpt>
	<trkpt lat="51.92917167" lon="-2.22862"><ele>59.000000</ele><time>2010-08-11T09:06:14Z</time></trkpt>
	<trkpt lat="51.92914167" lon="-2.228696667"><ele>57.000000</ele><time>2010-08-11T09:06:19Z</time></trkpt>
	<trkpt lat="51.92911667" lon="-2.228766667"><ele>57.000000</ele><time>2010-08-11T09:06:24Z</time></trkpt>
	<trkpt lat="51.9291" lon="-2.228826667"><ele>58.000000</ele><time>2010-08-11T09:06:29Z</time></trkpt>
	<trkpt lat="51.92908667" lon="-2.228888333"><ele>58.000000</ele><time>2010-08-11T09:06:34Z</time></trkpt>
	<trkpt lat="51.92907833" lon="-2.228951667"><ele>58.000000</ele><time>2010-08-11T09:06:39Z</time></trkpt>
	<trkpt lat="51.92905667" lon="-2.229008333"><ele>58.000000</ele><time>2010-08-11T09:06:44Z</time></trkpt>
	<trkpt lat="51.92903" lon="-2.229065"><ele>58.000000</ele><time>2010-08-11T09:06:49Z</time></trkpt>
	<trkpt lat="51.92901667" lon="-2.229121667"><ele>60.000000</ele><time>2010-08-11T09:06:54Z</time></trkpt>
	<trkpt lat="51.92899" lon="-2.229195"><ele>58.000000</ele><time>2010-08-11T09:06:59Z</time></trkpt>
	<trkpt lat="51.92895667" lon="-2.229271667"><ele>55.000000</ele><time>2010-08-11T09:07:04Z</time></trkpt>
	<trkpt lat="51.928925" lon="-2.229345"><ele>52.000000</ele><time>2010-08-11T09:07:09Z</time></trkpt>
	<trkpt lat="51.92887667" lon="-2.229416667"><ele>50.000000</ele><time>2010-08-11T09:07:14Z</time></trkpt>
	<trkpt lat="51.92886167" lon="-2.229461667"><ele>52.000000</ele><time>2010-08-11T09:07:19Z</time></trkpt>
	<trkpt lat="51.92883" lon="-2.229526667"><ele>50.000000</ele><time>2010-08-11T09:07:24Z</time></trkpt>
	<trkpt lat="51.92881167" lon="-2.229573333"><ele>51.000000</ele><time>2010-08-11T09:07:29Z</time></trkpt>
	<trkpt lat="51.928805" lon="-2.229641667"><ele>53.000000</ele><time>2010-08-11T09:07:34Z</time></trkpt>
	<trkpt lat="51.928785" lon="-2.229706667"><ele>52.000000</ele><time>2010-08-11T09:07:39Z</time></trkpt>
	<trkpt lat="51.92875667" lon="-2.229756667"><ele>51.000000</ele><time>2010-08-11T09:07:44Z</time></trkpt>
	<trkpt lat="51.928725" lon="-2.2298"><ele>50.000000</ele><time>2010-08-11T09:07:49Z</time></trkpt>
	<trkpt lat="51.92869667" lon="-2.229843333"><ele>52.000000</ele><time>2010-08-11T09:07:54Z</time></trkpt>
	<trkpt lat="51.92867667" lon="-2.229896667"><ele>52.000000</ele><time>2010-08-11T09:07:59Z</time></trkpt>
	<trkpt lat="51.92865667" lon="-2.229948333"><ele>51.000000</ele><time>2010-08-11T09:08:04Z</time></trkpt>
	<trkpt lat="51.92862667" lon="-2.230005"><ele>51.000000</ele><time>2010-08-11T09:08:09Z</time></trkpt>
	<trkpt lat="51.928585" lon="-2.230076667"><ele>50.000000</ele><time>2010-08-11T09:08:14Z</time></trkpt>
	<trkpt lat="51.92855" lon="-2.230125"><ele>48.000000</ele><time>2010-08-11T09:08:19Z</time></trkpt>
	<trkpt lat="51.928525" lon="-2.230155"><ele>48.000000</ele><time>2010-08-11T09:08:24Z</time></trkpt>
	<trkpt lat="51.92850833" lon="-2.230206667"><ele>47.000000</ele><time>2010-08-11T09:08:29Z</time></trkpt>
	<trkpt lat="51.92849833" lon="-2.230243333"><ele>46.000000</ele><time>2010-08-11T09:08:34Z</time></trkpt>
	<trkpt lat="51.92849333" lon="-2.230275"><ele>45.000000</ele><time>2010-08-11T09:08:39Z</time></trkpt>
	<trkpt lat="51.92849167" lon="-2.23031"><ele>45.000000</ele><time>2010-08-11T09:08:44Z</time></trkpt>
	<trkpt lat="51.92848833" lon="-2.230345"><ele>46.000000</ele><time>2010-08-11T09:08:49Z</time></trkpt>
	<trkpt lat="51.92846667" lon="-2.23041"><ele>47.000000</ele><time>2010-08-11T09:08:54Z</time></trkpt>
	<trkpt lat="51.928435" lon="-2.230476667"><ele>48.000000</ele><time>2010-08-11T09:08:59Z</time></trkpt>
	<trkpt lat="51.92842833" lon="-2.230533333"><ele>47.000000</ele><time>2010-08-11T09:09:04Z</time></trkpt>
	<trkpt lat="51.92842833" lon="-2.230558333"><ele>46.000000</ele><time>2010-08-11T09:09:09Z</time></trkpt>
	<trkpt lat="51.92842667" lon="-2.230608333"><ele>45.000000</ele><time>2010-08-11T09:09:14Z</time></trkpt>
	<trkpt lat="51.92842667" lon="-2.230658333"><ele>44.000000</ele><time>2010-08-11T09:09:19Z</time></trkpt>
	<trkpt lat="51.92842333" lon="-2.23069"><ele>43.000000</ele><time>2010-08-11T09:09:24Z</time></trkpt>
	<trkpt lat="51.92841833" lon="-2.230771667"><ele>42.000000</ele><time>2010-08-11T09:09:29Z</time></trkpt>
	<trkpt lat="51.92841167" lon="-2.230858333"><ele>42.000000</ele><time>2010-08-11T09:09:34Z</time></trkpt>
	<trkpt lat="51.92840333" lon="-2.230943333"><ele>42.000000</ele><time>2010-08-11T09:09:39Z</time></trkpt>
	<trkpt lat="51.92839" lon="-2.231021667"><ele>43.000000</ele><time>2010-08-11T09:09:44Z</time></trkpt>
	<trkpt lat="51.928375" lon="-2.2311"><ele>43.000000</ele><time>2010-08-11T09:09:49Z</time></trkpt>
	<trkpt lat="51.92836667" lon="-2.231186667"><ele>43.000000</ele><time>2010-08-11T09:09:54Z</time></trkpt>
	<trkpt lat="51.92835667" lon="-2.231276667"><ele>43.000000</ele><time>2010-08-11T09:09:59Z</time></trkpt>
	<trkpt lat="51.92835" lon="-2.23137"><ele>43.000000</ele><time>2010-08-11T09:10:04Z</time></trkpt>
	<trkpt lat="51.928345" lon="-2.231461667"><ele>43.000000</ele><time>2010-08-11T09:10:09Z</time></trkpt>
	<trkpt lat="51.92834833" lon="-2.231555"><ele>43.000000</ele><time>2010-08-11T09:10:14Z</time></trkpt>
	<trkpt lat="51.92833667" lon="-2.231645"><ele>43.000000</ele><time>2010-08-11T09:10:19Z</time></trkpt>
	<trkpt lat="51.92832167" lon="-2.231728333"><ele>43.000000</ele><time>2010-08-11T09:10:24Z</time></trkpt>
	<trkpt lat="51.92830333" lon="-2.231811667"><ele>42.000000</ele><time>2010-08-11T09:10:29Z</time></trkpt>
	<trkpt lat="51.92829" lon="-2.231898333"><ele>42.000000</ele><time>2010-08-11T09:10:34Z</time></trkpt>
	<trkpt lat="51.92828" lon="-2.23198"><ele>41.000000</ele><time>2010-08-11T09:10:39Z</time></trkpt>
	<trkpt lat="51.92826667" lon="-2.23206"><ele>41.000000</ele><time>2010-08-11T09:10:44Z</time></trkpt>
	<trkpt lat="51.92825833" lon="-2.232141667"><ele>41.000000</ele><time>2010-08-11T09:10:49Z</time></trkpt>
	<trkpt lat="51.92826333" lon="-2.232175"><ele>40.000000</ele><time>2010-08-11T09:10:54Z</time></trkpt>
	<trkpt lat="51.92826167" lon="-2.232236667"><ele>40.000000</ele><time>2010-08-11T09:10:59Z</time></trkpt>
	<trkpt lat="51.92826" lon="-2.232275"><ele>40.000000</ele><time>2010-08-11T09:11:04Z</time></trkpt>
	<trkpt lat="51.92826667" lon="-2.232293333"><ele>41.000000</ele><time>2010-08-11T09:11:09Z</time></trkpt>
	<trkpt lat="51.92826833" lon="-2.23232"><ele>41.000000</ele><time>2010-08-11T09:11:14Z</time></trkpt>
	<trkpt lat="51.92827" lon="-2.232343333"><ele>41.000000</ele><time>2010-08-11T09:11:19Z</time></trkpt>
	<trkpt lat="51.92826833" lon="-2.232366667"><ele>41.000000</ele><time>2010-08-11T09:11:24Z</time></trkpt>
	<trkpt lat="51.92824833" lon="-2.232433333"><ele>41.000000</ele><time>2010-08-11T09:11:29Z</time></trkpt>
	<trkpt lat="51.92822333" lon="-2.232491667"><ele>42.000000</ele><time>2010-08-11T09:11:34Z</time></trkpt>
	<trkpt lat="51.92820333" lon="-2.232535"><ele>43.000000</ele><time>2010-08-11T09:11:39Z</time></trkpt>
	<trkpt lat="51.92818" lon="-2.232583333"><ele>39.000000</ele><time>2010-08-11T09:11:44Z</time></trkpt>
	<trkpt lat="51.92818" lon="-2.232625"><ele>38.000000</ele><time>2010-08-11T09:11:49Z</time></trkpt>
	<trkpt lat="51.92817833" lon="-2.232665"><ele>38.000000</ele><time>2010-08-11T09:11:54Z</time></trkpt>
	<trkpt lat="51.92818" lon="-2.232675"><ele>38.000000</ele><time>2010-08-11T09:11:59Z</time></trkpt>
	<trkpt lat="51.92819333" lon="-2.2327"><ele>41.000000</ele><time>2010-08-11T09:12:04Z</time></trkpt>
	<trkpt lat="51.92819833" lon="-2.232726667"><ele>44.000000</ele><time>2010-08-11T09:12:09Z</time></trkpt>
	<trkpt lat="51.928195" lon="-2.23275"><ele>43.000000</ele><time>2010-08-11T09:12:14Z</time></trkpt>
	<trkpt lat="51.92817667" lon="-2.232786667"><ele>42.000000</ele><time>2010-08-11T09:12:19Z</time></trkpt>
	<trkpt lat="51.92815" lon="-2.232826667"><ele>41.000000</ele><time>2010-08-11T09:12:24Z</time></trkpt>
	<trkpt lat="51.928125" lon="-2.232888333"><ele>42.000000</ele><time>2010-08-11T09:12:29Z</time></trkpt>
	<trkpt lat="51.92809333" lon="-2.23294"><ele>42.000000</ele><time>2010-08-11T09:12:34Z</time></trkpt>
	<trkpt lat="51.92806" lon="-2.233013333"><ele>41.000000</ele><time>2010-08-11T09:12:39Z</time></trkpt>
	<trkpt lat="51.92804" lon="-2.23306"><ele>40.000000</ele><time>2010-08-11T09:12:44Z</time></trkpt>
	<trkpt lat="51.92801333" lon="-2.23312"><ele>39.000000</ele><time>2010-08-11T09:12:49Z</time></trkpt>
	<trkpt lat="51.92798333" lon="-2.233175"><ele>41.000000</ele><time>2010-08-11T09:12:54Z</time></trkpt>
	<trkpt lat="51.927975" lon="-2.23325"><ele>41.000000</ele><time>2010-08-11T09:12:59Z</time></trkpt>
	<trkpt lat="51.92795" lon="-2.233306667"><ele>42.000000</ele><time>2010-08-11T09:13:04Z</time></trkpt>
	<trkpt lat="51.92792333" lon="-2.233341667"><ele>43.000000</ele><time>2010-08-11T09:13:09Z</time></trkpt>
	<trkpt lat="51.92787833" lon="-2.233418333"><ele>42.000000</ele><time>2010-08-11T09:13:14Z</time></trkpt>
	<trkpt lat="51.92786167" lon="-2.233503333"><ele>43.000000</ele><time>2010-08-11T09:13:19Z</time></trkpt>
	<trkpt lat="51.92786167" lon="-2.233593333"><ele>43.000000</ele><time>2010-08-11T09:13:24Z</time></trkpt>
	<trkpt lat="51.92782833" lon="-2.233671667"><ele>40.000000</ele><time>2010-08-11T09:13:29Z</time></trkpt>
	<trkpt lat="51.927815" lon="-2.233725"><ele>38.000000</ele><time>2010-08-11T09:13:34Z</time></trkpt>
	<trkpt lat="51.92781833" lon="-2.233768333"><ele>37.000000</ele><time>2010-08-11T09:13:39Z</time></trkpt>
	<trkpt lat="51.92782833" lon="-2.233815"><ele>40.000000</ele><time>2010-08-11T09:13:44Z</time></trkpt>
	<trkpt lat="51.92783333" lon="-2.233865"><ele>42.000000</ele><time>2010-08-11T09:13:49Z</time></trkpt>
	<trkpt lat="51.92784333" lon="-2.233906667"><ele>45.000000</ele><time>2010-08-11T09:13:54Z</time></trkpt>
	<trkpt lat="51.92785333" lon="-2.233955"><ele>44.000000</ele><time>2010-08-11T09:13:59Z</time></trkpt>
	<trkpt lat="51.92786333" lon="-2.234016667"><ele>46.000000</ele><time>2010-08-11T09:14:04Z</time></trkpt>
	<trkpt lat="51.92786833" lon="-2.23406"><ele>47.000000</ele><time>2010-08-11T09:14:09Z</time></trkpt>
	<trkpt lat="51.92784167" lon="-2.234145"><ele>41.000000</ele><time>2010-08-11T09:14:14Z</time></trkpt>
	<trkpt lat="51.92782833" lon="-2.23419"><ele>39.000000</ele><time>2010-08-11T09:14:19Z</time></trkpt>
	<trkpt lat="51.927815" lon="-2.23424"><ele>40.000000</ele><time>2010-08-11T09:14:24Z</time></trkpt>
	<trkpt lat="51.9278" lon="-2.234278333"><ele>40.000000</ele><time>2010-08-11T09:14:29Z</time></trkpt>
	<trkpt lat="51.9278" lon="-2.234363333"><ele>38.000000</ele><time>2010-08-11T09:14:34Z</time></trkpt>
	<trkpt lat="51.92779667" lon="-2.234433333"><ele>37.000000</ele><time>2010-08-11T09:14:39Z</time></trkpt>
	<trkpt lat="51.927785" lon="-2.23448"><ele>39.000000</ele><time>2010-08-11T09:14:44Z</time></trkpt>
	<trkpt lat="51.927765" lon="-2.234535"><ele>38.000000</ele><time>2010-08-11T09:14:49Z</time></trkpt>
	<trkpt lat="51.927755" lon="-2.234586667"><ele>38.000000</ele><time>2010-08-11T09:14:54Z</time></trkpt>
	<trkpt lat="51.92774" lon="-2.23464"><ele>38.000000</ele><time>2010-08-11T09:14:59Z</time></trkpt>
	<trkpt lat="51.92773" lon="-2.234698333"><ele>37.000000</ele><time>2010-08-11T09:15:04Z</time></trkpt>
	<trkpt lat="51.92772" lon="-2.234741667"><ele>39.000000</ele><time>2010-08-11T09:15:09Z</time></trkpt>
	<trkpt lat="51.92771" lon="-2.234775"><ele>38.000000</ele><time>2010-08-11T09:15:14Z</time></trkpt>
	<trkpt lat="51.927705" lon="-2.234823333"><ele>37.000000</ele><time>2010-08-11T09:15:19Z</time></trkpt>
	<trkpt lat="51.92769667" lon="-2.234866667"><ele>34.000000</ele><time>2010-08-11T09:15:24Z</time></trkpt>
	<trkpt lat="51.92768167" lon="-2.234911667"><ele>31.000000</ele><time>2010-08-11T09:15:29Z</time></trkpt>
	<trkpt lat="51.927685" lon="-2.234953333"><ele>33.000000</ele><time>2010-08-11T09:15:34Z</time></trkpt>
	<trkpt lat="51.9277" lon="-2.23498"><ele>36.000000</ele><time>2010-08-11T09:15:39Z</time></trkpt>
	<trkpt lat="51.92769167" lon="-2.235023333"><ele>37.000000</ele><time>2010-08-11T09:15:44Z</time></trkpt>
	<trkpt lat="51.92768167" lon="-2.235065"><ele>39.000000</ele><time>2010-08-11T09:15:49Z</time></trkpt>
	<trkpt lat="51.92767833" lon="-2.23509"><ele>39.000000</ele><time>2010-08-11T09:15:54Z</time></trkpt>
	<trkpt lat="51.92767667" lon="-2.235116667"><ele>41.000000</ele><time>2010-08-11T09:15:59Z</time></trkpt>
	<trkpt lat="51.92764833" lon="-2.235185"><ele>35.000000</ele><time>2010-08-11T09:16:04Z</time></trkpt>
	<trkpt lat="51.92763333" lon="-2.23523"><ele>33.000000</ele><time>2010-08-11T09:16:09Z</time></trkpt>
	<trkpt lat="51.92760833" lon="-2.235271667"><ele>31.000000</ele><time>2010-08-11T09:16:14Z</time></trkpt>
	<trkpt lat="51.92759333" lon="-2.23531"><ele>29.000000</ele><time>2010-08-11T09:16:19Z</time></trkpt>
	<trkpt lat="51.927565" lon="-2.235358333"><ele>27.000000</ele><time>2010-08-11T09:16:24Z</time></trkpt>
	<trkpt lat="51.92754" lon="-2.235406667"><ele>27.000000</ele><time>2010-08-11T09:16:29Z</time></trkpt>
	<trkpt lat="51.92751833" lon="-2.235431667"><ele>28.000000</ele><time>2010-08-11T09:16:34Z</time></trkpt>
	<trkpt lat="51.92751167" lon="-2.23545"><ele>30.000000</ele><time>2010-08-11T09:16:39Z</time></trkpt>
	<trkpt lat="51.92749333" lon="-2.23547"><ele>30.000000</ele><time>2010-08-11T09:16:44Z</time></trkpt>
	<trkpt lat="51.92749667" lon="-2.23551"><ele>32.000000</ele><time>2010-08-11T09:16:49Z</time></trkpt>
	<trkpt lat="51.92749" lon="-2.235543333"><ele>33.000000</ele><time>2010-08-11T09:16:54Z</time></trkpt>
	<trkpt lat="51.92747" lon="-2.235598333"><ele>33.000000</ele><time>2010-08-11T09:16:59Z</time></trkpt>
	<trkpt lat="51.927465" lon="-2.235658333"><ele>36.000000</ele><time>2010-08-11T09:17:04Z</time></trkpt>
	<trkpt lat="51.92744" lon="-2.235745"><ele>34.000000</ele><time>2010-08-11T09:17:09Z</time></trkpt>
	<trkpt lat="51.92743167" lon="-2.235815"><ele>34.000000</ele><time>2010-08-11T09:17:14Z</time></trkpt>
	<trkpt lat="51.927435" lon="-2.235901667"><ele>31.000000</ele><time>2010-08-11T09:17:19Z</time></trkpt>
	<trkpt lat="51.92741" lon="-2.235998333"><ele>26.000000</ele><time>2010-08-11T09:17:24Z</time></trkpt>
	<trkpt lat="51.92739333" lon="-2.23607"><ele>23.000000</ele><time>2010-08-11T09:17:29Z</time></trkpt>
	<trkpt lat="51.92736167" lon="-2.236138333"><ele>19.000000</ele><time>2010-08-11T09:17:34Z</time></trkpt>
	<trkpt lat="51.92733333" lon="-2.236205"><ele>16.000000</ele><time>2010-08-11T09:17:39Z</time></trkpt>
	<trkpt lat="51.9273" lon="-2.236253333"><ele>17.000000</ele><time>2010-08-11T09:17:44Z</time></trkpt>
	<trkpt lat="51.92727167" lon="-2.236328333"><ele>20.000000</ele><time>2010-08-11T09:17:49Z</time></trkpt>
	<trkpt lat="51.92727333" lon="-2.236398333"><ele>25.000000</ele><time>2010-08-11T09:17:54Z</time></trkpt>
	<trkpt lat="51.92725333" lon="-2.236471667"><ele>26.000000</ele><time>2010-08-11T09:17:59Z</time></trkpt>
	<trkpt lat="51.92722667" lon="-2.236525"><ele>28.000000</ele><time>2010-08-11T09:18:04Z</time></trkpt>
	<trkpt lat="51.92719333" lon="-2.236571667"><ele>29.000000</ele><time>2010-08-11T09:18:09Z</time></trkpt>
	<trkpt lat="51.92717167" lon="-2.236606667"><ele>32.000000</ele><time>2010-08-11T09:18:14Z</time></trkpt>
	<trkpt lat="51.92714667" lon="-2.236668333"><ele>32.000000</ele><time>2010-08-11T09:18:19Z</time></trkpt>
	<trkpt lat="51.92710833" lon="-2.236738333"><ele>28.000000</ele><time>2010-08-11T09:18:24Z</time></trkpt>
	<trkpt lat="51.92708333" lon="-2.236816667"><ele>28.000000</ele><time>2010-08-11T09:18:29Z</time></trkpt>
	<trkpt lat="51.92706667" lon="-2.236865"><ele>31.000000</ele><time>2010-08-11T09:18:34Z</time></trkpt>
	<trkpt lat="51.92704833" lon="-2.23691"><ele>33.000000</ele><time>2010-08-11T09:18:39Z</time></trkpt>
	<trkpt lat="51.92702167" lon="-2.236965"><ele>33.000000</ele><time>2010-08-11T09:18:44Z</time></trkpt>
	<trkpt lat="51.92699667" lon="-2.237033333"><ele>30.000000</ele><time>2010-08-11T09:18:49Z</time></trkpt>
	<trkpt lat="51.92695833" lon="-2.237098333"><ele>27.000000</ele><time>2010-08-11T09:18:54Z</time></trkpt>
	<trkpt lat="51.92691667" lon="-2.237141667"><ele>24.000000</ele><time>2010-08-11T09:18:59Z</time></trkpt>
	<trkpt lat="51.92689333" lon="-2.237186667"><ele>23.000000</ele><time>2010-08-11T09:19:04Z</time></trkpt>
	<trkpt lat="51.92686333" lon="-2.23724"><ele>22.000000</ele><time>2010-08-11T09:19:09Z</time></trkpt>
	<trkpt lat="51.92685167" lon="-2.237316667"><ele>23.000000</ele><time>2010-08-11T09:19:14Z</time></trkpt>
	<trkpt lat="51.92683833" lon="-2.237401667"><ele>24.000000</ele><time>2010-08-11T09:19:19Z</time></trkpt>
	<trkpt lat="51.92682833" lon="-2.23746"><ele>25.000000</ele><time>2010-08-11T09:19:24Z</time></trkpt>
	<trkpt lat="51.92683" lon="-2.237513333"><ele>29.000000</ele><time>2010-08-11T09:19:29Z</time></trkpt>
	<trkpt lat="51.92683333" lon="-2.237573333"><ele>33.000000</ele><time>2010-08-11T09:19:34Z</time></trkpt>
	<trkpt lat="51.92682333" lon="-2.23763"><ele>34.000000</ele><time>2010-08-11T09:19:39Z</time></trkpt>
	<trkpt lat="51.92679333" lon="-2.237668333"><ele>34.000000</ele><time>2010-08-11T09:19:44Z</time></trkpt>
	<trkpt lat="51.92677167" lon="-2.2377"><ele>34.000000</ele><time>2010-08-11T09:19:49Z</time></trkpt>
	<trkpt lat="51.92674667" lon="-2.237706667"><ele>37.000000</ele><time>2010-08-11T09:19:54Z</time></trkpt>
	<trkpt lat="51.92674833" lon="-2.237713333"><ele>38.000000</ele><time>2010-08-11T09:19:59Z</time></trkpt>
	<trkpt lat="51.92673167" lon="-2.237766667"><ele>39.000000</ele><time>2010-08-11T09:20:04Z</time></trkpt>
	<trkpt lat="51.92672333" lon="-2.237818333"><ele>42.000000</ele><time>2010-08-11T09:20:09Z</time></trkpt>
	<trkpt lat="51.92672833" lon="-2.23791"><ele>40.000000</ele><time>2010-08-11T09:20:14Z</time></trkpt>
	<trkpt lat="51.92669833" lon="-2.237968333"><ele>40.000000</ele><time>2010-08-11T09:20:19Z</time></trkpt>
	<trkpt lat="51.92667667" lon="-2.238025"><ele>40.000000</ele><time>2010-08-11T09:20:24Z</time></trkpt>
	<trkpt lat="51.926665" lon="-2.238053333"><ele>39.000000</ele><time>2010-08-11T09:20:29Z</time></trkpt>
	<trkpt lat="51.92662833" lon="-2.238095"><ele>37.000000</ele><time>2010-08-11T09:20:34Z</time></trkpt>
	<trkpt lat="51.92659833" lon="-2.238153333"><ele>33.000000</ele><time>2010-08-11T09:20:39Z</time></trkpt>
	<trkpt lat="51.92657667" lon="-2.238201667"><ele>32.000000</ele><time>2010-08-11T09:20:44Z</time></trkpt>
	<trkpt lat="51.92656167" lon="-2.238231667"><ele>33.000000</ele><time>2010-08-11T09:20:49Z</time></trkpt>
	<trkpt lat="51.926575" lon="-2.238256667"><ele>36.000000</ele><time>2010-08-11T09:20:54Z</time></trkpt>
	<trkpt lat="51.92658" lon="-2.238255"><ele>40.000000</ele><time>2010-08-11T09:20:59Z</time></trkpt>
	<trkpt lat="51.92658833" lon="-2.23827"><ele>40.000000</ele><time>2010-08-11T09:21:04Z</time></trkpt>
	<trkpt lat="51.92657833" lon="-2.238308333"><ele>38.000000</ele><time>2010-08-11T09:21:09Z</time></trkpt>
	<trkpt lat="51.92653667" lon="-2.238376667"><ele>33.000000</ele><time>2010-08-11T09:21:14Z</time></trkpt>
	<trkpt lat="51.92652833" lon="-2.238413333"><ele>31.000000</ele><time>2010-08-11T09:21:19Z</time></trkpt>
	<trkpt lat="51.926515" lon="-2.238451667"><ele>29.000000</ele><time>2010-08-11T09:21:24Z</time></trkpt>
	<trkpt lat="51.926505" lon="-2.238513333"><ele>29.000000</ele><time>2010-08-11T09:21:29Z</time></trkpt>
	<trkpt lat="51.92650333" lon="-2.238581667"><ele>31.000000</ele><time>2010-08-11T09:21:34Z</time></trkpt>
	<trkpt lat="51.92649" lon="-2.23864"><ele>32.000000</ele><time>2010-08-11T09:21:39Z</time></trkpt>
	<trkpt lat="51.92647" lon="-2.238703333"><ele>31.000000</ele><time>2010-08-11T09:21:44Z</time></trkpt>
	<trkpt lat="51.92645833" lon="-2.238773333"><ele>30.000000</ele><time>2010-08-11T09:21:49Z</time></trkpt>
	<trkpt lat="51.92644167" lon="-2.238835"><ele>30.000000</ele><time>2010-08-11T09:21:54Z</time></trkpt>
	<trkpt lat="51.926425" lon="-2.238903333"><ele>29.000000</ele><time>2010-08-11T09:21:59Z</time></trkpt>
	<trkpt lat="51.92640833" lon="-2.238976667"><ele>29.000000</ele><time>2010-08-11T09:22:04Z</time></trkpt>
	<trkpt lat="51.926395" lon="-2.239053333"><ele>28.000000</ele><time>2010-08-11T09:22:09Z</time></trkpt>
	<trkpt lat="51.92637667" lon="-2.239128333"><ele>27.000000</ele><time>2010-08-11T09:22:14Z</time></trkpt>
	<trkpt lat="51.92636333" lon="-2.239203333"><ele>26.000000</ele><time>2010-08-11T09:22:19Z</time></trkpt>
	<trkpt lat="51.92636333" lon="-2.239283333"><ele>25.000000</ele><time>2010-08-11T09:22:24Z</time></trkpt>
	<trkpt lat="51.92635833" lon="-2.239363333"><ele>25.000000</ele><time>2010-08-11T09:22:29Z</time></trkpt>
	<trkpt lat="51.926345" lon="-2.239438333"><ele>24.000000</ele><time>2010-08-11T09:22:34Z</time></trkpt>
	<trkpt lat="51.926335" lon="-2.23952"><ele>23.000000</ele><time>2010-08-11T09:22:39Z</time></trkpt>
	<trkpt lat="51.92632" lon="-2.239598333"><ele>23.000000</ele><time>2010-08-11T09:22:44Z</time></trkpt>
	<trkpt lat="51.92630667" lon="-2.239675"><ele>23.000000</ele><time>2010-08-11T09:22:49Z</time></trkpt>
	<trkpt lat="51.92629667" lon="-2.239756667"><ele>22.000000</ele><time>2010-08-11T09:22:54Z</time></trkpt>
	<trkpt lat="51.926285" lon="-2.239836667"><ele>22.000000</ele><time>2010-08-11T09:22:59Z</time></trkpt>
	<trkpt lat="51.92628333" lon="-2.239916667"><ele>22.000000</ele><time>2010-08-11T09:23:04Z</time></trkpt>
	<trkpt lat="51.92627667" lon="-2.23999"><ele>22.000000</ele><time>2010-08-11T09:23:09Z</time></trkpt>
	<trkpt lat="51.92632167" lon="-2.239966667"><ele>20.000000</ele><time>2010-08-11T09:23:14Z</time></trkpt>
	<trkpt lat="51.92633167" lon="-2.239958333"><ele>20.000000</ele><time>2010-08-11T09:23:19Z</time></trkpt>
	<trkpt lat="51.92630333" lon="-2.24003"><ele>20.000000</ele><time>2010-08-11T09:23:24Z</time></trkpt>
	<trkpt lat="51.92628" lon="-2.240111667"><ele>20.000000</ele><time>2010-08-11T09:23:29Z</time></trkpt>
	<trkpt lat="51.92625333" lon="-2.240203333"><ele>19.000000</ele><time>2010-08-11T09:23:34Z</time></trkpt>
	<trkpt lat="51.92623167" lon="-2.240295"><ele>18.000000</ele><time>2010-08-11T09:23:39Z</time></trkpt>
	<trkpt lat="51.92621333" lon="-2.240381667"><ele>18.000000</ele><time>2010-08-11T09:23:44Z</time></trkpt>
	<trkpt lat="51.92619833" lon="-2.240468333"><ele>18.000000</ele><time>2010-08-11T09:23:49Z</time></trkpt>
	<trkpt lat="51.926185" lon="-2.240556667"><ele>18.000000</ele><time>2010-08-11T09:23:54Z</time></trkpt>
	<trkpt lat="51.92617667" lon="-2.24065"><ele>19.000000</ele><time>2010-08-11T09:23:59Z</time></trkpt>
	<trkpt lat="51.92617167" lon="-2.240755"><ele>19.000000</ele><time>2010-08-11T09:24:04Z</time></trkpt>
	<trkpt lat="51.92616667" lon="-2.240858333"><ele>19.000000</ele><time>2010-08-11T09:24:09Z</time></trkpt>
	<trkpt lat="51.92615" lon="-2.240956667"><ele>19.000000</ele><time>2010-08-11T09:24:14Z</time></trkpt>
	<trkpt lat="51.926145" lon="-2.241051667"><ele>19.000000</ele><time>2010-08-11T09:24:19Z</time></trkpt>
	<trkpt lat="51.92613167" lon="-2.241146667"><ele>19.000000</ele><time>2010-08-11T09:24:24Z</time></trkpt>
	<trkpt lat="51.92612" lon="-2.241235"><ele>18.000000</ele><time>2010-08-11T09:24:29Z</time></trkpt>
	<trkpt lat="51.926105" lon="-2.241318333"><ele>18.000000</ele><time>2010-08-11T09:24:34Z</time></trkpt>
	<trkpt lat="51.92609167" lon="-2.241406667"><ele>19.000000</ele><time>2010-08-11T09:24:39Z</time></trkpt>
	<trkpt lat="51.92607667" lon="-2.241493333"><ele>19.000000</ele><time>2010-08-11T09:24:44Z</time></trkpt>
	<trkpt lat="51.92605833" lon="-2.241578333"><ele>19.000000</ele><time>2010-08-11T09:24:49Z</time></trkpt>
	<trkpt lat="51.92604333" lon="-2.241666667"><ele>19.000000</ele><time>2010-08-11T09:24:54Z</time></trkpt>
	<trkpt lat="51.92602833" lon="-2.241751667"><ele>19.000000</ele><time>2010-08-11T09:24:59Z</time></trkpt>
	<trkpt lat="51.92601333" lon="-2.241838333"><ele>19.000000</ele><time>2010-08-11T09:25:04Z</time></trkpt>
	<trkpt lat="51.92599833" lon="-2.241921667"><ele>19.000000</ele><time>2010-08-11T09:25:09Z</time></trkpt>
	<trkpt lat="51.92597667" lon="-2.24201"><ele>19.000000</ele><time>2010-08-11T09:25:14Z</time></trkpt>
	<trkpt lat="51.92596" lon="-2.242091667"><ele>18.000000</ele><time>2010-08-11T09:25:19Z</time></trkpt>
	<trkpt lat="51.92594333" lon="-2.242175"><ele>18.000000</ele><time>2010-08-11T09:25:24Z</time></trkpt>
	<trkpt lat="51.92592833" lon="-2.242258333"><ele>18.000000</ele><time>2010-08-11T09:25:29Z</time></trkpt>
	<trkpt lat="51.92591167" lon="-2.242341667"><ele>19.000000</ele><time>2010-08-11T09:25:34Z</time></trkpt>
	<trkpt lat="51.925895" lon="-2.24243"><ele>18.000000</ele><time>2010-08-11T09:25:39Z</time></trkpt>
	<trkpt lat="51.92588167" lon="-2.242513333"><ele>19.000000</ele><time>2010-08-11T09:25:44Z</time></trkpt>
	<trkpt lat="51.925865" lon="-2.242595"><ele>19.000000</ele><time>2010-08-11T09:25:49Z</time></trkpt>
	<trkpt lat="51.92585167" lon="-2.242676667"><ele>19.000000</ele><time>2010-08-11T09:25:54Z</time></trkpt>
	<trkpt lat="51.92583667" lon="-2.242763333"><ele>18.000000</ele><time>2010-08-11T09:25:59Z</time></trkpt>
	<trkpt lat="51.92582333" lon="-2.242841667"><ele>18.000000</ele><time>2010-08-11T09:26:04Z</time></trkpt>
	<trkpt lat="51.92581167" lon="-2.242918333"><ele>18.000000</ele><time>2010-08-11T09:26:09Z</time></trkpt>
	<trkpt lat="51.92580167" lon="-2.242976667"><ele>19.000000</ele><time>2010-08-11T09:26:14Z</time></trkpt>
	<trkpt lat="51.92578167" lon="-2.243053333"><ele>19.000000</ele><time>2010-08-11T09:26:19Z</time></trkpt>
	<trkpt lat="51.92576667" lon="-2.243135"><ele>19.000000</ele><time>2010-08-11T09:26:24Z</time></trkpt>
	<trkpt lat="51.92574833" lon="-2.243221667"><ele>19.000000</ele><time>2010-08-11T09:26:29Z</time></trkpt>
	<trkpt lat="51.92573167" lon="-2.243308333"><ele>18.000000</ele><time>2010-08-11T09:26:34Z</time></trkpt>
	<trkpt lat="51.925715" lon="-2.243393333"><ele>18.000000</ele><time>2010-08-11T09:26:39Z</time></trkpt>
	<trkpt lat="51.9257" lon="-2.243471667"><ele>18.000000</ele><time>2010-08-11T09:26:44Z</time></trkpt>
	<trkpt lat="51.92568667" lon="-2.24355"><ele>18.000000</ele><time>2010-08-11T09:26:49Z</time></trkpt>
	<trkpt lat="51.925675" lon="-2.24363"><ele>18.000000</ele><time>2010-08-11T09:26:54Z</time></trkpt>
	<trkpt lat="51.92565833" lon="-2.243696667"><ele>19.000000</ele><time>2010-08-11T09:26:59Z</time></trkpt>
	<trkpt lat="51.925645" lon="-2.243783333"><ele>19.000000</ele><time>2010-08-11T09:27:04Z</time></trkpt>
	<trkpt lat="51.92563667" lon="-2.243861667"><ele>20.000000</ele><time>2010-08-11T09:27:09Z</time></trkpt>
	<trkpt lat="51.92566" lon="-2.243948333"><ele>20.000000</ele><time>2010-08-11T09:27:14Z</time></trkpt>
	<trkpt lat="51.92568667" lon="-2.244025"><ele>20.000000</ele><time>2010-08-11T09:27:19Z</time></trkpt>
	<trkpt lat="51.92571833" lon="-2.244095"><ele>20.000000</ele><time>2010-08-11T09:27:24Z</time></trkpt>
	<trkpt lat="51.92573667" lon="-2.244143333"><ele>20.000000</ele><time>2010-08-11T09:27:29Z</time></trkpt>
	<trkpt lat="51.92573667" lon="-2.244141667"><ele>21.000000</ele><time>2010-08-11T09:27:34Z</time></trkpt>
	<trkpt lat="51.92570667" lon="-2.244086667"><ele>21.000000</ele><time>2010-08-11T09:27:39Z</time></trkpt>
	<trkpt lat="51.92566167" lon="-2.244035"><ele>20.000000</ele><time>2010-08-11T09:27:44Z</time></trkpt>
	<trkpt lat="51.92561" lon="-2.244051667"><ele>20.000000</ele><time>2010-08-11T09:27:49Z</time></trkpt>
	<trkpt lat="51.92557833" lon="-2.244136667"><ele>19.000000</ele><time>2010-08-11T09:27:54Z</time></trkpt>
	<trkpt lat="51.92557167" lon="-2.244231667"><ele>19.000000</ele><time>2010-08-11T09:27:59Z</time></trkpt>
	<trkpt lat="51.925585" lon="-2.244331667"><ele>18.000000</ele><time>2010-08-11T09:28:04Z</time></trkpt>
	<trkpt lat="51.92560167" lon="-2.244431667"><ele>18.000000</ele><time>2010-08-11T09:28:09Z</time></trkpt>
	<trkpt lat="51.92562333" lon="-2.244518333"><ele>18.000000</ele><time>2010-08-11T09:28:14Z</time></trkpt>
	<trkpt lat="51.92561167" lon="-2.244606667"><ele>18.000000</ele><time>2010-08-11T09:28:19Z</time></trkpt>
	<trkpt lat="51.92558333" lon="-2.244698333"><ele>18.000000</ele><time>2010-08-11T09:28:24Z</time></trkpt>
	<trkpt lat="51.92555167" lon="-2.24478"><ele>18.000000</ele><time>2010-08-11T09:28:29Z</time></trkpt>
	<trkpt lat="51.92552333" lon="-2.244863333"><ele>18.000000</ele><time>2010-08-11T09:28:34Z</time></trkpt>
	<trkpt lat="51.92549667" lon="-2.244946667"><ele>18.000000</ele><time>2010-08-11T09:28:39Z</time></trkpt>
	<trkpt lat="51.92546833" lon="-2.245031667"><ele>18.000000</ele><time>2010-08-11T09:28:44Z</time></trkpt>
	<trkpt lat="51.92544167" lon="-2.245115"><ele>18.000000</ele><time>2010-08-11T09:28:49Z</time></trkpt>
	<trkpt lat="51.92541" lon="-2.245198333"><ele>18.000000</ele><time>2010-08-11T09:28:54Z</time></trkpt>
	<trkpt lat="51.92538" lon="-2.245275"><ele>18.000000</ele><time>2010-08-11T09:28:59Z</time></trkpt>
	<trkpt lat="51.925345" lon="-2.245355"><ele>18.000000</ele><time>2010-08-11T09:29:04Z</time></trkpt>
	<trkpt lat="51.92531" lon="-2.245431667"><ele>19.000000</ele><time>2010-08-11T09:29:09Z</time></trkpt>
	<trkpt lat="51.92527667" lon="-2.245508333"><ele>19.000000</ele><time>2010-08-11T09:29:14Z</time></trkpt>
	<trkpt lat="51.92524167" lon="-2.245586667"><ele>20.000000</ele><time>2010-08-11T09:29:19Z</time></trkpt>
	<trkpt lat="51.925205" lon="-2.24567"><ele>19.000000</ele><time>2010-08-11T09:29:24Z</time></trkpt>
	<trkpt lat="51.92517167" lon="-2.245748333"><ele>19.000000</ele><time>2010-08-11T09:29:29Z</time></trkpt>
	<trkpt lat="51.92513833" lon="-2.245828333"><ele>20.000000</ele><time>2010-08-11T09:29:34Z</time></trkpt>
	<trkpt lat="51.92510333" lon="-2.245903333"><ele>20.000000</ele><time>2010-08-11T09:29:39Z</time></trkpt>
	<trkpt lat="51.92507" lon="-2.245988333"><ele>19.000000</ele><time>2010-08-11T09:29:44Z</time></trkpt>
	<trkpt lat="51.92503833" lon="-2.24607"><ele>18.000000</ele><time>2010-08-11T09:29:49Z</time></trkpt>
	<trkpt lat="51.92500333" lon="-2.246151667"><ele>18.000000</ele><time>2010-08-11T09:29:54Z</time></trkpt>
	<trkpt lat="51.92496833" lon="-2.246233333"><ele>18.000000</ele><time>2010-08-11T09:29:59Z</time></trkpt>
	<trkpt lat="51.92492833" lon="-2.246303333"><ele>18.000000</ele><time>2010-08-11T09:30:04Z</time></trkpt>
	<trkpt lat="51.92489" lon="-2.246378333"><ele>17.000000</ele><time>2010-08-11T09:30:09Z</time></trkpt>
	<trkpt lat="51.92485167" lon="-2.246446667"><ele>18.000000</ele><time>2010-08-11T09:30:14Z</time></trkpt>
	<trkpt lat="51.924815" lon="-2.246515"><ele>18.000000</ele><time>2010-08-11T09:30:19Z</time></trkpt>
	<trkpt lat="51.92477667" lon="-2.246581667"><ele>19.000000</ele><time>2010-08-11T09:30:24Z</time></trkpt>
	<trkpt lat="51.92473833" lon="-2.246655"><ele>19.000000</ele><time>2010-08-11T09:30:29Z</time></trkpt>
	<trkpt lat="51.9247" lon="-2.246728333"><ele>20.000000</ele><time>2010-08-11T09:30:34Z</time></trkpt>
	<trkpt lat="51.92466333" lon="-2.246806667"><ele>20.000000</ele><time>2010-08-11T09:30:39Z</time></trkpt>
	<trkpt lat="51.92462" lon="-2.246875"><ele>21.000000</ele><time>2010-08-11T09:30:44Z</time></trkpt>
	<trkpt lat="51.924575" lon="-2.246951667"><ele>21.000000</ele><time>2010-08-11T09:30:49Z</time></trkpt>
	<trkpt lat="51.92453667" lon="-2.247021667"><ele>21.000000</ele><time>2010-08-11T09:30:54Z</time></trkpt>
	<trkpt lat="51.924505" lon="-2.247088333"><ele>21.000000</ele><time>2010-08-11T09:30:59Z</time></trkpt>
	<trkpt lat="51.92449833" lon="-2.247106667"><ele>20.000000</ele><time>2010-08-11T09:31:04Z</time></trkpt>
	<trkpt lat="51.92446667" lon="-2.24717"><ele>20.000000</ele><time>2010-08-11T09:31:09Z</time></trkpt>
	<trkpt lat="51.92442167" lon="-2.247255"><ele>20.000000</ele><time>2010-08-11T09:31:15Z</time></trkpt>
	<trkpt lat="51.92438667" lon="-2.247321667"><ele>20.000000</ele><time>2010-08-11T09:31:20Z</time></trkpt>
	<trkpt lat="51.92434667" lon="-2.24738"><ele>21.000000</ele><time>2010-08-11T09:31:25Z</time></trkpt>
	<trkpt lat="51.92430833" lon="-2.24744"><ele>22.000000</ele><time>2010-08-11T09:31:30Z</time></trkpt>
	<trkpt lat="51.92427333" lon="-2.247511667"><ele>22.000000</ele><time>2010-08-11T09:31:35Z</time></trkpt>
	<trkpt lat="51.92423333" lon="-2.247578333"><ele>22.000000</ele><time>2010-08-11T09:31:40Z</time></trkpt>
	<trkpt lat="51.92419167" lon="-2.247651667"><ele>21.000000</ele><time>2010-08-11T09:31:45Z</time></trkpt>
	<trkpt lat="51.92414833" lon="-2.247706667"><ele>21.000000</ele><time>2010-08-11T09:31:50Z</time></trkpt>
	<trkpt lat="51.924125" lon="-2.247745"><ele>22.000000</ele><time>2010-08-11T09:31:55Z</time></trkpt>
	<trkpt lat="51.92411833" lon="-2.247768333"><ele>22.000000</ele><time>2010-08-11T09:32:00Z</time></trkpt>
	<trkpt lat="51.924095" lon="-2.247813333"><ele>22.000000</ele><time>2010-08-11T09:32:05Z</time></trkpt>
	<trkpt lat="51.92406833" lon="-2.24788"><ele>22.000000</ele><time>2010-08-11T09:32:10Z</time></trkpt>
	<trkpt lat="51.92403667" lon="-2.247945"><ele>21.000000</ele><time>2010-08-11T09:32:15Z</time></trkpt>
	<trkpt lat="51.924005" lon="-2.248006667"><ele>20.000000</ele><time>2010-08-11T09:32:20Z</time></trkpt>
	<trkpt lat="51.92397167" lon="-2.24806"><ele>21.000000</ele><time>2010-08-11T09:32:25Z</time></trkpt>
	<trkpt lat="51.92393667" lon="-2.248121667"><ele>21.000000</ele><time>2010-08-11T09:32:30Z</time></trkpt>
	<trkpt lat="51.923905" lon="-2.248195"><ele>20.000000</ele><time>2010-08-11T09:32:35Z</time></trkpt>
	<trkpt lat="51.92386833" lon="-2.248253333"><ele>21.000000</ele><time>2010-08-11T09:32:40Z</time></trkpt>
	<trkpt lat="51.92383" lon="-2.24831"><ele>21.000000</ele><time>2010-08-11T09:32:45Z</time></trkpt>
	<trkpt lat="51.92378833" lon="-2.248373333"><ele>20.000000</ele><time>2010-08-11T09:32:50Z</time></trkpt>
	<trkpt lat="51.92375667" lon="-2.248433333"><ele>19.000000</ele><time>2010-08-11T09:32:55Z</time></trkpt>
	<trkpt lat="51.92372167" lon="-2.248491667"><ele>20.000000</ele><time>2010-08-11T09:33:00Z</time></trkpt>
	<trkpt lat="51.92368333" lon="-2.248543333"><ele>19.000000</ele><time>2010-08-11T09:33:05Z</time></trkpt>
	<trkpt lat="51.92364833" lon="-2.248596667"><ele>19.000000</ele><time>2010-08-11T09:33:10Z</time></trkpt>
	<trkpt lat="51.923615" lon="-2.248653333"><ele>19.000000</ele><time>2010-08-11T09:33:15Z</time></trkpt>
	<trkpt lat="51.923585" lon="-2.248706667"><ele>19.000000</ele><time>2010-08-11T09:33:20Z</time></trkpt>
	<trkpt lat="51.92355667" lon="-2.24876"><ele>19.000000</ele><time>2010-08-11T09:33:25Z</time></trkpt>
	<trkpt lat="51.92353833" lon="-2.24879"><ele>18.000000</ele><time>2010-08-11T09:33:30Z</time></trkpt>
	<trkpt lat="51.92353333" lon="-2.248806667"><ele>17.000000</ele><time>2010-08-11T09:33:35Z</time></trkpt>
	<trkpt lat="51.92350167" lon="-2.248865"><ele>17.000000</ele><time>2010-08-11T09:33:40Z</time></trkpt>
	<trkpt lat="51.92346167" lon="-2.248925"><ele>17.000000</ele><time>2010-08-11T09:33:45Z</time></trkpt>
	<trkpt lat="51.92342833" lon="-2.248993333"><ele>17.000000</ele><time>2010-08-11T09:33:50Z</time></trkpt>
	<trkpt lat="51.92339333" lon="-2.249061667"><ele>17.000000</ele><time>2010-08-11T09:33:55Z</time></trkpt>
	<trkpt lat="51.923365" lon="-2.249131667"><ele>17.000000</ele><time>2010-08-11T09:34:00Z</time></trkpt>
	<trkpt lat="51.92333333" lon="-2.2492"><ele>18.000000</ele><time>2010-08-11T09:34:05Z</time></trkpt>
	<trkpt lat="51.92330333" lon="-2.249271667"><ele>18.000000</ele><time>2010-08-11T09:34:10Z</time></trkpt>
	<trkpt lat="51.92327333" lon="-2.249346667"><ele>18.000000</ele><time>2010-08-11T09:34:15Z</time></trkpt>
	<trkpt lat="51.92324333" lon="-2.249423333"><ele>17.000000</ele><time>2010-08-11T09:34:20Z</time></trkpt>
	<trkpt lat="51.92321167" lon="-2.249495"><ele>17.000000</ele><time>2010-08-11T09:34:25Z</time></trkpt>
	<trkpt lat="51.92318" lon="-2.249558333"><ele>18.000000</ele><time>2010-08-11T09:34:30Z</time></trkpt>
	<trkpt lat="51.92314833" lon="-2.24963"><ele>19.000000</ele><time>2010-08-11T09:34:35Z</time></trkpt>
	<trkpt lat="51.92311333" lon="-2.249703333"><ele>19.000000</ele><time>2010-08-11T09:34:40Z</time></trkpt>
	<trkpt lat="51.92308" lon="-2.249778333"><ele>19.000000</ele><time>2010-08-11T09:34:45Z</time></trkpt>
	<trkpt lat="51.923045" lon="-2.249836667"><ele>19.000000</ele><time>2010-08-11T09:34:50Z</time></trkpt>
	<trkpt lat="51.92301667" lon="-2.249911667"><ele>18.000000</ele><time>2010-08-11T09:34:55Z</time></trkpt>
	<trkpt lat="51.92298667" lon="-2.249976667"><ele>18.000000</ele><time>2010-08-11T09:35:00Z</time></trkpt>
	<trkpt lat="51.92295667" lon="-2.250036667"><ele>19.000000</ele><time>2010-08-11T09:35:05Z</time></trkpt>
	<trkpt lat="51.92293333" lon="-2.250108333"><ele>19.000000</ele><time>2010-08-11T09:35:10Z</time></trkpt>
	<trkpt lat="51.92290833" lon="-2.25018"><ele>20.000000</ele><time>2010-08-11T09:35:15Z</time></trkpt>
	<trkpt lat="51.92288167" lon="-2.250251667"><ele>20.000000</ele><time>2010-08-11T09:35:20Z</time></trkpt>
	<trkpt lat="51.92285167" lon="-2.25032"><ele>20.000000</ele><time>2010-08-11T09:35:25Z</time></trkpt>
	<trkpt lat="51.92284167" lon="-2.250366667"><ele>21.000000</ele><time>2010-08-11T09:35:30Z</time></trkpt>
	<trkpt lat="51.92282167" lon="-2.250443333"><ele>21.000000</ele><time>2010-08-11T09:35:35Z</time></trkpt>
	<trkpt lat="51.92279833" lon="-2.250515"><ele>22.000000</ele><time>2010-08-11T09:35:40Z</time></trkpt>
	<trkpt lat="51.922775" lon="-2.250596667"><ele>22.000000</ele><time>2010-08-11T09:35:45Z</time></trkpt>
	<trkpt lat="51.92275333" lon="-2.250688333"><ele>22.000000</ele><time>2010-08-11T09:35:50Z</time></trkpt>
	<trkpt lat="51.92272333" lon="-2.250768333"><ele>22.000000</ele><time>2010-08-11T09:35:55Z</time></trkpt>
	<trkpt lat="51.92270167" lon="-2.250851667"><ele>22.000000</ele><time>2010-08-11T09:36:00Z</time></trkpt>
	<trkpt lat="51.92268333" lon="-2.250933333"><ele>22.000000</ele><time>2010-08-11T09:36:05Z</time></trkpt>
	<trkpt lat="51.92267167" lon="-2.250986667"><ele>22.000000</ele><time>2010-08-11T09:36:10Z</time></trkpt>
	<trkpt lat="51.92265667" lon="-2.251068333"><ele>23.000000</ele><time>2010-08-11T09:36:15Z</time></trkpt>
	<trkpt lat="51.92264167" lon="-2.251146667"><ele>23.000000</ele><time>2010-08-11T09:36:20Z</time></trkpt>
	<trkpt lat="51.92262667" lon="-2.251216667"><ele>23.000000</ele><time>2010-08-11T09:36:25Z</time></trkpt>
	<trkpt lat="51.92260667" lon="-2.251306667"><ele>22.000000</ele><time>2010-08-11T09:36:30Z</time></trkpt>
	<trkpt lat="51.92257833" lon="-2.251393333"><ele>21.000000</ele><time>2010-08-11T09:36:35Z</time></trkpt>
	<trkpt lat="51.92256167" lon="-2.251486667"><ele>20.000000</ele><time>2010-08-11T09:36:40Z</time></trkpt>
	<trkpt lat="51.92255" lon="-2.251571667"><ele>20.000000</ele><time>2010-08-11T09:36:45Z</time></trkpt>
	<trkpt lat="51.92253667" lon="-2.251658333"><ele>19.000000</ele><time>2010-08-11T09:36:50Z</time></trkpt>
	<trkpt lat="51.92252" lon="-2.251743333"><ele>19.000000</ele><time>2010-08-11T09:36:55Z</time></trkpt>
	<trkpt lat="51.922505" lon="-2.251833333"><ele>19.000000</ele><time>2010-08-11T09:37:00Z</time></trkpt>
	<trkpt lat="51.92249" lon="-2.25192"><ele>19.000000</ele><time>2010-08-11T09:37:05Z</time></trkpt>
	<trkpt lat="51.92247" lon="-2.252003333"><ele>18.000000</ele><time>2010-08-11T09:37:10Z</time></trkpt>
	<trkpt lat="51.92244" lon="-2.252078333"><ele>18.000000</ele><time>2010-08-11T09:37:15Z</time></trkpt>
	<trkpt lat="51.92242167" lon="-2.252155"><ele>17.000000</ele><time>2010-08-11T09:37:20Z</time></trkpt>
	<trkpt lat="51.92240667" lon="-2.252233333"><ele>17.000000</ele><time>2010-08-11T09:37:25Z</time></trkpt>
	<trkpt lat="51.9224" lon="-2.252315"><ele>17.000000</ele><time>2010-08-11T09:37:30Z</time></trkpt>
	<trkpt lat="51.92239167" lon="-2.252396667"><ele>17.000000</ele><time>2010-08-11T09:37:35Z</time></trkpt>
	<trkpt lat="51.92238833" lon="-2.252481667"><ele>17.000000</ele><time>2010-08-11T09:37:40Z</time></trkpt>
	<trkpt lat="51.92238" lon="-2.252568333"><ele>17.000000</ele><time>2010-08-11T09:37:45Z</time></trkpt>
	<trkpt lat="51.922375" lon="-2.252653333"><ele>17.000000</ele><time>2010-08-11T09:37:50Z</time></trkpt>
	<trkpt lat="51.92236833" lon="-2.252743333"><ele>17.000000</ele><time>2010-08-11T09:37:55Z</time></trkpt>
	<trkpt lat="51.922365" lon="-2.252828333"><ele>16.000000</ele><time>2010-08-11T09:38:00Z</time></trkpt>
	<trkpt lat="51.922365" lon="-2.252913333"><ele>16.000000</ele><time>2010-08-11T09:38:05Z</time></trkpt>
	<trkpt lat="51.92234667" lon="-2.252991667"><ele>17.000000</ele><time>2010-08-11T09:38:10Z</time></trkpt>
	<trkpt lat="51.92233167" lon="-2.253078333"><ele>17.000000</ele><time>2010-08-11T09:38:15Z</time></trkpt>
	<trkpt lat="51.92232" lon="-2.253165"><ele>17.000000</ele><time>2010-08-11T09:38:20Z</time></trkpt>
	<trkpt lat="51.92231333" lon="-2.253243333"><ele>17.000000</ele><time>2010-08-11T09:38:25Z</time></trkpt>
	<trkpt lat="51.922315" lon="-2.25332"><ele>17.000000</ele><time>2010-08-11T09:38:30Z</time></trkpt>
	<trkpt lat="51.92231333" lon="-2.253393333"><ele>17.000000</ele><time>2010-08-11T09:38:35Z</time></trkpt>
	<trkpt lat="51.92231" lon="-2.25347"><ele>17.000000</ele><time>2010-08-11T09:38:40Z</time></trkpt>
	<trkpt lat="51.92230833" lon="-2.253541667"><ele>17.000000</ele><time>2010-08-11T09:38:45Z</time></trkpt>
	<trkpt lat="51.92231" lon="-2.253596667"><ele>17.000000</ele><time>2010-08-11T09:38:50Z</time></trkpt>
	<trkpt lat="51.92231167" lon="-2.253675"><ele>17.000000</ele><time>2010-08-11T09:38:55Z</time></trkpt>
	<trkpt lat="51.92231167" lon="-2.25376"><ele>17.000000</ele><time>2010-08-11T09:39:00Z</time></trkpt>
	<trkpt lat="51.922315" lon="-2.253843333"><ele>17.000000</ele><time>2010-08-11T09:39:05Z</time></trkpt>
	<trkpt lat="51.92232167" lon="-2.25393"><ele>17.000000</ele><time>2010-08-11T09:39:10Z</time></trkpt>
	<trkpt lat="51.92232667" lon="-2.254015"><ele>17.000000</ele><time>2010-08-11T09:39:15Z</time></trkpt>
	<trkpt lat="51.92233167" lon="-2.254098333"><ele>17.000000</ele><time>2010-08-11T09:39:20Z</time></trkpt>
	<trkpt lat="51.92233667" lon="-2.254181667"><ele>17.000000</ele><time>2010-08-11T09:39:25Z</time></trkpt>
	<trkpt lat="51.92234667" lon="-2.254263333"><ele>17.000000</ele><time>2010-08-11T09:39:30Z</time></trkpt>
	<trkpt lat="51.922355" lon="-2.254346667"><ele>17.000000</ele><time>2010-08-11T09:39:35Z</time></trkpt>
	<trkpt lat="51.92236" lon="-2.25443"><ele>17.000000</ele><time>2010-08-11T09:39:40Z</time></trkpt>
	<trkpt lat="51.922365" lon="-2.254513333"><ele>17.000000</ele><time>2010-08-11T09:39:45Z</time></trkpt>
	<trkpt lat="51.92237333" lon="-2.254598333"><ele>17.000000</ele><time>2010-08-11T09:39:50Z</time></trkpt>
	<trkpt lat="51.92237667" lon="-2.254683333"><ele>17.000000</ele><time>2010-08-11T09:39:55Z</time></trkpt>
	<trkpt lat="51.92237833" lon="-2.254763333"><ele>17.000000</ele><time>2010-08-11T09:40:00Z</time></trkpt>
	<trkpt lat="51.922385" lon="-2.254846667"><ele>17.000000</ele><time>2010-08-11T09:40:05Z</time></trkpt>
	<trkpt lat="51.92238833" lon="-2.254925"><ele>17.000000</ele><time>2010-08-11T09:40:10Z</time></trkpt>
	<trkpt lat="51.92239333" lon="-2.255006667"><ele>17.000000</ele><time>2010-08-11T09:40:15Z</time></trkpt>
	<trkpt lat="51.92239667" lon="-2.255088333"><ele>18.000000</ele><time>2010-08-11T09:40:20Z</time></trkpt>
	<trkpt lat="51.92240167" lon="-2.255163333"><ele>18.000000</ele><time>2010-08-11T09:40:25Z</time></trkpt>
	<trkpt lat="51.92241167" lon="-2.255238333"><ele>18.000000</ele><time>2010-08-11T09:40:30Z</time></trkpt>
	<trkpt lat="51.922415" lon="-2.255303333"><ele>18.000000</ele><time>2010-08-11T09:40:35Z</time></trkpt>
	<trkpt lat="51.92242667" lon="-2.25538"><ele>18.000000</ele><time>2010-08-11T09:40:40Z</time></trkpt>
	<trkpt lat="51.92244333" lon="-2.25546"><ele>18.000000</ele><time>2010-08-11T09:40:45Z</time></trkpt>
	<trkpt lat="51.92246167" lon="-2.255545"><ele>18.000000</ele><time>2010-08-11T09:40:50Z</time></trkpt>
	<trkpt lat="51.92248" lon="-2.255625"><ele>18.000000</ele><time>2010-08-11T09:40:55Z</time></trkpt>
	<trkpt lat="51.9225" lon="-2.2557"><ele>18.000000</ele><time>2010-08-11T09:41:00Z</time></trkpt>
	<trkpt lat="51.92251333" lon="-2.255775"><ele>18.000000</ele><time>2010-08-11T09:41:05Z</time></trkpt>
	<trkpt lat="51.92253333" lon="-2.255846667"><ele>18.000000</ele><time>2010-08-11T09:41:10Z</time></trkpt>
	<trkpt lat="51.92255" lon="-2.255925"><ele>18.000000</ele><time>2010-08-11T09:41:15Z</time></trkpt>
	<trkpt lat="51.922565" lon="-2.256005"><ele>18.000000</ele><time>2010-08-11T09:41:20Z</time></trkpt>
	<trkpt lat="51.922575" lon="-2.256085"><ele>18.000000</ele><time>2010-08-11T09:41:25Z</time></trkpt>
	<trkpt lat="51.92258167" lon="-2.256163333"><ele>18.000000</ele><time>2010-08-11T09:41:30Z</time></trkpt>
	<trkpt lat="51.92258667" lon="-2.256245"><ele>18.000000</ele><time>2010-08-11T09:41:35Z</time></trkpt>
	<trkpt lat="51.92258667" lon="-2.256328333"><ele>18.000000</ele><time>2010-08-11T09:41:40Z</time></trkpt>
	<trkpt lat="51.92258667" lon="-2.256401667"><ele>17.000000</ele><time>2010-08-11T09:41:45Z</time></trkpt>
	<trkpt lat="51.92258667" lon="-2.256486667"><ele>17.000000</ele><time>2010-08-11T09:41:50Z</time></trkpt>
	<trkpt lat="51.92258167" lon="-2.25657"><ele>17.000000</ele><time>2010-08-11T09:41:55Z</time></trkpt>
	<trkpt lat="51.92257833" lon="-2.25665"><ele>17.000000</ele><time>2010-08-11T09:42:00Z</time></trkpt>
	<trkpt lat="51.92258167" lon="-2.256731667"><ele>17.000000</ele><time>2010-08-11T09:42:05Z</time></trkpt>
	<trkpt lat="51.92259667" lon="-2.256813333"><ele>17.000000</ele><time>2010-08-11T09:42:10Z</time></trkpt>
	<trkpt lat="51.92261167" lon="-2.25689"><ele>17.000000</ele><time>2010-08-11T09:42:15Z</time></trkpt>
	<trkpt lat="51.92263333" lon="-2.256953333"><ele>17.000000</ele><time>2010-08-11T09:42:20Z</time></trkpt>
	<trkpt lat="51.92266" lon="-2.257033333"><ele>17.000000</ele><time>2010-08-11T09:42:25Z</time></trkpt>
	<trkpt lat="51.92268667" lon="-2.25711"><ele>16.000000</ele><time>2010-08-11T09:42:30Z</time></trkpt>
	<trkpt lat="51.922715" lon="-2.25718"><ele>16.000000</ele><time>2010-08-11T09:42:35Z</time></trkpt>
	<trkpt lat="51.92273833" lon="-2.257258333"><ele>16.000000</ele><time>2010-08-11T09:42:40Z</time></trkpt>
	<trkpt lat="51.92275833" lon="-2.257333333"><ele>15.000000</ele><time>2010-08-11T09:42:45Z</time></trkpt>
	<trkpt lat="51.92278" lon="-2.257408333"><ele>15.000000</ele><time>2010-08-11T09:42:50Z</time></trkpt>
	<trkpt lat="51.9228" lon="-2.257481667"><ele>15.000000</ele><time>2010-08-11T09:42:55Z</time></trkpt>
	<trkpt lat="51.92281833" lon="-2.257555"><ele>15.000000</ele><time>2010-08-11T09:43:00Z</time></trkpt>
	<trkpt lat="51.92283667" lon="-2.25763"><ele>15.000000</ele><time>2010-08-11T09:43:05Z</time></trkpt>
	<trkpt lat="51.92286" lon="-2.257703333"><ele>14.000000</ele><time>2010-08-11T09:43:10Z</time></trkpt>
	<trkpt lat="51.92288167" lon="-2.257775"><ele>14.000000</ele><time>2010-08-11T09:43:15Z</time></trkpt>
	<trkpt lat="51.92290167" lon="-2.257848333"><ele>14.000000</ele><time>2010-08-11T09:43:20Z</time></trkpt>
	<trkpt lat="51.92292167" lon="-2.25792"><ele>14.000000</ele><time>2010-08-11T09:43:25Z</time></trkpt>
	<trkpt lat="51.92294" lon="-2.258"><ele>14.000000</ele><time>2010-08-11T09:43:30Z</time></trkpt>
	<trkpt lat="51.92296333" lon="-2.258068333"><ele>14.000000</ele><time>2010-08-11T09:43:35Z</time></trkpt>
	<trkpt lat="51.92298167" lon="-2.258136667"><ele>14.000000</ele><time>2010-08-11T09:43:40Z</time></trkpt>
	<trkpt lat="51.923" lon="-2.258213333"><ele>15.000000</ele><time>2010-08-11T09:43:45Z</time></trkpt>
	<trkpt lat="51.92301667" lon="-2.258285"><ele>15.000000</ele><time>2010-08-11T09:43:50Z</time></trkpt>
	<trkpt lat="51.923045" lon="-2.258346667"><ele>15.000000</ele><time>2010-08-11T09:43:55Z</time></trkpt>
	<trkpt lat="51.923095" lon="-2.258395"><ele>15.000000</ele><time>2010-08-11T09:44:00Z</time></trkpt>
	<trkpt lat="51.92315" lon="-2.258443333"><ele>15.000000</ele><time>2010-08-11T09:44:05Z</time></trkpt>
	<trkpt lat="51.9232" lon="-2.258496667"><ele>15.000000</ele><time>2010-08-11T09:44:10Z</time></trkpt>
	<trkpt lat="51.92324" lon="-2.258555"><ele>15.000000</ele><time>2010-08-11T09:44:15Z</time></trkpt>
	<trkpt lat="51.923255" lon="-2.258616667"><ele>15.000000</ele><time>2010-08-11T09:44:20Z</time></trkpt>
	<trkpt lat="51.92327833" lon="-2.258675"><ele>15.000000</ele><time>2010-08-11T09:44:25Z</time></trkpt>
	<trkpt lat="51.92330167" lon="-2.258745"><ele>16.000000</ele><time>2010-08-11T09:44:30Z</time></trkpt>
	<trkpt lat="51.92332667" lon="-2.258816667"><ele>16.000000</ele><time>2010-08-11T09:44:35Z</time></trkpt>
	<trkpt lat="51.92335" lon="-2.258888333"><ele>16.000000</ele><time>2010-08-11T09:44:40Z</time></trkpt>
	<trkpt lat="51.92337167" lon="-2.258956667"><ele>16.000000</ele><time>2010-08-11T09:44:45Z</time></trkpt>
	<trkpt lat="51.92339333" lon="-2.25902"><ele>17.000000</ele><time>2010-08-11T09:44:50Z</time></trkpt>
	<trkpt lat="51.923415" lon="-2.259076667"><ele>17.000000</ele><time>2010-08-11T09:44:55Z</time></trkpt>
	<trkpt lat="51.92343" lon="-2.259113333"><ele>17.000000</ele><time>2010-08-11T09:45:00Z</time></trkpt>
	<trkpt lat="51.92345333" lon="-2.25918"><ele>17.000000</ele><time>2010-08-11T09:45:05Z</time></trkpt>
	<trkpt lat="51.92347" lon="-2.259255"><ele>17.000000</ele><time>2010-08-11T09:45:10Z</time></trkpt>
	<trkpt lat="51.92347833" lon="-2.259323333"><ele>17.000000</ele><time>2010-08-11T09:45:15Z</time></trkpt>
	<trkpt lat="51.9235" lon="-2.25939"><ele>17.000000</ele><time>2010-08-11T09:45:20Z</time></trkpt>
	<trkpt lat="51.92351833" lon="-2.259465"><ele>17.000000</ele><time>2010-08-11T09:45:25Z</time></trkpt>
	<trkpt lat="51.92353333" lon="-2.259538333"><ele>17.000000</ele><time>2010-08-11T09:45:30Z</time></trkpt>
	<trkpt lat="51.92355667" lon="-2.259613333"><ele>17.000000</ele><time>2010-08-11T09:45:35Z</time></trkpt>
	<trkpt lat="51.92357667" lon="-2.25969"><ele>17.000000</ele><time>2010-08-11T09:45:40Z</time></trkpt>
	<trkpt lat="51.9236" lon="-2.259766667"><ele>17.000000</ele><time>2010-08-11T09:45:45Z</time></trkpt>
	<trkpt lat="51.92362167" lon="-2.259841667"><ele>17.000000</ele><time>2010-08-11T09:45:50Z</time></trkpt>
	<trkpt lat="51.92363833" lon="-2.259918333"><ele>17.000000</ele><time>2010-08-11T09:45:55Z</time></trkpt>
	<trkpt lat="51.92365833" lon="-2.26"><ele>17.000000</ele><time>2010-08-11T09:46:00Z</time></trkpt>
	<trkpt lat="51.92368167" lon="-2.260076667"><ele>17.000000</ele><time>2010-08-11T09:46:05Z</time></trkpt>
	<trkpt lat="51.92370333" lon="-2.260156667"><ele>17.000000</ele><time>2010-08-11T09:46:10Z</time></trkpt>
	<trkpt lat="51.92372667" lon="-2.260231667"><ele>17.000000</ele><time>2010-08-11T09:46:15Z</time></trkpt>
	<trkpt lat="51.92375" lon="-2.260303333"><ele>17.000000</ele><time>2010-08-11T09:46:20Z</time></trkpt>
	<trkpt lat="51.92377667" lon="-2.260376667"><ele>17.000000</ele><time>2010-08-11T09:46:25Z</time></trkpt>
	<trkpt lat="51.9238" lon="-2.260453333"><ele>17.000000</ele><time>2010-08-11T09:46:30Z</time></trkpt>
	<trkpt lat="51.92381667" lon="-2.260535"><ele>17.000000</ele><time>2010-08-11T09:46:35Z</time></trkpt>
	<trkpt lat="51.92383" lon="-2.260616667"><ele>17.000000</ele><time>2010-08-11T09:46:40Z</time></trkpt>
	<trkpt lat="51.92384333" lon="-2.2607"><ele>17.000000</ele><time>2010-08-11T09:46:45Z</time></trkpt>
	<trkpt lat="51.92386" lon="-2.260781667"><ele>17.000000</ele><time>2010-08-11T09:46:50Z</time></trkpt>
	<trkpt lat="51.92387667" lon="-2.260865"><ele>17.000000</ele><time>2010-08-11T09:46:55Z</time></trkpt>
	<trkpt lat="51.92389667" lon="-2.260945"><ele>17.000000</ele><time>2010-08-11T09:47:00Z</time></trkpt>
	<trkpt lat="51.92391333" lon="-2.261026667"><ele>17.000000</ele><time>2010-08-11T09:47:05Z</time></trkpt>
	<trkpt lat="51.92392833" lon="-2.26111"><ele>17.000000</ele><time>2010-08-11T09:47:10Z</time></trkpt>
	<trkpt lat="51.92394333" lon="-2.261195"><ele>17.000000</ele><time>2010-08-11T09:47:15Z</time></trkpt>
	<trkpt lat="51.92394667" lon="-2.261285"><ele>16.000000</ele><time>2010-08-11T09:47:20Z</time></trkpt>
	<trkpt lat="51.92394167" lon="-2.261376667"><ele>16.000000</ele><time>2010-08-11T09:47:25Z</time></trkpt>
	<trkpt lat="51.92393667" lon="-2.261465"><ele>16.000000</ele><time>2010-08-11T09:47:30Z</time></trkpt>
	<trkpt lat="51.92393167" lon="-2.261553333"><ele>16.000000</ele><time>2010-08-11T09:47:35Z</time></trkpt>
	<trkpt lat="51.92392167" lon="-2.261635"><ele>16.000000</ele><time>2010-08-11T09:47:40Z</time></trkpt>
	<trkpt lat="51.923905" lon="-2.261715"><ele>16.000000</ele><time>2010-08-11T09:47:45Z</time></trkpt>
	<trkpt lat="51.92389333" lon="-2.261796667"><ele>16.000000</ele><time>2010-08-11T09:47:50Z</time></trkpt>
	<trkpt lat="51.923885" lon="-2.261878333"><ele>16.000000</ele><time>2010-08-11T09:47:55Z</time></trkpt>
	<trkpt lat="51.92386667" lon="-2.26196"><ele>16.000000</ele><time>2010-08-11T09:48:00Z</time></trkpt>
	<trkpt lat="51.923845" lon="-2.26204"><ele>16.000000</ele><time>2010-08-11T09:48:05Z</time></trkpt>
	<trkpt lat="51.92383667" lon="-2.262101667"><ele>17.000000</ele><time>2010-08-11T09:48:10Z</time></trkpt>
	<trkpt lat="51.92382333" lon="-2.26212"><ele>17.000000</ele><time>2010-08-11T09:48:15Z</time></trkpt>
	<trkpt lat="51.9238" lon="-2.262181667"><ele>17.000000</ele><time>2010-08-11T09:48:20Z</time></trkpt>
	<trkpt lat="51.92377833" lon="-2.26226"><ele>18.000000</ele><time>2010-08-11T09:48:25Z</time></trkpt>
	<trkpt lat="51.92375167" lon="-2.262338333"><ele>17.000000</ele><time>2010-08-11T09:48:30Z</time></trkpt>
	<trkpt lat="51.923725" lon="-2.262416667"><ele>17.000000</ele><time>2010-08-11T09:48:35Z</time></trkpt>
	<trkpt lat="51.92369667" lon="-2.262493333"><ele>17.000000</ele><time>2010-08-11T09:48:40Z</time></trkpt>
	<trkpt lat="51.92366833" lon="-2.262568333"><ele>17.000000</ele><time>2010-08-11T09:48:45Z</time></trkpt>
	<trkpt lat="51.92363833" lon="-2.26264"><ele>17.000000</ele><time>2010-08-11T09:48:50Z</time></trkpt>
	<trkpt lat="51.92360833" lon="-2.262713333"><ele>17.000000</ele><time>2010-08-11T09:48:55Z</time></trkpt>
	<trkpt lat="51.92357667" lon="-2.262785"><ele>17.000000</ele><time>2010-08-11T09:49:00Z</time></trkpt>
	<trkpt lat="51.92354667" lon="-2.262851667"><ele>17.000000</ele><time>2010-08-11T09:49:05Z</time></trkpt>
	<trkpt lat="51.92352167" lon="-2.262923333"><ele>17.000000</ele><time>2010-08-11T09:49:10Z</time></trkpt>
	<trkpt lat="51.92349167" lon="-2.262993333"><ele>18.000000</ele><time>2010-08-11T09:49:15Z</time></trkpt>
	<trkpt lat="51.923465" lon="-2.263056667"><ele>18.000000</ele><time>2010-08-11T09:49:20Z</time></trkpt>
	<trkpt lat="51.92343833" lon="-2.26312"><ele>18.000000</ele><time>2010-08-11T09:49:25Z</time></trkpt>
	<trkpt lat="51.92341167" lon="-2.263175"><ele>19.000000</ele><time>2010-08-11T09:49:30Z</time></trkpt>
	<trkpt lat="51.923395" lon="-2.263213333"><ele>19.000000</ele><time>2010-08-11T09:49:35Z</time></trkpt>
	<trkpt lat="51.923395" lon="-2.263216667"><ele>19.000000</ele><time>2010-08-11T09:49:40Z</time></trkpt>
	<trkpt lat="51.92339167" lon="-2.263225"><ele>19.000000</ele><time>2010-08-11T09:49:45Z</time></trkpt>
	<trkpt lat="51.92339333" lon="-2.263221667"><ele>19.000000</ele><time>2010-08-11T09:49:50Z</time></trkpt>
	<trkpt lat="51.92339333" lon="-2.26322"><ele>19.000000</ele><time>2010-08-11T09:49:55Z</time></trkpt>
	<trkpt lat="51.92339333" lon="-2.263221667"><ele>18.000000</ele><time>2010-08-11T09:50:00Z</time></trkpt>
	<trkpt lat="51.92338833" lon="-2.263213333"><ele>18.000000</ele><time>2010-08-11T09:50:05Z</time></trkpt>
	<trkpt lat="51.92338833" lon="-2.263213333"><ele>18.000000</ele><time>2010-08-11T09:50:10Z</time></trkpt>
	<trkpt lat="51.923385" lon="-2.263223333"><ele>18.000000</ele><time>2010-08-11T09:50:15Z</time></trkpt>
	<trkpt lat="51.923385" lon="-2.263226667"><ele>17.000000</ele><time>2010-08-11T09:50:20Z</time></trkpt>
	<trkpt lat="51.92338" lon="-2.263228333"><ele>17.000000</ele><time>2010-08-11T09:50:25Z</time></trkpt>
	<trkpt lat="51.92337667" lon="-2.263231667"><ele>17.000000</ele><time>2010-08-11T09:50:30Z</time></trkpt>
	<trkpt lat="51.92337333" lon="-2.263226667"><ele>16.000000</ele><time>2010-08-11T09:50:35Z</time></trkpt>
	<trkpt lat="51.92337333" lon="-2.263226667"><ele>16.000000</ele><time>2010-08-11T09:50:40Z</time></trkpt>
	<trkpt lat="51.92337833" lon="-2.263271667"><ele>16.000000</ele><time>2010-08-11T09:50:45Z</time></trkpt>
	<trkpt lat="51.92338" lon="-2.263268333"><ele>16.000000</ele><time>2010-08-11T09:50:50Z</time></trkpt>
	<trkpt lat="51.92337167" lon="-2.263236667"><ele>16.000000</ele><time>2010-08-11T09:50:55Z</time></trkpt>
	<trkpt lat="51.92336833" lon="-2.263225"><ele>16.000000</ele><time>2010-08-11T09:51:00Z</time></trkpt>
	<trkpt lat="51.92337" lon="-2.263225"><ele>16.000000</ele><time>2010-08-11T09:51:05Z</time></trkpt>
	<trkpt lat="51.92336833" lon="-2.263225"><ele>16.000000</ele><time>2010-08-11T09:51:10Z</time></trkpt>
	<trkpt lat="51.92335833" lon="-2.26323"><ele>17.000000</ele><time>2010-08-11T09:51:15Z</time></trkpt>
	<trkpt lat="51.92334833" lon="-2.263283333"><ele>17.000000</ele><time>2010-08-11T09:51:20Z</time></trkpt>
	<trkpt lat="51.92335833" lon="-2.263306667"><ele>18.000000</ele><time>2010-08-11T09:51:25Z</time></trkpt>
	<trkpt lat="51.923375" lon="-2.263333333"><ele>18.000000</ele><time>2010-08-11T09:51:30Z</time></trkpt>
	<trkpt lat="51.92340667" lon="-2.26337"><ele>18.000000</ele><time>2010-08-11T09:51:35Z</time></trkpt>
	<trkpt lat="51.92342667" lon="-2.263383333"><ele>17.000000</ele><time>2010-08-11T09:51:40Z</time></trkpt>
	<trkpt lat="51.923435" lon="-2.263388333"><ele>17.000000</ele><time>2010-08-11T09:51:45Z</time></trkpt>
	<trkpt lat="51.92343833" lon="-2.263391667"><ele>17.000000</ele><time>2010-08-11T09:51:50Z</time></trkpt>
	<trkpt lat="51.92344" lon="-2.263395"><ele>16.000000</ele><time>2010-08-11T09:51:55Z</time></trkpt>
	<trkpt lat="51.92344" lon="-2.263395"><ele>16.000000</ele><time>2010-08-11T09:52:00Z</time></trkpt>
	<trkpt lat="51.92344" lon="-2.263396667"><ele>15.000000</ele><time>2010-08-11T09:52:05Z</time></trkpt>
	<trkpt lat="51.92344" lon="-2.263396667"><ele>15.000000</ele><time>2010-08-11T09:52:10Z</time></trkpt>
	<trkpt lat="51.92343833" lon="-2.263395"><ele>15.000000</ele><time>2010-08-11T09:52:15Z</time></trkpt>
	<trkpt lat="51.92343833" lon="-2.263396667"><ele>15.000000</ele><time>2010-08-11T09:52:20Z</time></trkpt>
	<trkpt lat="51.92344167" lon="-2.263401667"><ele>15.000000</ele><time>2010-08-11T09:52:25Z</time></trkpt>
	<trkpt lat="51.92344333" lon="-2.26341"><ele>15.000000</ele><time>2010-08-11T09:52:30Z</time></trkpt>
	<trkpt lat="51.92344333" lon="-2.263413333"><ele>15.000000</ele><time>2010-08-11T09:52:35Z</time></trkpt>
	<trkpt lat="51.92344167" lon="-2.263415"><ele>15.000000</ele><time>2010-08-11T09:52:40Z</time></trkpt>
	<trkpt lat="51.92344" lon="-2.263418333"><ele>15.000000</ele><time>2010-08-11T09:52:45Z</time></trkpt>
	<trkpt lat="51.92344" lon="-2.26342"><ele>14.000000</ele><time>2010-08-11T09:52:50Z</time></trkpt>
	<trkpt lat="51.92343833" lon="-2.263421667"><ele>14.000000</ele><time>2010-08-11T09:52:55Z</time></trkpt>
	<trkpt lat="51.923435" lon="-2.263423333"><ele>14.000000</ele><time>2010-08-11T09:53:00Z</time></trkpt>
	<trkpt lat="51.92343167" lon="-2.263426667"><ele>14.000000</ele><time>2010-08-11T09:53:05Z</time></trkpt>
	<trkpt lat="51.92342833" lon="-2.263428333"><ele>14.000000</ele><time>2010-08-11T09:53:10Z</time></trkpt>
	<trkpt lat="51.92342667" lon="-2.26343"><ele>15.000000</ele><time>2010-08-11T09:53:15Z</time></trkpt>
	<trkpt lat="51.923425" lon="-2.26343"><ele>15.000000</ele><time>2010-08-11T09:53:20Z</time></trkpt>
	<trkpt lat="51.92342333" lon="-2.263431667"><ele>15.000000</ele><time>2010-08-11T09:53:25Z</time></trkpt>
	<trkpt lat="51.92342333" lon="-2.26343"><ele>15.000000</ele><time>2010-08-11T09:53:30Z</time></trkpt>
	<trkpt lat="51.923425" lon="-2.263428333"><ele>15.000000</ele><time>2010-08-11T09:53:35Z</time></trkpt>
	<trkpt lat="51.923425" lon="-2.263426667"><ele>14.000000</ele><time>2010-08-11T09:53:40Z</time></trkpt>
	<trkpt lat="51.923425" lon="-2.263426667"><ele>14.000000</ele><time>2010-08-11T09:53:45Z</time></trkpt>
	<trkpt lat="51.923425" lon="-2.263425"><ele>14.000000</ele><time>2010-08-11T09:53:50Z</time></trkpt>
	<trkpt lat="51.92342667" lon="-2.263423333"><ele>14.000000</ele><time>2010-08-11T09:53:55Z</time></trkpt>
	<trkpt lat="51.92342667" lon="-2.263423333"><ele>14.000000</ele><time>2010-08-11T09:54:00Z</time></trkpt>
	<trkpt lat="51.92342667" lon="-2.263421667"><ele>14.000000</ele><time>2010-08-11T09:54:05Z</time></trkpt>
	<trkpt lat="51.92342833" lon="-2.263418333"><ele>14.000000</ele><time>2010-08-11T09:54:10Z</time></trkpt>
	<trkpt lat="51.92342833" lon="-2.263416667"><ele>14.000000</ele><time>2010-08-11T09:54:15Z</time></trkpt>
	<trkpt lat="51.92342833" lon="-2.263416667"><ele>14.000000</ele><time>2010-08-11T09:54:20Z</time></trkpt>
	<trkpt lat="51.92342833" lon="-2.263415"><ele>14.000000</ele><time>2010-08-11T09:54:25Z</time></trkpt>
	<trkpt lat="51.92342833" lon="-2.263415"><ele>14.000000</ele><time>2010-08-11T09:54:30Z</time></trkpt>
	<trkpt lat="51.92342833" lon="-2.263413333"><ele>14.000000</ele><time>2010-08-11T09:54:35Z</time></trkpt>
	<trkpt lat="51.92343" lon="-2.263413333"><ele>14.000000</ele><time>2010-08-11T09:54:40Z</time></trkpt>
	<trkpt lat="51.92343" lon="-2.263413333"><ele>14.000000</ele><time>2010-08-11T09:54:45Z</time></trkpt>
	<trkpt lat="51.92343167" lon="-2.263413333"><ele>14.000000</ele><time>2010-08-11T09:54:50Z</time></trkpt>
	<trkpt lat="51.92343333" lon="-2.263413333"><ele>14.000000</ele><time>2010-08-11T09:54:55Z</time></trkpt>
	<trkpt lat="51.92343333" lon="-2.263413333"><ele>14.000000</ele><time>2010-08-11T09:55:00Z</time></trkpt>
	<trkpt lat="51.92343333" lon="-2.263413333"><ele>14.000000</ele><time>2010-08-11T09:55:05Z</time></trkpt>
	<trkpt lat="51.92343333" lon="-2.263413333"><ele>14.000000</ele><time>2010-08-11T09:55:10Z</time></trkpt>
	<trkpt lat="51.92343333" lon="-2.263413333"><ele>14.000000</ele><time>2010-08-11T09:55:15Z</time></trkpt>
	<trkpt lat="51.92343333" lon="-2.263413333"><ele>13.000000</ele><time>2010-08-11T09:55:20Z</time></trkpt>
	<trkpt lat="51.92343333" lon="-2.263413333"><ele>13.000000</ele><time>2010-08-11T09:55:25Z</time></trkpt>
	<trkpt lat="51.92343333" lon="-2.263413333"><ele>13.000000</ele><time>2010-08-11T09:55:30Z</time></trkpt>
	<trkpt lat="51.92343333" lon="-2.263415"><ele>13.000000</ele><time>2010-08-11T09:55:35Z</time></trkpt>
	<trkpt lat="51.92343333" lon="-2.263413333"><ele>13.000000</ele><time>2010-08-11T09:55:40Z</time></trkpt>
	<trkpt lat="51.92343333" lon="-2.263413333"><ele>13.000000</ele><time>2010-08-11T09:55:45Z</time></trkpt>
	<trkpt lat="51.92343333" lon="-2.263413333"><ele>13.000000</ele><time>2010-08-11T09:55:50Z</time></trkpt>
	<trkpt lat="51.923435" lon="-2.263411667"><ele>13.000000</ele><time>2010-08-11T09:55:55Z</time></trkpt>
	<trkpt lat="51.923435" lon="-2.263411667"><ele>13.000000</ele><time>2010-08-11T09:56:00Z</time></trkpt>
	<trkpt lat="51.92343667" lon="-2.26341"><ele>13.000000</ele><time>2010-08-11T09:56:05Z</time></trkpt>
	<trkpt lat="51.92343833" lon="-2.26341"><ele>13.000000</ele><time>2010-08-11T09:56:10Z</time></trkpt>
	<trkpt lat="51.92343833" lon="-2.263408333"><ele>13.000000</ele><time>2010-08-11T09:56:15Z</time></trkpt>
	<trkpt lat="51.92344" lon="-2.263406667"><ele>13.000000</ele><time>2010-08-11T09:56:20Z</time></trkpt>
	<trkpt lat="51.92344" lon="-2.263406667"><ele>13.000000</ele><time>2010-08-11T09:56:25Z</time></trkpt>
	<trkpt lat="51.92344167" lon="-2.263405"><ele>13.000000</ele><time>2010-08-11T09:56:30Z</time></trkpt>
	<trkpt lat="51.92344333" lon="-2.263405"><ele>13.000000</ele><time>2010-08-11T09:56:35Z</time></trkpt>
	<trkpt lat="51.92344333" lon="-2.263405"><ele>12.000000</ele><time>2010-08-11T09:56:40Z</time></trkpt>
	<trkpt lat="51.92344333" lon="-2.263403333"><ele>12.000000</ele><time>2010-08-11T09:56:45Z</time></trkpt>
	<trkpt lat="51.92344667" lon="-2.263403333"><ele>12.000000</ele><time>2010-08-11T09:56:50Z</time></trkpt>
	<trkpt lat="51.92344667" lon="-2.263401667"><ele>12.000000</ele><time>2010-08-11T09:56:55Z</time></trkpt>
	<trkpt lat="51.92344833" lon="-2.2634"><ele>12.000000</ele><time>2010-08-11T09:57:00Z</time></trkpt>
	<trkpt lat="51.92344833" lon="-2.263398333"><ele>12.000000</ele><time>2010-08-11T09:57:05Z</time></trkpt>
	<trkpt lat="51.92344833" lon="-2.263396667"><ele>12.000000</ele><time>2010-08-11T09:57:10Z</time></trkpt>
	<trkpt lat="51.92344833" lon="-2.263395"><ele>12.000000</ele><time>2010-08-11T09:57:15Z</time></trkpt>
	<trkpt lat="51.92344833" lon="-2.263393333"><ele>11.000000</ele><time>2010-08-11T09:57:20Z</time></trkpt>
	<trkpt lat="51.92344833" lon="-2.263393333"><ele>11.000000</ele><time>2010-08-11T09:57:25Z</time></trkpt>
	<trkpt lat="51.92344667" lon="-2.263391667"><ele>11.000000</ele><time>2010-08-11T09:57:30Z</time></trkpt>
	<trkpt lat="51.92344667" lon="-2.263391667"><ele>11.000000</ele><time>2010-08-11T09:57:35Z</time></trkpt>
	<trkpt lat="51.92344667" lon="-2.263391667"><ele>11.000000</ele><time>2010-08-11T09:57:40Z</time></trkpt>
	<trkpt lat="51.92344667" lon="-2.263391667"><ele>11.000000</ele><time>2010-08-11T09:57:45Z</time></trkpt>
	<trkpt lat="51.92344667" lon="-2.263391667"><ele>11.000000</ele><time>2010-08-11T09:57:50Z</time></trkpt>
	<trkpt lat="51.92344667" lon="-2.263393333"><ele>11.000000</ele><time>2010-08-11T09:57:55Z</time></trkpt>
	<trkpt lat="51.92344333" lon="-2.263393333"><ele>11.000000</ele><time>2010-08-11T09:58:00Z</time></trkpt>
	<trkpt lat="51.92344333" lon="-2.263393333"><ele>11.000000</ele><time>2010-08-11T09:58:05Z</time></trkpt>
	<trkpt lat="51.92344333" lon="-2.263393333"><ele>11.000000</ele><time>2010-08-11T09:58:10Z</time></trkpt>
	<trkpt lat="51.92344333" lon="-2.263395"><ele>12.000000</ele><time>2010-08-11T09:58:15Z</time></trkpt>
	<trkpt lat="51.92344167" lon="-2.263396667"><ele>12.000000</ele><time>2010-08-11T09:58:20Z</time></trkpt>
	<trkpt lat="51.92344167" lon="-2.263396667"><ele>12.000000</ele><time>2010-08-11T09:58:25Z</time></trkpt>
	<trkpt lat="51.92344" lon="-2.263395"><ele>12.000000</ele><time>2010-08-11T09:58:30Z</time></trkpt>
	<trkpt lat="51.92343833" lon="-2.263395"><ele>13.000000</ele><time>2010-08-11T09:58:35Z</time></trkpt>
	<trkpt lat="51.92343667" lon="-2.263396667"><ele>13.000000</ele><time>2010-08-11T09:58:40Z</time></trkpt>
	<trkpt lat="51.92343667" lon="-2.263398333"><ele>13.000000</ele><time>2010-08-11T09:58:45Z</time></trkpt>
	<trkpt lat="51.92343833" lon="-2.263398333"><ele>13.000000</ele><time>2010-08-11T09:58:50Z</time></trkpt>
	<trkpt lat="51.92343833" lon="-2.2634"><ele>13.000000</ele><time>2010-08-11T09:58:55Z</time></trkpt>
	<trkpt lat="51.92344" lon="-2.2634"><ele>13.000000</ele><time>2010-08-11T09:59:00Z</time></trkpt>
	<trkpt lat="51.92344" lon="-2.263401667"><ele>13.000000</ele><time>2010-08-11T09:59:05Z</time></trkpt>
	<trkpt lat="51.92344" lon="-2.263401667"><ele>13.000000</ele><time>2010-08-11T09:59:10Z</time></trkpt>
	<trkpt lat="51.92344167" lon="-2.263403333"><ele>13.000000</ele><time>2010-08-11T09:59:15Z</time></trkpt>
	<trkpt lat="51.92344167" lon="-2.263403333"><ele>13.000000</ele><time>2010-08-11T09:59:20Z</time></trkpt>
	<trkpt lat="51.92344" lon="-2.263401667"><ele>13.000000</ele><time>2010-08-11T09:59:25Z</time></trkpt>
	<trkpt lat="51.92343667" lon="-2.2634"><ele>13.000000</ele><time>2010-08-11T09:59:30Z</time></trkpt>
	<trkpt lat="51.92343667" lon="-2.263398333"><ele>13.000000</ele><time>2010-08-11T09:59:35Z</time></trkpt>
	<trkpt lat="51.92343833" lon="-2.2634"><ele>13.000000</ele><time>2010-08-11T09:59:40Z</time></trkpt>
	<trkpt lat="51.92344" lon="-2.2634"><ele>13.000000</ele><time>2010-08-11T09:59:45Z</time></trkpt>
	<trkpt lat="51.92344167" lon="-2.263401667"><ele>12.000000</ele><time>2010-08-11T09:59:50Z</time></trkpt>
	<trkpt lat="51.92344167" lon="-2.263401667"><ele>12.000000</ele><time>2010-08-11T09:59:55Z</time></trkpt>
	<trkpt lat="51.92344333" lon="-2.263401667"><ele>12.000000</ele><time>2010-08-11T10:00:00Z</time></trkpt>
	<trkpt lat="51.92344333" lon="-2.263401667"><ele>12.000000</ele><time>2010-08-11T10:00:05Z</time></trkpt>
	<trkpt lat="51.92344333" lon="-2.263401667"><ele>12.000000</ele><time>2010-08-11T10:00:10Z</time></trkpt>
	<trkpt lat="51.92344333" lon="-2.263401667"><ele>12.000000</ele><time>2010-08-11T10:00:15Z</time></trkpt>
	<trkpt lat="51.92344333" lon="-2.263401667"><ele>12.000000</ele><time>2010-08-11T10:00:20Z</time></trkpt>
	<trkpt lat="51.92344333" lon="-2.263403333"><ele>12.000000</ele><time>2010-08-11T10:00:25Z</time></trkpt>
	<trkpt lat="51.92344333" lon="-2.263403333"><ele>12.000000</ele><time>2010-08-11T10:00:30Z</time></trkpt>
	<trkpt lat="51.92344333" lon="-2.263403333"><ele>12.000000</ele><time>2010-08-11T10:00:35Z</time></trkpt>
	<trkpt lat="51.92344333" lon="-2.263401667"><ele>12.000000</ele><time>2010-08-11T10:00:40Z</time></trkpt>
	<trkpt lat="51.92344333" lon="-2.2634"><ele>11.000000</ele><time>2010-08-11T10:00:45Z</time></trkpt>
	<trkpt lat="51.92344667" lon="-2.2634"><ele>11.000000</ele><time>2010-08-11T10:00:50Z</time></trkpt>
	<trkpt lat="51.92344667" lon="-2.2634"><ele>11.000000</ele><time>2010-08-11T10:00:55Z</time></trkpt>
	<trkpt lat="51.92344667" lon="-2.2634"><ele>12.000000</ele><time>2010-08-11T10:01:00Z</time></trkpt>
	<trkpt lat="51.92344333" lon="-2.2634"><ele>12.000000</ele><time>2010-08-11T10:01:05Z</time></trkpt>
	<trkpt lat="51.92345" lon="-2.263396667"><ele>13.000000</ele><time>2010-08-11T10:01:10Z</time></trkpt>
	<trkpt lat="51.92345333" lon="-2.263393333"><ele>13.000000</ele><time>2010-08-11T10:01:15Z</time></trkpt>
	<trkpt lat="51.92345667" lon="-2.263388333"><ele>14.000000</ele><time>2010-08-11T10:01:20Z</time></trkpt>
	<trkpt lat="51.92345833" lon="-2.263386667"><ele>14.000000</ele><time>2010-08-11T10:01:25Z</time></trkpt>
	<trkpt lat="51.923465" lon="-2.263386667"><ele>14.000000</ele><time>2010-08-11T10:01:30Z</time></trkpt>
	<trkpt lat="51.92346667" lon="-2.263388333"><ele>14.000000</ele><time>2010-08-11T10:01:35Z</time></trkpt>
	<trkpt lat="51.92347" lon="-2.263388333"><ele>14.000000</ele><time>2010-08-11T10:01:40Z</time></trkpt>
	<trkpt lat="51.92347333" lon="-2.26339"><ele>13.000000</ele><time>2010-08-11T10:01:45Z</time></trkpt>
	<trkpt lat="51.92347667" lon="-2.26339"><ele>13.000000</ele><time>2010-08-11T10:01:50Z</time></trkpt>
	<trkpt lat="51.92347833" lon="-2.26339"><ele>13.000000</ele><time>2010-08-11T10:01:55Z</time></trkpt>
	<trkpt lat="51.92347833" lon="-2.26339"><ele>13.000000</ele><time>2010-08-11T10:02:00Z</time></trkpt>
	<trkpt lat="51.92348" lon="-2.26339"><ele>13.000000</ele><time>2010-08-11T10:02:05Z</time></trkpt>
	<trkpt lat="51.92348" lon="-2.263388333"><ele>13.000000</ele><time>2010-08-11T10:02:10Z</time></trkpt>
	<trkpt lat="51.92347833" lon="-2.263386667"><ele>13.000000</ele><time>2010-08-11T10:02:15Z</time></trkpt>
	<trkpt lat="51.92347667" lon="-2.263385"><ele>12.000000</ele><time>2010-08-11T10:02:20Z</time></trkpt>
	<trkpt lat="51.92347667" lon="-2.263383333"><ele>12.000000</ele><time>2010-08-11T10:02:25Z</time></trkpt>
	<trkpt lat="51.92347333" lon="-2.263381667"><ele>12.000000</ele><time>2010-08-11T10:02:30Z</time></trkpt>
	<trkpt lat="51.92347333" lon="-2.26338"><ele>12.000000</ele><time>2010-08-11T10:02:35Z</time></trkpt>
	<trkpt lat="51.92347167" lon="-2.26338"><ele>12.000000</ele><time>2010-08-11T10:02:40Z</time></trkpt>
	<trkpt lat="51.92347167" lon="-2.263376667"><ele>13.000000</ele><time>2010-08-11T10:02:45Z</time></trkpt>
	<trkpt lat="51.92347" lon="-2.263373333"><ele>13.000000</ele><time>2010-08-11T10:02:50Z</time></trkpt>
	<trkpt lat="51.92346833" lon="-2.263375"><ele>13.000000</ele><time>2010-08-11T10:02:55Z</time></trkpt>
	<trkpt lat="51.92346333" lon="-2.263378333"><ele>12.000000</ele><time>2010-08-11T10:03:00Z</time></trkpt>
	<trkpt lat="51.92346333" lon="-2.26338"><ele>12.000000</ele><time>2010-08-11T10:03:05Z</time></trkpt>
	<trkpt lat="51.92345833" lon="-2.263381667"><ele>12.000000</ele><time>2010-08-11T10:03:10Z</time></trkpt>
	<trkpt lat="51.92345667" lon="-2.263383333"><ele>12.000000</ele><time>2010-08-11T10:03:15Z</time></trkpt>
	<trkpt lat="51.92345833" lon="-2.263385"><ele>12.000000</ele><time>2010-08-11T10:03:20Z</time></trkpt>
	<trkpt lat="51.92345833" lon="-2.263386667"><ele>11.000000</ele><time>2010-08-11T10:03:25Z</time></trkpt>
	<trkpt lat="51.92346167" lon="-2.26339"><ele>10.000000</ele><time>2010-08-11T10:03:30Z</time></trkpt>
	<trkpt lat="51.92346333" lon="-2.263393333"><ele>9.000000</ele><time>2010-08-11T10:03:35Z</time></trkpt>
	<trkpt lat="51.923465" lon="-2.263398333"><ele>9.000000</ele><time>2010-08-11T10:03:40Z</time></trkpt>
	<trkpt lat="51.92346667" lon="-2.263401667"><ele>8.000000</ele><time>2010-08-11T10:03:45Z</time></trkpt>
	<trkpt lat="51.923465" lon="-2.263405"><ele>9.000000</ele><time>2010-08-11T10:03:50Z</time></trkpt>
	<trkpt lat="51.923465" lon="-2.263405"><ele>9.000000</ele><time>2010-08-11T10:03:55Z</time></trkpt>
	<trkpt lat="51.92346333" lon="-2.263401667"><ele>10.000000</ele><time>2010-08-11T10:04:00Z</time></trkpt>
	<trkpt lat="51.92346167" lon="-2.263398333"><ele>10.000000</ele><time>2010-08-11T10:04:05Z</time></trkpt>
	<trkpt lat="51.92345833" lon="-2.263401667"><ele>10.000000</ele><time>2010-08-11T10:04:10Z</time></trkpt>
	<trkpt lat="51.92345833" lon="-2.263401667"><ele>9.000000</ele><time>2010-08-11T10:04:15Z</time></trkpt>
	<trkpt lat="51.92345667" lon="-2.2634"><ele>8.000000</ele><time>2010-08-11T10:04:20Z</time></trkpt>
	<trkpt lat="51.92345667" lon="-2.263398333"><ele>8.000000</ele><time>2010-08-11T10:04:25Z</time></trkpt>
	<trkpt lat="51.923455" lon="-2.263393333"><ele>8.000000</ele><time>2010-08-11T10:04:30Z</time></trkpt>
	<trkpt lat="51.92345" lon="-2.263395"><ele>7.000000</ele><time>2010-08-11T10:04:35Z</time></trkpt>
	<trkpt lat="51.92344333" lon="-2.263391667"><ele>5.000000</ele><time>2010-08-11T10:04:40Z</time></trkpt>
	<trkpt lat="51.92344333" lon="-2.26339"><ele>5.000000</ele><time>2010-08-11T10:04:45Z</time></trkpt>
	<trkpt lat="51.92344333" lon="-2.263386667"><ele>5.000000</ele><time>2010-08-11T10:04:50Z</time></trkpt>
	<trkpt lat="51.92345" lon="-2.263375"><ele>7.000000</ele><time>2010-08-11T10:04:55Z</time></trkpt>
	<trkpt lat="51.92345" lon="-2.263371667"><ele>5.000000</ele><time>2010-08-11T10:05:00Z</time></trkpt>
	<trkpt lat="51.92345333" lon="-2.263366667"><ele>6.000000</ele><time>2010-08-11T10:05:05Z</time></trkpt>
	<trkpt lat="51.92345667" lon="-2.263361667"><ele>7.000000</ele><time>2010-08-11T10:05:10Z</time></trkpt>
	<trkpt lat="51.923455" lon="-2.263366667"><ele>7.000000</ele><time>2010-08-11T10:05:15Z</time></trkpt>
	<trkpt lat="51.92345" lon="-2.263371667"><ele>7.000000</ele><time>2010-08-11T10:05:20Z</time></trkpt>
	<trkpt lat="51.92344833" lon="-2.263376667"><ele>7.000000</ele><time>2010-08-11T10:05:25Z</time></trkpt>
	<trkpt lat="51.92344333" lon="-2.263383333"><ele>7.000000</ele><time>2010-08-11T10:05:30Z</time></trkpt>
	<trkpt lat="51.92344667" lon="-2.26338"><ele>7.000000</ele><time>2010-08-11T10:05:35Z</time></trkpt>
	<trkpt lat="51.92344333" lon="-2.26338"><ele>7.000000</ele><time>2010-08-11T10:05:40Z</time></trkpt>
	<trkpt lat="51.92344" lon="-2.263381667"><ele>6.000000</ele><time>2010-08-11T10:05:45Z</time></trkpt>
	<trkpt lat="51.92343833" lon="-2.263378333"><ele>6.000000</ele><time>2010-08-11T10:05:50Z</time></trkpt>
	<trkpt lat="51.92344167" lon="-2.263393333"><ele>8.000000</ele><time>2010-08-11T10:05:55Z</time></trkpt>
	<trkpt lat="51.92344333" lon="-2.263401667"><ele>10.000000</ele><time>2010-08-11T10:06:00Z</time></trkpt>
	<trkpt lat="51.92344833" lon="-2.263421667"><ele>13.000000</ele><time>2010-08-11T10:06:05Z</time></trkpt>
	<trkpt lat="51.92345" lon="-2.26344"><ele>15.000000</ele><time>2010-08-11T10:06:10Z</time></trkpt>
	<trkpt lat="51.92345167" lon="-2.263441667"><ele>16.000000</ele><time>2010-08-11T10:06:15Z</time></trkpt>
	<trkpt lat="51.92345" lon="-2.263455"><ele>17.000000</ele><time>2010-08-11T10:06:20Z</time></trkpt>
	<trkpt lat="51.92345" lon="-2.263455"><ele>17.000000</ele><time>2010-08-11T10:06:25Z</time></trkpt>
	<trkpt lat="51.92344833" lon="-2.263458333"><ele>17.000000</ele><time>2010-08-11T10:06:30Z</time></trkpt>
	<trkpt lat="51.92344667" lon="-2.26346"><ele>16.000000</ele><time>2010-08-11T10:06:35Z</time></trkpt>
	<trkpt lat="51.92345" lon="-2.263443333"><ele>15.000000</ele><time>2010-08-11T10:06:40Z</time></trkpt>
	<trkpt lat="51.92345333" lon="-2.263425"><ele>14.000000</ele><time>2010-08-11T10:06:45Z</time></trkpt>
	<trkpt lat="51.923455" lon="-2.263415"><ele>13.000000</ele><time>2010-08-11T10:06:50Z</time></trkpt>
	<trkpt lat="51.923455" lon="-2.263406667"><ele>13.000000</ele><time>2010-08-11T10:06:55Z</time></trkpt>
	<trkpt lat="51.923455" lon="-2.2634"><ele>12.000000</ele><time>2010-08-11T10:07:00Z</time></trkpt>
	<trkpt lat="51.92346333" lon="-2.263398333"><ele>13.000000</ele><time>2010-08-11T10:07:05Z</time></trkpt>
	<trkpt lat="51.92346667" lon="-2.263393333"><ele>13.000000</ele><time>2010-08-11T10:07:10Z</time></trkpt>
	<trkpt lat="51.92346667" lon="-2.263395"><ele>14.000000</ele><time>2010-08-11T10:07:15Z</time></trkpt>
	<trkpt lat="51.92346833" lon="-2.263396667"><ele>16.000000</ele><time>2010-08-11T10:07:20Z</time></trkpt>
	<trkpt lat="51.92347333" lon="-2.263403333"><ele>17.000000</ele><time>2010-08-11T10:07:25Z</time></trkpt>
	<trkpt lat="51.92348" lon="-2.263396667"><ele>16.000000</ele><time>2010-08-11T10:07:30Z</time></trkpt>
	<trkpt lat="51.92348167" lon="-2.263395"><ele>15.000000</ele><time>2010-08-11T10:07:35Z</time></trkpt>
	<trkpt lat="51.92348" lon="-2.263398333"><ele>14.000000</ele><time>2010-08-11T10:07:40Z</time></trkpt>
	<trkpt lat="51.92348" lon="-2.2634"><ele>14.000000</ele><time>2010-08-11T10:07:45Z</time></trkpt>
	<trkpt lat="51.92347833" lon="-2.2634"><ele>13.000000</ele><time>2010-08-11T10:07:50Z</time></trkpt>
	<trkpt lat="51.92347667" lon="-2.263401667"><ele>13.000000</ele><time>2010-08-11T10:07:55Z</time></trkpt>
	<trkpt lat="51.92347333" lon="-2.263398333"><ele>12.000000</ele><time>2010-08-11T10:08:00Z</time></trkpt>
	<trkpt lat="51.92347" lon="-2.263393333"><ele>12.000000</ele><time>2010-08-11T10:08:05Z</time></trkpt>
	<trkpt lat="51.923465" lon="-2.263398333"><ele>12.000000</ele><time>2010-08-11T10:08:10Z</time></trkpt>
	<trkpt lat="51.92346167" lon="-2.263408333"><ele>13.000000</ele><time>2010-08-11T10:08:15Z</time></trkpt>
	<trkpt lat="51.92345667" lon="-2.263406667"><ele>13.000000</ele><time>2010-08-11T10:08:20Z</time></trkpt>
	<trkpt lat="51.92345167" lon="-2.263405"><ele>13.000000</ele><time>2010-08-11T10:08:25Z</time></trkpt>
	<trkpt lat="51.92344667" lon="-2.263403333"><ele>13.000000</ele><time>2010-08-11T10:08:30Z</time></trkpt>
	<trkpt lat="51.92344333" lon="-2.2634"><ele>14.000000</ele><time>2010-08-11T10:08:35Z</time></trkpt>
	<trkpt lat="51.92344167" lon="-2.263396667"><ele>14.000000</ele><time>2010-08-11T10:08:40Z</time></trkpt>
	<trkpt lat="51.92343833" lon="-2.263391667"><ele>14.000000</ele><time>2010-08-11T10:08:45Z</time></trkpt>
	<trkpt lat="51.92343667" lon="-2.26339"><ele>14.000000</ele><time>2010-08-11T10:08:50Z</time></trkpt>
	<trkpt lat="51.92343667" lon="-2.263386667"><ele>14.000000</ele><time>2010-08-11T10:08:55Z</time></trkpt>
	<trkpt lat="51.92343833" lon="-2.263388333"><ele>14.000000</ele><time>2010-08-11T10:09:00Z</time></trkpt>
	<trkpt lat="51.92345333" lon="-2.263408333"><ele>16.000000</ele><time>2010-08-11T10:09:05Z</time></trkpt>
	<trkpt lat="51.92346333" lon="-2.263431667"><ele>17.000000</ele><time>2010-08-11T10:09:10Z</time></trkpt>
	<trkpt lat="51.923465" lon="-2.263443333"><ele>18.000000</ele><time>2010-08-11T10:09:15Z</time></trkpt>
	<trkpt lat="51.923465" lon="-2.263453333"><ele>19.000000</ele><time>2010-08-11T10:09:20Z</time></trkpt>
	<trkpt lat="51.92346167" lon="-2.263446667"><ele>18.000000</ele><time>2010-08-11T10:09:25Z</time></trkpt>
	<trkpt lat="51.92345833" lon="-2.263438333"><ele>17.000000</ele><time>2010-08-11T10:09:30Z</time></trkpt>
	<trkpt lat="51.92345667" lon="-2.263431667"><ele>17.000000</ele><time>2010-08-11T10:09:35Z</time></trkpt>
	<trkpt lat="51.92345667" lon="-2.263441667"><ele>18.000000</ele><time>2010-08-11T10:09:40Z</time></trkpt>
	<trkpt lat="51.923455" lon="-2.263433333"><ele>17.000000</ele><time>2010-08-11T10:09:45Z</time></trkpt>
	<trkpt lat="51.923455" lon="-2.263413333"><ele>16.000000</ele><time>2010-08-11T10:09:50Z</time></trkpt>
	<trkpt lat="51.92345167" lon="-2.263403333"><ele>15.000000</ele><time>2010-08-11T10:09:55Z</time></trkpt>
	<trkpt lat="51.92344833" lon="-2.263396667"><ele>14.000000</ele><time>2010-08-11T10:10:00Z</time></trkpt>
	<trkpt lat="51.92344667" lon="-2.263391667"><ele>14.000000</ele><time>2010-08-11T10:10:05Z</time></trkpt>
	<trkpt lat="51.92344667" lon="-2.263388333"><ele>14.000000</ele><time>2010-08-11T10:10:10Z</time></trkpt>
	<trkpt lat="51.92344667" lon="-2.263386667"><ele>14.000000</ele><time>2010-08-11T10:10:15Z</time></trkpt>
	<trkpt lat="51.92345" lon="-2.263386667"><ele>14.000000</ele><time>2010-08-11T10:10:20Z</time></trkpt>
	<trkpt lat="51.92345333" lon="-2.263386667"><ele>14.000000</ele><time>2010-08-11T10:10:25Z</time></trkpt>
	<trkpt lat="51.92345167" lon="-2.263386667"><ele>14.000000</ele><time>2010-08-11T10:10:30Z</time></trkpt>
	<trkpt lat="51.92345167" lon="-2.263385"><ele>14.000000</ele><time>2010-08-11T10:10:35Z</time></trkpt>
	<trkpt lat="51.92345167" lon="-2.263386667"><ele>14.000000</ele><time>2010-08-11T10:10:40Z</time></trkpt>
	<trkpt lat="51.92345167" lon="-2.263385"><ele>15.000000</ele><time>2010-08-11T10:10:45Z</time></trkpt>
	<trkpt lat="51.92345333" lon="-2.263385"><ele>15.000000</ele><time>2010-08-11T10:10:50Z</time></trkpt>
	<trkpt lat="51.92345333" lon="-2.263385"><ele>15.000000</ele><time>2010-08-11T10:10:55Z</time></trkpt>
	<trkpt lat="51.92345333" lon="-2.263385"><ele>15.000000</ele><time>2010-08-11T10:11:00Z</time></trkpt>
	<trkpt lat="51.923455" lon="-2.263385"><ele>15.000000</ele><time>2010-08-11T10:11:05Z</time></trkpt>
	<trkpt lat="51.923455" lon="-2.263385"><ele>15.000000</ele><time>2010-08-11T10:11:10Z</time></trkpt>
	<trkpt lat="51.923455" lon="-2.263385"><ele>15.000000</ele><time>2010-08-11T10:11:15Z</time></trkpt>
	<trkpt lat="51.92345667" lon="-2.263385"><ele>15.000000</ele><time>2010-08-11T10:11:20Z</time></trkpt>
	<trkpt lat="51.92346333" lon="-2.263386667"><ele>14.000000</ele><time>2010-08-11T10:11:25Z</time></trkpt>
	<trkpt lat="51.92346833" lon="-2.263386667"><ele>14.000000</ele><time>2010-08-11T10:11:30Z</time></trkpt>
	<trkpt lat="51.92347" lon="-2.263386667"><ele>13.000000</ele><time>2010-08-11T10:11:35Z</time></trkpt>
	<trkpt lat="51.92346833" lon="-2.263385"><ele>13.000000</ele><time>2010-08-11T10:11:40Z</time></trkpt>
	<trkpt lat="51.92346667" lon="-2.263385"><ele>14.000000</ele><time>2010-08-11T10:11:45Z</time></trkpt>
	<trkpt lat="51.923465" lon="-2.263385"><ele>14.000000</ele><time>2010-08-11T10:11:50Z</time></trkpt>
	<trkpt lat="51.923465" lon="-2.263385"><ele>14.000000</ele><time>2010-08-11T10:11:55Z</time></trkpt>
	<trkpt lat="51.92346333" lon="-2.263385"><ele>14.000000</ele><time>2010-08-11T10:12:00Z</time></trkpt>
	<trkpt lat="51.92346167" lon="-2.263385"><ele>14.000000</ele><time>2010-08-11T10:12:05Z</time></trkpt>
	<trkpt lat="51.92346167" lon="-2.263388333"><ele>14.000000</ele><time>2010-08-11T10:12:10Z</time></trkpt>
	<trkpt lat="51.92345833" lon="-2.263395"><ele>15.000000</ele><time>2010-08-11T10:12:15Z</time></trkpt>
	<trkpt lat="51.92345333" lon="-2.263396667"><ele>15.000000</ele><time>2010-08-11T10:12:20Z</time></trkpt>
	<trkpt lat="51.92345667" lon="-2.263396667"><ele>14.000000</ele><time>2010-08-11T10:12:25Z</time></trkpt>
	<trkpt lat="51.92345667" lon="-2.263396667"><ele>13.000000</ele><time>2010-08-11T10:12:30Z</time></trkpt>
	<trkpt lat="51.92345833" lon="-2.263396667"><ele>13.000000</ele><time>2010-08-11T10:12:35Z</time></trkpt>
	<trkpt lat="51.92344167" lon="-2.263393333"><ele>14.000000</ele><time>2010-08-11T10:12:40Z</time></trkpt>
	<trkpt lat="51.92341167" lon="-2.263363333"><ele>15.000000</ele><time>2010-08-11T10:12:45Z</time></trkpt>
	<trkpt lat="51.92337333" lon="-2.263316667"><ele>15.000000</ele><time>2010-08-11T10:12:50Z</time></trkpt>
	<trkpt lat="51.92333833" lon="-2.263263333"><ele>14.000000</ele><time>2010-08-11T10:12:55Z</time></trkpt>
	<trkpt lat="51.92330167" lon="-2.263196667"><ele>14.000000</ele><time>2010-08-11T10:13:00Z</time></trkpt>
	<trkpt lat="51.92327" lon="-2.263115"><ele>14.000000</ele><time>2010-08-11T10:13:05Z</time></trkpt>
	<trkpt lat="51.923245" lon="-2.263046667"><ele>14.000000</ele><time>2010-08-11T10:13:10Z</time></trkpt>
	<trkpt lat="51.92322333" lon="-2.262986667"><ele>15.000000</ele><time>2010-08-11T10:13:15Z</time></trkpt>
	<trkpt lat="51.92320667" lon="-2.262928333"><ele>15.000000</ele><time>2010-08-11T10:13:20Z</time></trkpt>
	<trkpt lat="51.92320833" lon="-2.26288"><ele>17.000000</ele><time>2010-08-11T10:13:25Z</time></trkpt>
	<trkpt lat="51.92319333" lon="-2.262818333"><ele>18.000000</ele><time>2010-08-11T10:13:30Z</time></trkpt>
	<trkpt lat="51.92318167" lon="-2.262765"><ele>20.000000</ele><time>2010-08-11T10:13:35Z</time></trkpt>
	<trkpt lat="51.92317" lon="-2.262685"><ele>20.000000</ele><time>2010-08-11T10:13:40Z</time></trkpt>
	<trkpt lat="51.92314667" lon="-2.262611667"><ele>19.000000</ele><time>2010-08-11T10:13:45Z</time></trkpt>
	<trkpt lat="51.92308833" lon="-2.262543333"><ele>16.000000</ele><time>2010-08-11T10:13:50Z</time></trkpt>
	<trkpt lat="51.92304" lon="-2.262475"><ele>16.000000</ele><time>2010-08-11T10:13:55Z</time></trkpt>
	<trkpt lat="51.92303" lon="-2.262425"><ele>18.000000</ele><time>2010-08-11T10:14:00Z</time></trkpt>
	<trkpt lat="51.922995" lon="-2.262368333"><ele>18.000000</ele><time>2010-08-11T10:14:05Z</time></trkpt>
	<trkpt lat="51.92296333" lon="-2.262276667"><ele>20.000000</ele><time>2010-08-11T10:14:10Z</time></trkpt>
	<trkpt lat="51.92293667" lon="-2.262183333"><ele>18.000000</ele><time>2010-08-11T10:14:15Z</time></trkpt>
	<trkpt lat="51.92288667" lon="-2.262118333"><ele>16.000000</ele><time>2010-08-11T10:14:20Z</time></trkpt>
	<trkpt lat="51.92283667" lon="-2.26205"><ele>16.000000</ele><time>2010-08-11T10:14:25Z</time></trkpt>
	<trkpt lat="51.92278667" lon="-2.261995"><ele>16.000000</ele><time>2010-08-11T10:14:30Z</time></trkpt>
	<trkpt lat="51.92275" lon="-2.261946667"><ele>17.000000</ele><time>2010-08-11T10:14:35Z</time></trkpt>
	<trkpt lat="51.92270167" lon="-2.261898333"><ele>18.000000</ele><time>2010-08-11T10:14:40Z</time></trkpt>
	<trkpt lat="51.922665" lon="-2.261845"><ele>19.000000</ele><time>2010-08-11T10:14:45Z</time></trkpt>
	<trkpt lat="51.92263167" lon="-2.261781667"><ele>18.000000</ele><time>2010-08-11T10:14:50Z</time></trkpt>
	<trkpt lat="51.92260167" lon="-2.261691667"><ele>16.000000</ele><time>2010-08-11T10:14:55Z</time></trkpt>
	<trkpt lat="51.92257167" lon="-2.261618333"><ele>14.000000</ele><time>2010-08-11T10:15:00Z</time></trkpt>
	<trkpt lat="51.922535" lon="-2.261551667"><ele>14.000000</ele><time>2010-08-11T10:15:05Z</time></trkpt>
	<trkpt lat="51.92249667" lon="-2.261495"><ele>14.000000</ele><time>2010-08-11T10:15:10Z</time></trkpt>
	<trkpt lat="51.92246167" lon="-2.261418333"><ele>13.000000</ele><time>2010-08-11T10:15:15Z</time></trkpt>
	<trkpt lat="51.92242333" lon="-2.261348333"><ele>12.000000</ele><time>2010-08-11T10:15:20Z</time></trkpt>
	<trkpt lat="51.92238667" lon="-2.261283333"><ele>12.000000</ele><time>2010-08-11T10:15:25Z</time></trkpt>
	<trkpt lat="51.92235167" lon="-2.261221667"><ele>12.000000</ele><time>2010-08-11T10:15:30Z</time></trkpt>
	<trkpt lat="51.92232333" lon="-2.26116"><ele>12.000000</ele><time>2010-08-11T10:15:35Z</time></trkpt>
	<trkpt lat="51.92229" lon="-2.261111667"><ele>12.000000</ele><time>2010-08-11T10:15:40Z</time></trkpt>
	<trkpt lat="51.92225167" lon="-2.261075"><ele>14.000000</ele><time>2010-08-11T10:15:45Z</time></trkpt>
	<trkpt lat="51.92220333" lon="-2.261026667"><ele>15.000000</ele><time>2010-08-11T10:15:50Z</time></trkpt>
	<trkpt lat="51.92215167" lon="-2.260986667"><ele>16.000000</ele><time>2010-08-11T10:15:55Z</time></trkpt>
	<trkpt lat="51.92211" lon="-2.26095"><ele>16.000000</ele><time>2010-08-11T10:16:00Z</time></trkpt>
	<trkpt lat="51.922065" lon="-2.260911667"><ele>16.000000</ele><time>2010-08-11T10:16:05Z</time></trkpt>
	<trkpt lat="51.92202667" lon="-2.260871667"><ele>16.000000</ele><time>2010-08-11T10:16:10Z</time></trkpt>
	<trkpt lat="51.92199" lon="-2.260836667"><ele>17.000000</ele><time>2010-08-11T10:16:15Z</time></trkpt>
	<trkpt lat="51.92194833" lon="-2.260793333"><ele>17.000000</ele><time>2010-08-11T10:16:20Z</time></trkpt>
	<trkpt lat="51.92190833" lon="-2.260738333"><ele>16.000000</ele><time>2010-08-11T10:16:25Z</time></trkpt>
	<trkpt lat="51.92188" lon="-2.260678333"><ele>16.000000</ele><time>2010-08-11T10:16:30Z</time></trkpt>
	<trkpt lat="51.92184833" lon="-2.260626667"><ele>16.000000</ele><time>2010-08-11T10:16:35Z</time></trkpt>
	<trkpt lat="51.92180333" lon="-2.260575"><ele>16.000000</ele><time>2010-08-11T10:16:40Z</time></trkpt>
	<trkpt lat="51.921715" lon="-2.260533333"><ele>13.000000</ele><time>2010-08-11T10:16:45Z</time></trkpt>
	<trkpt lat="51.921665" lon="-2.260481667"><ele>13.000000</ele><time>2010-08-11T10:16:50Z</time></trkpt>
	<trkpt lat="51.921615" lon="-2.260425"><ele>14.000000</ele><time>2010-08-11T10:16:55Z</time></trkpt>
	<trkpt lat="51.92159" lon="-2.26038"><ele>16.000000</ele><time>2010-08-11T10:17:00Z</time></trkpt>
	<trkpt lat="51.92154667" lon="-2.260338333"><ele>16.000000</ele><time>2010-08-11T10:17:05Z</time></trkpt>
	<trkpt lat="51.92148" lon="-2.260301667"><ele>15.000000</ele><time>2010-08-11T10:17:10Z</time></trkpt>
	<trkpt lat="51.92142833" lon="-2.260246667"><ele>14.000000</ele><time>2010-08-11T10:17:15Z</time></trkpt>
	<trkpt lat="51.92139" lon="-2.260183333"><ele>15.000000</ele><time>2010-08-11T10:17:20Z</time></trkpt>
	<trkpt lat="51.92134" lon="-2.260131667"><ele>14.000000</ele><time>2010-08-11T10:17:25Z</time></trkpt>
	<trkpt lat="51.92129" lon="-2.260075"><ele>15.000000</ele><time>2010-08-11T10:17:30Z</time></trkpt>
	<trkpt lat="51.92123333" lon="-2.26002"><ele>15.000000</ele><time>2010-08-11T10:17:35Z</time></trkpt>
	<trkpt lat="51.92117833" lon="-2.259965"><ele>15.000000</ele><time>2010-08-11T10:17:40Z</time></trkpt>
	<trkpt lat="51.92112167" lon="-2.259908333"><ele>15.000000</ele><time>2010-08-11T10:17:45Z</time></trkpt>
	<trkpt lat="51.92108" lon="-2.259861667"><ele>15.000000</ele><time>2010-08-11T10:17:50Z</time></trkpt>
	<trkpt lat="51.92102667" lon="-2.259813333"><ele>15.000000</ele><time>2010-08-11T10:17:55Z</time></trkpt>
	<trkpt lat="51.92096333" lon="-2.259768333"><ele>15.000000</ele><time>2010-08-11T10:18:00Z</time></trkpt>
	<trkpt lat="51.92091833" lon="-2.259725"><ele>15.000000</ele><time>2010-08-11T10:18:05Z</time></trkpt>
	<trkpt lat="51.92087167" lon="-2.259686667"><ele>16.000000</ele><time>2010-08-11T10:18:10Z</time></trkpt>
	<trkpt lat="51.92080667" lon="-2.25964"><ele>15.000000</ele><time>2010-08-11T10:18:15Z</time></trkpt>
	<trkpt lat="51.92075333" lon="-2.259606667"><ele>16.000000</ele><time>2010-08-11T10:18:20Z</time></trkpt>
	<trkpt lat="51.92070833" lon="-2.25958"><ele>16.000000</ele><time>2010-08-11T10:18:25Z</time></trkpt>
	<trkpt lat="51.92066333" lon="-2.259545"><ele>16.000000</ele><time>2010-08-11T10:18:30Z</time></trkpt>
	<trkpt lat="51.92061167" lon="-2.259516667"><ele>16.000000</ele><time>2010-08-11T10:18:35Z</time></trkpt>
	<trkpt lat="51.92055833" lon="-2.259501667"><ele>16.000000</ele><time>2010-08-11T10:18:40Z</time></trkpt>
	<trkpt lat="51.920495" lon="-2.25947"><ele>18.000000</ele><time>2010-08-11T10:18:45Z</time></trkpt>
	<trkpt lat="51.92043667" lon="-2.259421667"><ele>18.000000</ele><time>2010-08-11T10:18:50Z</time></trkpt>
	<trkpt lat="51.92039167" lon="-2.259356667"><ele>18.000000</ele><time>2010-08-11T10:18:55Z</time></trkpt>
	<trkpt lat="51.92034667" lon="-2.25928"><ele>18.000000</ele><time>2010-08-11T10:19:00Z</time></trkpt>
	<trkpt lat="51.92031333" lon="-2.259196667"><ele>17.000000</ele><time>2010-08-11T10:19:05Z</time></trkpt>
	<trkpt lat="51.92029333" lon="-2.25911"><ele>17.000000</ele><time>2010-08-11T10:19:10Z</time></trkpt>
	<trkpt lat="51.92027667" lon="-2.259021667"><ele>17.000000</ele><time>2010-08-11T10:19:15Z</time></trkpt>
	<trkpt lat="51.92026333" lon="-2.258933333"><ele>17.000000</ele><time>2010-08-11T10:19:20Z</time></trkpt>
	<trkpt lat="51.92025333" lon="-2.258848333"><ele>17.000000</ele><time>2010-08-11T10:19:25Z</time></trkpt>
	<trkpt lat="51.92024333" lon="-2.258765"><ele>17.000000</ele><time>2010-08-11T10:19:30Z</time></trkpt>
	<trkpt lat="51.92024" lon="-2.258686667"><ele>18.000000</ele><time>2010-08-11T10:19:35Z</time></trkpt>
	<trkpt lat="51.92023167" lon="-2.258625"><ele>19.000000</ele><time>2010-08-11T10:19:40Z</time></trkpt>
	<trkpt lat="51.92022" lon="-2.258545"><ele>20.000000</ele><time>2010-08-11T10:19:45Z</time></trkpt>
	<trkpt lat="51.92021" lon="-2.258483333"><ele>21.000000</ele><time>2010-08-11T10:19:50Z</time></trkpt>
	<trkpt lat="51.92018" lon="-2.258425"><ele>22.000000</ele><time>2010-08-11T10:19:55Z</time></trkpt>
	<trkpt lat="51.92014667" lon="-2.258375"><ele>23.000000</ele><time>2010-08-11T10:20:00Z</time></trkpt>
	<trkpt lat="51.92010833" lon="-2.258326667"><ele>25.000000</ele><time>2010-08-11T10:20:05Z</time></trkpt>
	<trkpt lat="51.92006167" lon="-2.258283333"><ele>27.000000</ele><time>2010-08-11T10:20:10Z</time></trkpt>
	<trkpt lat="51.92002333" lon="-2.258241667"><ele>28.000000</ele><time>2010-08-11T10:20:15Z</time></trkpt>
	<trkpt lat="51.91999333" lon="-2.2582"><ele>28.000000</ele><time>2010-08-11T10:20:20Z</time></trkpt>
	<trkpt lat="51.91996167" lon="-2.258156667"><ele>28.000000</ele><time>2010-08-11T10:20:25Z</time></trkpt>
	<trkpt lat="51.91992667" lon="-2.258108333"><ele>29.000000</ele><time>2010-08-11T10:20:30Z</time></trkpt>
	<trkpt lat="51.91989167" lon="-2.258063333"><ele>29.000000</ele><time>2010-08-11T10:20:35Z</time></trkpt>
	<trkpt lat="51.919855" lon="-2.258005"><ele>30.000000</ele><time>2010-08-11T10:20:40Z</time></trkpt>
	<trkpt lat="51.91981667" lon="-2.257943333"><ele>30.000000</ele><time>2010-08-11T10:20:45Z</time></trkpt>
	<trkpt lat="51.919785" lon="-2.257871667"><ele>29.000000</ele><time>2010-08-11T10:20:50Z</time></trkpt>
	<trkpt lat="51.91976" lon="-2.257791667"><ele>28.000000</ele><time>2010-08-11T10:20:55Z</time></trkpt>
	<trkpt lat="51.91974167" lon="-2.257726667"><ele>27.000000</ele><time>2010-08-11T10:21:00Z</time></trkpt>
	<trkpt lat="51.91972" lon="-2.257658333"><ele>27.000000</ele><time>2010-08-11T10:21:05Z</time></trkpt>
	<trkpt lat="51.91970167" lon="-2.257588333"><ele>27.000000</ele><time>2010-08-11T10:21:10Z</time></trkpt>
	<trkpt lat="51.91969" lon="-2.257511667"><ele>26.000000</ele><time>2010-08-11T10:21:15Z</time></trkpt>
	<trkpt lat="51.91968167" lon="-2.257451667"><ele>27.000000</ele><time>2010-08-11T10:21:20Z</time></trkpt>
	<trkpt lat="51.91967833" lon="-2.257388333"><ele>27.000000</ele><time>2010-08-11T10:21:25Z</time></trkpt>
	<trkpt lat="51.91967667" lon="-2.25733"><ele>27.000000</ele><time>2010-08-11T10:21:30Z</time></trkpt>
	<trkpt lat="51.919675" lon="-2.25727"><ele>28.000000</ele><time>2010-08-11T10:21:35Z</time></trkpt>
	<trkpt lat="51.91967" lon="-2.257198333"><ele>28.000000</ele><time>2010-08-11T10:21:40Z</time></trkpt>
	<trkpt lat="51.919665" lon="-2.257133333"><ele>29.000000</ele><time>2010-08-11T10:21:45Z</time></trkpt>
	<trkpt lat="51.91966" lon="-2.257061667"><ele>29.000000</ele><time>2010-08-11T10:21:50Z</time></trkpt>
	<trkpt lat="51.91965167" lon="-2.256995"><ele>29.000000</ele><time>2010-08-11T10:21:55Z</time></trkpt>
	<trkpt lat="51.91965" lon="-2.25692"><ele>30.000000</ele><time>2010-08-11T10:22:00Z</time></trkpt>
	<trkpt lat="51.91964333" lon="-2.25685"><ele>30.000000</ele><time>2010-08-11T10:22:05Z</time></trkpt>
	<trkpt lat="51.91963333" lon="-2.256783333"><ele>31.000000</ele><time>2010-08-11T10:22:10Z</time></trkpt>
	<trkpt lat="51.91963" lon="-2.256723333"><ele>31.000000</ele><time>2010-08-11T10:22:15Z</time></trkpt>
	<trkpt lat="51.919625" lon="-2.256653333"><ele>32.000000</ele><time>2010-08-11T10:22:20Z</time></trkpt>
	<trkpt lat="51.91962167" lon="-2.256576667"><ele>32.000000</ele><time>2010-08-11T10:22:25Z</time></trkpt>
	<trkpt lat="51.91961833" lon="-2.256503333"><ele>32.000000</ele><time>2010-08-11T10:22:30Z</time></trkpt>
	<trkpt lat="51.919615" lon="-2.256433333"><ele>33.000000</ele><time>2010-08-11T10:22:35Z</time></trkpt>
	<trkpt lat="51.91961333" lon="-2.256361667"><ele>34.000000</ele><time>2010-08-11T10:22:40Z</time></trkpt>
	<trkpt lat="51.91960667" lon="-2.256286667"><ele>34.000000</ele><time>2010-08-11T10:22:45Z</time></trkpt>
	<trkpt lat="51.91959667" lon="-2.256206667"><ele>35.000000</ele><time>2010-08-11T10:22:50Z</time></trkpt>
	<trkpt lat="51.91957667" lon="-2.256126667"><ele>34.000000</ele><time>2010-08-11T10:22:55Z</time></trkpt>
	<trkpt lat="51.91954667" lon="-2.256061667"><ele>34.000000</ele><time>2010-08-11T10:23:00Z</time></trkpt>
	<trkpt lat="51.91952167" lon="-2.256"><ele>34.000000</ele><time>2010-08-11T10:23:05Z</time></trkpt>
	<trkpt lat="51.91948667" lon="-2.255943333"><ele>33.000000</ele><time>2010-08-11T10:23:10Z</time></trkpt>
	<trkpt lat="51.91945667" lon="-2.255886667"><ele>34.000000</ele><time>2010-08-11T10:23:15Z</time></trkpt>
	<trkpt lat="51.919425" lon="-2.255831667"><ele>34.000000</ele><time>2010-08-11T10:23:20Z</time></trkpt>
	<trkpt lat="51.91939167" lon="-2.25578"><ele>34.000000</ele><time>2010-08-11T10:23:25Z</time></trkpt>
	<trkpt lat="51.91936" lon="-2.25573"><ele>35.000000</ele><time>2010-08-11T10:23:30Z</time></trkpt>
	<trkpt lat="51.91933" lon="-2.255681667"><ele>35.000000</ele><time>2010-08-11T10:23:35Z</time></trkpt>
	<trkpt lat="51.91929" lon="-2.255631667"><ele>36.000000</ele><time>2010-08-11T10:23:40Z</time></trkpt>
	<trkpt lat="51.91925333" lon="-2.255588333"><ele>36.000000</ele><time>2010-08-11T10:23:45Z</time></trkpt>
	<trkpt lat="51.91921" lon="-2.255546667"><ele>36.000000</ele><time>2010-08-11T10:23:50Z</time></trkpt>
	<trkpt lat="51.91916667" lon="-2.255511667"><ele>37.000000</ele><time>2010-08-11T10:23:55Z</time></trkpt>
	<trkpt lat="51.919125" lon="-2.255476667"><ele>37.000000</ele><time>2010-08-11T10:24:00Z</time></trkpt>
	<trkpt lat="51.91908167" lon="-2.255448333"><ele>38.000000</ele><time>2010-08-11T10:24:05Z</time></trkpt>
	<trkpt lat="51.91904333" lon="-2.25542"><ele>38.000000</ele><time>2010-08-11T10:24:10Z</time></trkpt>
	<trkpt lat="51.919" lon="-2.255395"><ele>39.000000</ele><time>2010-08-11T10:24:15Z</time></trkpt>
	<trkpt lat="51.91895333" lon="-2.255375"><ele>39.000000</ele><time>2010-08-11T10:24:20Z</time></trkpt>
	<trkpt lat="51.91890333" lon="-2.255363333"><ele>39.000000</ele><time>2010-08-11T10:24:25Z</time></trkpt>
	<trkpt lat="51.91885" lon="-2.255358333"><ele>39.000000</ele><time>2010-08-11T10:24:30Z</time></trkpt>
	<trkpt lat="51.91879667" lon="-2.255365"><ele>39.000000</ele><time>2010-08-11T10:24:35Z</time></trkpt>
	<trkpt lat="51.91874333" lon="-2.255368333"><ele>39.000000</ele><time>2010-08-11T10:24:40Z</time></trkpt>
	<trkpt lat="51.91868833" lon="-2.255365"><ele>39.000000</ele><time>2010-08-11T10:24:45Z</time></trkpt>
	<trkpt lat="51.91863" lon="-2.255368333"><ele>39.000000</ele><time>2010-08-11T10:24:50Z</time></trkpt>
	<trkpt lat="51.91858" lon="-2.25536"><ele>39.000000</ele><time>2010-08-11T10:24:55Z</time></trkpt>
	<trkpt lat="51.91852333" lon="-2.255338333"><ele>38.000000</ele><time>2010-08-11T10:25:00Z</time></trkpt>
	<trkpt lat="51.918475" lon="-2.255303333"><ele>38.000000</ele><time>2010-08-11T10:25:05Z</time></trkpt>
	<trkpt lat="51.91842667" lon="-2.255265"><ele>38.000000</ele><time>2010-08-11T10:25:10Z</time></trkpt>
	<trkpt lat="51.91837667" lon="-2.255218333"><ele>38.000000</ele><time>2010-08-11T10:25:15Z</time></trkpt>
	<trkpt lat="51.91833333" lon="-2.255163333"><ele>38.000000</ele><time>2010-08-11T10:25:20Z</time></trkpt>
	<trkpt lat="51.918295" lon="-2.2551"><ele>38.000000</ele><time>2010-08-11T10:25:25Z</time></trkpt>
	<trkpt lat="51.91826167" lon="-2.25503"><ele>38.000000</ele><time>2010-08-11T10:25:30Z</time></trkpt>
	<trkpt lat="51.91823167" lon="-2.254958333"><ele>38.000000</ele><time>2010-08-11T10:25:35Z</time></trkpt>
	<trkpt lat="51.91819833" lon="-2.25489"><ele>38.000000</ele><time>2010-08-11T10:25:40Z</time></trkpt>
	<trkpt lat="51.91816667" lon="-2.254823333"><ele>38.000000</ele><time>2010-08-11T10:25:45Z</time></trkpt>
	<trkpt lat="51.91813167" lon="-2.254753333"><ele>38.000000</ele><time>2010-08-11T10:25:50Z</time></trkpt>
	<trkpt lat="51.9181" lon="-2.25468"><ele>37.000000</ele><time>2010-08-11T10:25:55Z</time></trkpt>
	<trkpt lat="51.918065" lon="-2.254606667"><ele>37.000000</ele><time>2010-08-11T10:26:00Z</time></trkpt>
	<trkpt lat="51.918035" lon="-2.25453"><ele>37.000000</ele><time>2010-08-11T10:26:05Z</time></trkpt>
	<trkpt lat="51.91800333" lon="-2.254455"><ele>37.000000</ele><time>2010-08-11T10:26:10Z</time></trkpt>
	<trkpt lat="51.91797333" lon="-2.254378333"><ele>37.000000</ele><time>2010-08-11T10:26:15Z</time></trkpt>
	<trkpt lat="51.91794333" lon="-2.254296667"><ele>37.000000</ele><time>2010-08-11T10:26:20Z</time></trkpt>
	<trkpt lat="51.91791667" lon="-2.254218333"><ele>37.000000</ele><time>2010-08-11T10:26:25Z</time></trkpt>
	<trkpt lat="51.91789" lon="-2.254138333"><ele>37.000000</ele><time>2010-08-11T10:26:30Z</time></trkpt>
	<trkpt lat="51.917865" lon="-2.254058333"><ele>37.000000</ele><time>2010-08-11T10:26:35Z</time></trkpt>
	<trkpt lat="51.91783833" lon="-2.25398"><ele>37.000000</ele><time>2010-08-11T10:26:40Z</time></trkpt>
	<trkpt lat="51.91781167" lon="-2.253898333"><ele>37.000000</ele><time>2010-08-11T10:26:45Z</time></trkpt>
	<trkpt lat="51.91778333" lon="-2.253815"><ele>37.000000</ele><time>2010-08-11T10:26:50Z</time></trkpt>
	<trkpt lat="51.917755" lon="-2.25374"><ele>37.000000</ele><time>2010-08-11T10:26:55Z</time></trkpt>
	<trkpt lat="51.91772167" lon="-2.253665"><ele>37.000000</ele><time>2010-08-11T10:27:00Z</time></trkpt>
	<trkpt lat="51.91768833" lon="-2.253593333"><ele>37.000000</ele><time>2010-08-11T10:27:05Z</time></trkpt>
	<trkpt lat="51.91765667" lon="-2.253523333"><ele>37.000000</ele><time>2010-08-11T10:27:10Z</time></trkpt>
	<trkpt lat="51.91762333" lon="-2.253451667"><ele>37.000000</ele><time>2010-08-11T10:27:15Z</time></trkpt>
	<trkpt lat="51.91758833" lon="-2.253383333"><ele>37.000000</ele><time>2010-08-11T10:27:20Z</time></trkpt>
	<trkpt lat="51.91755167" lon="-2.253321667"><ele>37.000000</ele><time>2010-08-11T10:27:25Z</time></trkpt>
	<trkpt lat="51.91752" lon="-2.253255"><ele>37.000000</ele><time>2010-08-11T10:27:30Z</time></trkpt>
	<trkpt lat="51.917485" lon="-2.253193333"><ele>37.000000</ele><time>2010-08-11T10:27:35Z</time></trkpt>
	<trkpt lat="51.91745333" lon="-2.253135"><ele>37.000000</ele><time>2010-08-11T10:27:40Z</time></trkpt>
	<trkpt lat="51.91741667" lon="-2.253071667"><ele>37.000000</ele><time>2010-08-11T10:27:45Z</time></trkpt>
	<trkpt lat="51.91738167" lon="-2.253008333"><ele>37.000000</ele><time>2010-08-11T10:27:50Z</time></trkpt>
	<trkpt lat="51.91734833" lon="-2.252943333"><ele>37.000000</ele><time>2010-08-11T10:27:55Z</time></trkpt>
	<trkpt lat="51.91730833" lon="-2.252873333"><ele>37.000000</ele><time>2010-08-11T10:28:00Z</time></trkpt>
	<trkpt lat="51.91726833" lon="-2.252806667"><ele>37.000000</ele><time>2010-08-11T10:28:05Z</time></trkpt>
	<trkpt lat="51.91722667" lon="-2.252751667"><ele>38.000000</ele><time>2010-08-11T10:28:10Z</time></trkpt>
	<trkpt lat="51.91718667" lon="-2.252695"><ele>39.000000</ele><time>2010-08-11T10:28:15Z</time></trkpt>
	<trkpt lat="51.91716" lon="-2.252605"><ele>39.000000</ele><time>2010-08-11T10:28:21Z</time></trkpt>
	<trkpt lat="51.91713833" lon="-2.252535"><ele>39.000000</ele><time>2010-08-11T10:28:26Z</time></trkpt>
	<trkpt lat="51.917095" lon="-2.252471667"><ele>39.000000</ele><time>2010-08-11T10:28:31Z</time></trkpt>
	<trkpt lat="51.91706" lon="-2.252403333"><ele>40.000000</ele><time>2010-08-11T10:28:36Z</time></trkpt>
	<trkpt lat="51.91703" lon="-2.25233"><ele>40.000000</ele><time>2010-08-11T10:28:41Z</time></trkpt>
	<trkpt lat="51.917005" lon="-2.252268333"><ele>40.000000</ele><time>2010-08-11T10:28:46Z</time></trkpt>
	<trkpt lat="51.91701" lon="-2.252196667"><ele>40.000000</ele><time>2010-08-11T10:28:51Z</time></trkpt>
	<trkpt lat="51.91704167" lon="-2.252131667"><ele>41.000000</ele><time>2010-08-11T10:28:56Z</time></trkpt>
	<trkpt lat="51.917075" lon="-2.25207"><ele>41.000000</ele><time>2010-08-11T10:29:01Z</time></trkpt>
	<trkpt lat="51.91710667" lon="-2.252005"><ele>41.000000</ele><time>2010-08-11T10:29:06Z</time></trkpt>
	<trkpt lat="51.91714" lon="-2.251951667"><ele>42.000000</ele><time>2010-08-11T10:29:11Z</time></trkpt>
	<trkpt lat="51.91717167" lon="-2.251891667"><ele>41.000000</ele><time>2010-08-11T10:29:16Z</time></trkpt>
	<trkpt lat="51.91720667" lon="-2.251836667"><ele>41.000000</ele><time>2010-08-11T10:29:21Z</time></trkpt>
	<trkpt lat="51.91724333" lon="-2.25178"><ele>41.000000</ele><time>2010-08-11T10:29:26Z</time></trkpt>
	<trkpt lat="51.91727833" lon="-2.251721667"><ele>40.000000</ele><time>2010-08-11T10:29:31Z</time></trkpt>
	<trkpt lat="51.91730667" lon="-2.251671667"><ele>41.000000</ele><time>2010-08-11T10:29:36Z</time></trkpt>
	<trkpt lat="51.91731667" lon="-2.251638333"><ele>41.000000</ele><time>2010-08-11T10:29:41Z</time></trkpt>
	<trkpt lat="51.91731833" lon="-2.251615"><ele>41.000000</ele><time>2010-08-11T10:29:46Z</time></trkpt>
	<trkpt lat="51.91734333" lon="-2.251596667"><ele>41.000000</ele><time>2010-08-11T10:29:51Z</time></trkpt>
	<trkpt lat="51.91739167" lon="-2.251543333"><ele>41.000000</ele><time>2010-08-11T10:29:56Z</time></trkpt>
	<trkpt lat="51.91743167" lon="-2.251478333"><ele>42.000000</ele><time>2010-08-11T10:30:01Z</time></trkpt>
	<trkpt lat="51.91747167" lon="-2.251418333"><ele>42.000000</ele><time>2010-08-11T10:30:06Z</time></trkpt>
	<trkpt lat="51.91751167" lon="-2.251366667"><ele>43.000000</ele><time>2010-08-11T10:30:11Z</time></trkpt>
	<trkpt lat="51.91755167" lon="-2.251313333"><ele>43.000000</ele><time>2010-08-11T10:30:16Z</time></trkpt>
	<trkpt lat="51.91759167" lon="-2.251258333"><ele>44.000000</ele><time>2010-08-11T10:30:21Z</time></trkpt>
	<trkpt lat="51.91763333" lon="-2.2512"><ele>44.000000</ele><time>2010-08-11T10:30:26Z</time></trkpt>
	<trkpt lat="51.91767333" lon="-2.25114"><ele>44.000000</ele><time>2010-08-11T10:30:31Z</time></trkpt>
	<trkpt lat="51.91771333" lon="-2.251081667"><ele>44.000000</ele><time>2010-08-11T10:30:36Z</time></trkpt>
	<trkpt lat="51.91775333" lon="-2.25102"><ele>44.000000</ele><time>2010-08-11T10:30:41Z</time></trkpt>
	<trkpt lat="51.91779333" lon="-2.250975"><ele>45.000000</ele><time>2010-08-11T10:30:46Z</time></trkpt>
	<trkpt lat="51.91783167" lon="-2.25092"><ele>46.000000</ele><time>2010-08-11T10:30:51Z</time></trkpt>
	<trkpt lat="51.91786833" lon="-2.250871667"><ele>46.000000</ele><time>2010-08-11T10:30:56Z</time></trkpt>
	<trkpt lat="51.91790167" lon="-2.250823333"><ele>47.000000</ele><time>2010-08-11T10:31:01Z</time></trkpt>
	<trkpt lat="51.91793667" lon="-2.250773333"><ele>48.000000</ele><time>2010-08-11T10:31:06Z</time></trkpt>
	<trkpt lat="51.91797333" lon="-2.250721667"><ele>49.000000</ele><time>2010-08-11T10:31:11Z</time></trkpt>
	<trkpt lat="51.91801167" lon="-2.250666667"><ele>49.000000</ele><time>2010-08-11T10:31:16Z</time></trkpt>
	<trkpt lat="51.918045" lon="-2.250606667"><ele>49.000000</ele><time>2010-08-11T10:31:21Z</time></trkpt>
	<trkpt lat="51.91807667" lon="-2.250546667"><ele>50.000000</ele><time>2010-08-11T10:31:26Z</time></trkpt>
	<trkpt lat="51.91810833" lon="-2.250486667"><ele>50.000000</ele><time>2010-08-11T10:31:31Z</time></trkpt>
	<trkpt lat="51.91814167" lon="-2.250425"><ele>50.000000</ele><time>2010-08-11T10:31:36Z</time></trkpt>
	<trkpt lat="51.918175" lon="-2.250353333"><ele>50.000000</ele><time>2010-08-11T10:31:41Z</time></trkpt>
	<trkpt lat="51.918205" lon="-2.250281667"><ele>50.000000</ele><time>2010-08-11T10:31:46Z</time></trkpt>
	<trkpt lat="51.91823" lon="-2.250208333"><ele>50.000000</ele><time>2010-08-11T10:31:51Z</time></trkpt>
	<trkpt lat="51.91825333" lon="-2.250135"><ele>50.000000</ele><time>2010-08-11T10:31:56Z</time></trkpt>
	<trkpt lat="51.91827667" lon="-2.250063333"><ele>50.000000</ele><time>2010-08-11T10:32:01Z</time></trkpt>
	<trkpt lat="51.91829" lon="-2.249975"><ele>50.000000</ele><time>2010-08-11T10:32:06Z</time></trkpt>
	<trkpt lat="51.918305" lon="-2.249893333"><ele>50.000000</ele><time>2010-08-11T10:32:11Z</time></trkpt>
	<trkpt lat="51.91832333" lon="-2.249816667"><ele>50.000000</ele><time>2010-08-11T10:32:16Z</time></trkpt>
	<trkpt lat="51.91834" lon="-2.249741667"><ele>51.000000</ele><time>2010-08-11T10:32:21Z</time></trkpt>
	<trkpt lat="51.91836167" lon="-2.249663333"><ele>51.000000</ele><time>2010-08-11T10:32:26Z</time></trkpt>
	<trkpt lat="51.91838" lon="-2.249586667"><ele>50.000000</ele><time>2010-08-11T10:32:31Z</time></trkpt>
	<trkpt lat="51.9184" lon="-2.249503333"><ele>50.000000</ele><time>2010-08-11T10:32:36Z</time></trkpt>
	<trkpt lat="51.91842" lon="-2.249418333"><ele>50.000000</ele><time>2010-08-11T10:32:41Z</time></trkpt>
	<trkpt lat="51.91844" lon="-2.249336667"><ele>50.000000</ele><time>2010-08-11T10:32:46Z</time></trkpt>
	<trkpt lat="51.91846" lon="-2.249253333"><ele>50.000000</ele><time>2010-08-11T10:32:51Z</time></trkpt>
	<trkpt lat="51.91848167" lon="-2.249176667"><ele>50.000000</ele><time>2010-08-11T10:32:56Z</time></trkpt>
	<trkpt lat="51.9185" lon="-2.249101667"><ele>50.000000</ele><time>2010-08-11T10:33:01Z</time></trkpt>
	<trkpt lat="51.91852833" lon="-2.249023333"><ele>50.000000</ele><time>2010-08-11T10:33:06Z</time></trkpt>
	<trkpt lat="51.91855667" lon="-2.248955"><ele>50.000000</ele><time>2010-08-11T10:33:11Z</time></trkpt>
	<trkpt lat="51.91859167" lon="-2.248895"><ele>50.000000</ele><time>2010-08-11T10:33:16Z</time></trkpt>
	<trkpt lat="51.918625" lon="-2.248835"><ele>50.000000</ele><time>2010-08-11T10:33:21Z</time></trkpt>
	<trkpt lat="51.91866167" lon="-2.248783333"><ele>51.000000</ele><time>2010-08-11T10:33:26Z</time></trkpt>
	<trkpt lat="51.918695" lon="-2.248736667"><ele>51.000000</ele><time>2010-08-11T10:33:31Z</time></trkpt>
	<trkpt lat="51.918735" lon="-2.248686667"><ele>51.000000</ele><time>2010-08-11T10:33:36Z</time></trkpt>
	<trkpt lat="51.918775" lon="-2.24864"><ele>52.000000</ele><time>2010-08-11T10:33:41Z</time></trkpt>
	<trkpt lat="51.91881333" lon="-2.248588333"><ele>53.000000</ele><time>2010-08-11T10:33:46Z</time></trkpt>
	<trkpt lat="51.918855" lon="-2.248536667"><ele>53.000000</ele><time>2010-08-11T10:33:51Z</time></trkpt>
	<trkpt lat="51.918895" lon="-2.248471667"><ele>52.000000</ele><time>2010-08-11T10:33:56Z</time></trkpt>
	<trkpt lat="51.91893667" lon="-2.24841"><ele>52.000000</ele><time>2010-08-11T10:34:01Z</time></trkpt>
	<trkpt lat="51.918975" lon="-2.248355"><ele>52.000000</ele><time>2010-08-11T10:34:06Z</time></trkpt>
	<trkpt lat="51.91900667" lon="-2.248285"><ele>52.000000</ele><time>2010-08-11T10:34:11Z</time></trkpt>
	<trkpt lat="51.919035" lon="-2.248213333"><ele>52.000000</ele><time>2010-08-11T10:34:16Z</time></trkpt>
	<trkpt lat="51.919055" lon="-2.248143333"><ele>52.000000</ele><time>2010-08-11T10:34:21Z</time></trkpt>
	<trkpt lat="51.91907167" lon="-2.248073333"><ele>52.000000</ele><time>2010-08-11T10:34:26Z</time></trkpt>
	<trkpt lat="51.91908333" lon="-2.24803"><ele>50.000000</ele><time>2010-08-11T10:34:31Z</time></trkpt>
	<trkpt lat="51.91909333" lon="-2.247986667"><ele>47.000000</ele><time>2010-08-11T10:34:36Z</time></trkpt>
	<trkpt lat="51.91909833" lon="-2.247956667"><ele>45.000000</ele><time>2010-08-11T10:34:41Z</time></trkpt>
	<trkpt lat="51.9191" lon="-2.247945"><ele>44.000000</ele><time>2010-08-11T10:34:46Z</time></trkpt>
	<trkpt lat="51.919105" lon="-2.247878333"><ele>45.000000</ele><time>2010-08-11T10:34:51Z</time></trkpt>
	<trkpt lat="51.91911167" lon="-2.247806667"><ele>46.000000</ele><time>2010-08-11T10:34:56Z</time></trkpt>
	<trkpt lat="51.91912667" lon="-2.247736667"><ele>47.000000</ele><time>2010-08-11T10:35:01Z</time></trkpt>
	<trkpt lat="51.91914667" lon="-2.247665"><ele>48.000000</ele><time>2010-08-11T10:35:06Z</time></trkpt>
	<trkpt lat="51.91915667" lon="-2.247583333"><ele>48.000000</ele><time>2010-08-11T10:35:11Z</time></trkpt>
	<trkpt lat="51.91917" lon="-2.247503333"><ele>49.000000</ele><time>2010-08-11T10:35:16Z</time></trkpt>
	<trkpt lat="51.91918" lon="-2.247423333"><ele>49.000000</ele><time>2010-08-11T10:35:21Z</time></trkpt>
	<trkpt lat="51.91919" lon="-2.247343333"><ele>49.000000</ele><time>2010-08-11T10:35:26Z</time></trkpt>
	<trkpt lat="51.91919667" lon="-2.24727"><ele>50.000000</ele><time>2010-08-11T10:35:31Z</time></trkpt>
	<trkpt lat="51.91919667" lon="-2.247225"><ele>49.000000</ele><time>2010-08-11T10:35:36Z</time></trkpt>
	<trkpt lat="51.91920167" lon="-2.247201667"><ele>48.000000</ele><time>2010-08-11T10:35:41Z</time></trkpt>
	<trkpt lat="51.919205" lon="-2.247125"><ele>49.000000</ele><time>2010-08-11T10:35:46Z</time></trkpt>
	<trkpt lat="51.919205" lon="-2.24704"><ele>49.000000</ele><time>2010-08-11T10:35:51Z</time></trkpt>
	<trkpt lat="51.919205" lon="-2.246956667"><ele>50.000000</ele><time>2010-08-11T10:35:56Z</time></trkpt>
	<trkpt lat="51.91921" lon="-2.246876667"><ele>51.000000</ele><time>2010-08-11T10:36:01Z</time></trkpt>
	<trkpt lat="51.91922167" lon="-2.246806667"><ele>51.000000</ele><time>2010-08-11T10:36:06Z</time></trkpt>
	<trkpt lat="51.91923333" lon="-2.246748333"><ele>50.000000</ele><time>2010-08-11T10:36:11Z</time></trkpt>
	<trkpt lat="51.91924833" lon="-2.246676667"><ele>51.000000</ele><time>2010-08-11T10:36:16Z</time></trkpt>
	<trkpt lat="51.919255" lon="-2.246596667"><ele>52.000000</ele><time>2010-08-11T10:36:21Z</time></trkpt>
	<trkpt lat="51.91926667" lon="-2.246513333"><ele>53.000000</ele><time>2010-08-11T10:36:26Z</time></trkpt>
	<trkpt lat="51.919275" lon="-2.246431667"><ele>54.000000</ele><time>2010-08-11T10:36:31Z</time></trkpt>
	<trkpt lat="51.91928667" lon="-2.246353333"><ele>55.000000</ele><time>2010-08-11T10:36:36Z</time></trkpt>
	<trkpt lat="51.91929833" lon="-2.246273333"><ele>56.000000</ele><time>2010-08-11T10:36:41Z</time></trkpt>
	<trkpt lat="51.91930667" lon="-2.246201667"><ele>58.000000</ele><time>2010-08-11T10:36:46Z</time></trkpt>
	<trkpt lat="51.91931667" lon="-2.246128333"><ele>58.000000</ele><time>2010-08-11T10:36:51Z</time></trkpt>
	<trkpt lat="51.91932167" lon="-2.246053333"><ele>59.000000</ele><time>2010-08-11T10:36:56Z</time></trkpt>
	<trkpt lat="51.91932833" lon="-2.246005"><ele>57.000000</ele><time>2010-08-11T10:37:01Z</time></trkpt>
	<trkpt lat="51.91932833" lon="-2.245976667"><ele>54.000000</ele><time>2010-08-11T10:37:06Z</time></trkpt>
	<trkpt lat="51.91933167" lon="-2.245935"><ele>55.000000</ele><time>2010-08-11T10:37:11Z</time></trkpt>
	<trkpt lat="51.91934" lon="-2.245868333"><ele>56.000000</ele><time>2010-08-11T10:37:16Z</time></trkpt>
	<trkpt lat="51.91935167" lon="-2.245801667"><ele>58.000000</ele><time>2010-08-11T10:37:21Z</time></trkpt>
	<trkpt lat="51.91936167" lon="-2.245731667"><ele>56.000000</ele><time>2010-08-11T10:37:26Z</time></trkpt>
	<trkpt lat="51.91936333" lon="-2.2457"><ele>53.000000</ele><time>2010-08-11T10:37:31Z</time></trkpt>
	<trkpt lat="51.919365" lon="-2.24566"><ele>53.000000</ele><time>2010-08-11T10:37:36Z</time></trkpt>
	<trkpt lat="51.919375" lon="-2.245583333"><ele>55.000000</ele><time>2010-08-11T10:37:41Z</time></trkpt>
	<trkpt lat="51.919385" lon="-2.24551"><ele>56.000000</ele><time>2010-08-11T10:37:46Z</time></trkpt>
	<trkpt lat="51.91939667" lon="-2.245441667"><ele>57.000000</ele><time>2010-08-11T10:37:51Z</time></trkpt>
	<trkpt lat="51.91940833" lon="-2.245376667"><ele>59.000000</ele><time>2010-08-11T10:37:56Z</time></trkpt>
	<trkpt lat="51.91942333" lon="-2.245306667"><ele>60.000000</ele><time>2010-08-11T10:38:01Z</time></trkpt>
	<trkpt lat="51.91943333" lon="-2.245233333"><ele>61.000000</ele><time>2010-08-11T10:38:06Z</time></trkpt>
	<trkpt lat="51.91945" lon="-2.245168333"><ele>61.000000</ele><time>2010-08-11T10:38:11Z</time></trkpt>
	<trkpt lat="51.91946333" lon="-2.245091667"><ele>62.000000</ele><time>2010-08-11T10:38:16Z</time></trkpt>
	<trkpt lat="51.91948" lon="-2.245025"><ele>63.000000</ele><time>2010-08-11T10:38:21Z</time></trkpt>
	<trkpt lat="51.91949667" lon="-2.244956667"><ele>64.000000</ele><time>2010-08-11T10:38:26Z</time></trkpt>
	<trkpt lat="51.91951" lon="-2.244885"><ele>65.000000</ele><time>2010-08-11T10:38:31Z</time></trkpt>
	<trkpt lat="51.91952167" lon="-2.244813333"><ele>65.000000</ele><time>2010-08-11T10:38:36Z</time></trkpt>
	<trkpt lat="51.91953167" lon="-2.244745"><ele>67.000000</ele><time>2010-08-11T10:38:41Z</time></trkpt>
	<trkpt lat="51.91954667" lon="-2.244681667"><ele>68.000000</ele><time>2010-08-11T10:38:46Z</time></trkpt>
	<trkpt lat="51.91956" lon="-2.244615"><ele>69.000000</ele><time>2010-08-11T10:38:51Z</time></trkpt>
	<trkpt lat="51.91956667" lon="-2.244541667"><ele>69.000000</ele><time>2010-08-11T10:38:56Z</time></trkpt>
	<trkpt lat="51.91957" lon="-2.244486667"><ele>65.000000</ele><time>2010-08-11T10:39:01Z</time></trkpt>
	<trkpt lat="51.91957333" lon="-2.24447"><ele>63.000000</ele><time>2010-08-11T10:39:06Z</time></trkpt>
	<trkpt lat="51.91957333" lon="-2.244461667"><ele>62.000000</ele><time>2010-08-11T10:39:11Z</time></trkpt>
	<trkpt lat="51.919575" lon="-2.244461667"><ele>60.000000</ele><time>2010-08-11T10:39:16Z</time></trkpt>
	<trkpt lat="51.919575" lon="-2.24446"><ele>60.000000</ele><time>2010-08-11T10:39:21Z</time></trkpt>
	<trkpt lat="51.91957667" lon="-2.244455"><ele>59.000000</ele><time>2010-08-11T10:39:26Z</time></trkpt>
	<trkpt lat="51.91958167" lon="-2.244436667"><ele>60.000000</ele><time>2010-08-11T10:39:31Z</time></trkpt>
	<trkpt lat="51.91958833" lon="-2.244376667"><ele>61.000000</ele><time>2010-08-11T10:39:36Z</time></trkpt>
	<trkpt lat="51.91960333" lon="-2.244316667"><ele>63.000000</ele><time>2010-08-11T10:39:41Z</time></trkpt>
	<trkpt lat="51.91961167" lon="-2.24425"><ele>65.000000</ele><time>2010-08-11T10:39:46Z</time></trkpt>
	<trkpt lat="51.91961833" lon="-2.244188333"><ele>66.000000</ele><time>2010-08-11T10:39:51Z</time></trkpt>
	<trkpt lat="51.919625" lon="-2.244126667"><ele>67.000000</ele><time>2010-08-11T10:39:56Z</time></trkpt>
	<trkpt lat="51.91963333" lon="-2.244068333"><ele>68.000000</ele><time>2010-08-11T10:40:01Z</time></trkpt>
	<trkpt lat="51.91964" lon="-2.244008333"><ele>70.000000</ele><time>2010-08-11T10:40:06Z</time></trkpt>
	<trkpt lat="51.91965" lon="-2.243943333"><ele>71.000000</ele><time>2010-08-11T10:40:11Z</time></trkpt>
	<trkpt lat="51.91966667" lon="-2.243885"><ele>73.000000</ele><time>2010-08-11T10:40:16Z</time></trkpt>
	<trkpt lat="51.919675" lon="-2.243818333"><ele>74.000000</ele><time>2010-08-11T10:40:21Z</time></trkpt>
	<trkpt lat="51.91968" lon="-2.24375"><ele>76.000000</ele><time>2010-08-11T10:40:26Z</time></trkpt>
	<trkpt lat="51.91968667" lon="-2.243678333"><ele>77.000000</ele><time>2010-08-11T10:40:31Z</time></trkpt>
	<trkpt lat="51.91969333" lon="-2.243606667"><ele>78.000000</ele><time>2010-08-11T10:40:36Z</time></trkpt>
	<trkpt lat="51.9197" lon="-2.243536667"><ele>79.000000</ele><time>2010-08-11T10:40:41Z</time></trkpt>
	<trkpt lat="51.91970667" lon="-2.243468333"><ele>80.000000</ele><time>2010-08-11T10:40:46Z</time></trkpt>
	<trkpt lat="51.91970833" lon="-2.243405"><ele>76.000000</ele><time>2010-08-11T10:40:51Z</time></trkpt>
	<trkpt lat="51.91971167" lon="-2.243393333"><ele>76.000000</ele><time>2010-08-11T10:40:56Z</time></trkpt>
	<trkpt lat="51.91971" lon="-2.243345"><ele>74.000000</ele><time>2010-08-11T10:41:01Z</time></trkpt>
	<trkpt lat="51.91970167" lon="-2.243338333"><ele>72.000000</ele><time>2010-08-11T10:41:06Z</time></trkpt>
	<trkpt lat="51.9197" lon="-2.243328333"><ele>71.000000</ele><time>2010-08-11T10:41:11Z</time></trkpt>
	<trkpt lat="51.919705" lon="-2.243315"><ele>71.000000</ele><time>2010-08-11T10:41:16Z</time></trkpt>
	<trkpt lat="51.91970667" lon="-2.243273333"><ele>72.000000</ele><time>2010-08-11T10:41:21Z</time></trkpt>
	<trkpt lat="51.91970667" lon="-2.24326"><ele>72.000000</ele><time>2010-08-11T10:41:26Z</time></trkpt>
	<trkpt lat="51.91970333" lon="-2.243248333"><ele>72.000000</ele><time>2010-08-11T10:41:31Z</time></trkpt>
	<trkpt lat="51.91971" lon="-2.243238333"><ele>73.000000</ele><time>2010-08-11T10:41:36Z</time></trkpt>
	<trkpt lat="51.91971167" lon="-2.243196667"><ele>74.000000</ele><time>2010-08-11T10:41:41Z</time></trkpt>
	<trkpt lat="51.91971167" lon="-2.243181667"><ele>74.000000</ele><time>2010-08-11T10:41:46Z</time></trkpt>
	<trkpt lat="51.91971167" lon="-2.243178333"><ele>75.000000</ele><time>2010-08-11T10:41:51Z</time></trkpt>
	<trkpt lat="51.91970833" lon="-2.243183333"><ele>74.000000</ele><time>2010-08-11T10:41:56Z</time></trkpt>
	<trkpt lat="51.919715" lon="-2.24316"><ele>75.000000</ele><time>2010-08-11T10:42:01Z</time></trkpt>
	<trkpt lat="51.91971167" lon="-2.243095"><ele>76.000000</ele><time>2010-08-11T10:42:06Z</time></trkpt>
	<trkpt lat="51.91971667" lon="-2.24304"><ele>77.000000</ele><time>2010-08-11T10:42:11Z</time></trkpt>
	<trkpt lat="51.919715" lon="-2.24301"><ele>78.000000</ele><time>2010-08-11T10:42:16Z</time></trkpt>
	<trkpt lat="51.91971167" lon="-2.243008333"><ele>78.000000</ele><time>2010-08-11T10:42:21Z</time></trkpt>
	<trkpt lat="51.919715" lon="-2.243003333"><ele>77.000000</ele><time>2010-08-11T10:42:26Z</time></trkpt>
	<trkpt lat="51.91971667" lon="-2.242975"><ele>78.000000</ele><time>2010-08-11T10:42:31Z</time></trkpt>
	<trkpt lat="51.919715" lon="-2.242953333"><ele>78.000000</ele><time>2010-08-11T10:42:36Z</time></trkpt>
	<trkpt lat="51.919715" lon="-2.242953333"><ele>78.000000</ele><time>2010-08-11T10:42:41Z</time></trkpt>
	<trkpt lat="51.91972667" lon="-2.242918333"><ele>79.000000</ele><time>2010-08-11T10:42:46Z</time></trkpt>
	<trkpt lat="51.91974833" lon="-2.242823333"><ele>81.000000</ele><time>2010-08-11T10:42:51Z</time></trkpt>
	<trkpt lat="51.91977167" lon="-2.24272"><ele>83.000000</ele><time>2010-08-11T10:42:56Z</time></trkpt>
	<trkpt lat="51.91978667" lon="-2.242603333"><ele>84.000000</ele><time>2010-08-11T10:43:01Z</time></trkpt>
	<trkpt lat="51.919795" lon="-2.242485"><ele>85.000000</ele><time>2010-08-11T10:43:06Z</time></trkpt>
	<trkpt lat="51.9198" lon="-2.242343333"><ele>84.000000</ele><time>2010-08-11T10:43:11Z</time></trkpt>
	<trkpt lat="51.9198" lon="-2.242186667"><ele>82.000000</ele><time>2010-08-11T10:43:16Z</time></trkpt>
	<trkpt lat="51.91980167" lon="-2.242065"><ele>83.000000</ele><time>2010-08-11T10:43:21Z</time></trkpt>
	<trkpt lat="51.919805" lon="-2.241945"><ele>85.000000</ele><time>2010-08-11T10:43:26Z</time></trkpt>
	<trkpt lat="51.91980667" lon="-2.24182"><ele>86.000000</ele><time>2010-08-11T10:43:31Z</time></trkpt>
	<trkpt lat="51.919805" lon="-2.241665"><ele>84.000000</ele><time>2010-08-11T10:43:36Z</time></trkpt>
	<trkpt lat="51.91981167" lon="-2.241528333"><ele>84.000000</ele><time>2010-08-11T10:43:41Z</time></trkpt>
	<trkpt lat="51.91982167" lon="-2.241405"><ele>85.000000</ele><time>2010-08-11T10:43:46Z</time></trkpt>
	<trkpt lat="51.91983167" lon="-2.241278333"><ele>86.000000</ele><time>2010-08-11T10:43:51Z</time></trkpt>
	<trkpt lat="51.91984667" lon="-2.241168333"><ele>87.000000</ele><time>2010-08-11T10:43:56Z</time></trkpt>
	<trkpt lat="51.919855" lon="-2.241056667"><ele>87.000000</ele><time>2010-08-11T10:44:01Z</time></trkpt>
	<trkpt lat="51.91986833" lon="-2.240958333"><ele>86.000000</ele><time>2010-08-11T10:44:06Z</time></trkpt>
	<trkpt lat="51.919875" lon="-2.240898333"><ele>84.000000</ele><time>2010-08-11T10:44:11Z</time></trkpt>
	<trkpt lat="51.919875" lon="-2.240883333"><ele>83.000000</ele><time>2010-08-11T10:44:16Z</time></trkpt>
	<trkpt lat="51.91987667" lon="-2.240863333"><ele>82.000000</ele><time>2010-08-11T10:44:21Z</time></trkpt>
	<trkpt lat="51.91988667" lon="-2.240788333"><ele>83.000000</ele><time>2010-08-11T10:44:26Z</time></trkpt>
	<trkpt lat="51.919895" lon="-2.240705"><ele>83.000000</ele><time>2010-08-11T10:44:31Z</time></trkpt>
	<trkpt lat="51.91990167" lon="-2.24066"><ele>83.000000</ele><time>2010-08-11T10:44:36Z</time></trkpt>
	<trkpt lat="51.91990333" lon="-2.240636667"><ele>82.000000</ele><time>2010-08-11T10:44:41Z</time></trkpt>
	<trkpt lat="51.91989167" lon="-2.240613333"><ele>82.000000</ele><time>2010-08-11T10:44:46Z</time></trkpt>
	<trkpt lat="51.91989" lon="-2.240511667"><ele>83.000000</ele><time>2010-08-11T10:44:51Z</time></trkpt>
	<trkpt lat="51.91990167" lon="-2.24043"><ele>83.000000</ele><time>2010-08-11T10:44:56Z</time></trkpt>
	<trkpt lat="51.91991" lon="-2.240421667"><ele>82.000000</ele><time>2010-08-11T10:45:01Z</time></trkpt>
	<trkpt lat="51.91991" lon="-2.240421667"><ele>82.000000</ele><time>2010-08-11T10:45:06Z</time></trkpt>
	<trkpt lat="51.91991" lon="-2.240428333"><ele>82.000000</ele><time>2010-08-11T10:45:11Z</time></trkpt>
	<trkpt lat="51.91991333" lon="-2.24042"><ele>82.000000</ele><time>2010-08-11T10:45:16Z</time></trkpt>
	<trkpt lat="51.91991333" lon="-2.24042"><ele>82.000000</ele><time>2010-08-11T10:45:21Z</time></trkpt>
	<trkpt lat="51.91991167" lon="-2.240416667"><ele>82.000000</ele><time>2010-08-11T10:45:26Z</time></trkpt>
	<trkpt lat="51.91991167" lon="-2.240418333"><ele>82.000000</ele><time>2010-08-11T10:45:31Z</time></trkpt>
	<trkpt lat="51.91991333" lon="-2.24041"><ele>82.000000</ele><time>2010-08-11T10:45:36Z</time></trkpt>
	<trkpt lat="51.91991167" lon="-2.24037"><ele>82.000000</ele><time>2010-08-11T10:45:41Z</time></trkpt>
	<trkpt lat="51.91991167" lon="-2.240286667"><ele>83.000000</ele><time>2010-08-11T10:45:46Z</time></trkpt>
	<trkpt lat="51.91990167" lon="-2.2402"><ele>84.000000</ele><time>2010-08-11T10:45:51Z</time></trkpt>
	<trkpt lat="51.91988833" lon="-2.240108333"><ele>85.000000</ele><time>2010-08-11T10:45:56Z</time></trkpt>
	<trkpt lat="51.91987167" lon="-2.240013333"><ele>85.000000</ele><time>2010-08-11T10:46:01Z</time></trkpt>
	<trkpt lat="51.91985833" lon="-2.239918333"><ele>85.000000</ele><time>2010-08-11T10:46:06Z</time></trkpt>
	<trkpt lat="51.91984" lon="-2.239835"><ele>86.000000</ele><time>2010-08-11T10:46:11Z</time></trkpt>
	<trkpt lat="51.91982667" lon="-2.23975"><ele>86.000000</ele><time>2010-08-11T10:46:16Z</time></trkpt>
	<trkpt lat="51.91981333" lon="-2.239655"><ele>86.000000</ele><time>2010-08-11T10:46:21Z</time></trkpt>
	<trkpt lat="51.91980167" lon="-2.239555"><ele>86.000000</ele><time>2010-08-11T10:46:26Z</time></trkpt>
	<trkpt lat="51.9198" lon="-2.239465"><ele>87.000000</ele><time>2010-08-11T10:46:31Z</time></trkpt>
	<trkpt lat="51.9198" lon="-2.239381667"><ele>88.000000</ele><time>2010-08-11T10:46:36Z</time></trkpt>
	<trkpt lat="51.91979833" lon="-2.239301667"><ele>88.000000</ele><time>2010-08-11T10:46:41Z</time></trkpt>
	<trkpt lat="51.91979833" lon="-2.239206667"><ele>89.000000</ele><time>2010-08-11T10:46:46Z</time></trkpt>
	<trkpt lat="51.9198" lon="-2.239111667"><ele>89.000000</ele><time>2010-08-11T10:46:51Z</time></trkpt>
	<trkpt lat="51.919805" lon="-2.23902"><ele>90.000000</ele><time>2010-08-11T10:46:56Z</time></trkpt>
	<trkpt lat="51.919815" lon="-2.23893"><ele>90.000000</ele><time>2010-08-11T10:47:01Z</time></trkpt>
	<trkpt lat="51.91983167" lon="-2.238841667"><ele>90.000000</ele><time>2010-08-11T10:47:06Z</time></trkpt>
	<trkpt lat="51.91984667" lon="-2.238753333"><ele>90.000000</ele><time>2010-08-11T10:47:11Z</time></trkpt>
	<trkpt lat="51.919865" lon="-2.238663333"><ele>90.000000</ele><time>2010-08-11T10:47:16Z</time></trkpt>
	<trkpt lat="51.91988167" lon="-2.238571667"><ele>91.000000</ele><time>2010-08-11T10:47:21Z</time></trkpt>
	<trkpt lat="51.91989833" lon="-2.238485"><ele>91.000000</ele><time>2010-08-11T10:47:26Z</time></trkpt>
	<trkpt lat="51.91991667" lon="-2.238393333"><ele>91.000000</ele><time>2010-08-11T10:47:31Z</time></trkpt>
	<trkpt lat="51.91993667" lon="-2.238295"><ele>90.000000</ele><time>2010-08-11T10:47:36Z</time></trkpt>
	<trkpt lat="51.91995667" lon="-2.2382"><ele>90.000000</ele><time>2010-08-11T10:47:41Z</time></trkpt>
	<trkpt lat="51.919975" lon="-2.23811"><ele>90.000000</ele><time>2010-08-11T10:47:46Z</time></trkpt>
	<trkpt lat="51.919995" lon="-2.238021667"><ele>90.000000</ele><time>2010-08-11T10:47:51Z</time></trkpt>
	<trkpt lat="51.920015" lon="-2.237933333"><ele>90.000000</ele><time>2010-08-11T10:47:56Z</time></trkpt>
	<trkpt lat="51.92003" lon="-2.237841667"><ele>90.000000</ele><time>2010-08-11T10:48:01Z</time></trkpt>
	<trkpt lat="51.92005" lon="-2.237753333"><ele>90.000000</ele><time>2010-08-11T10:48:06Z</time></trkpt>
	<trkpt lat="51.92007" lon="-2.237673333"><ele>90.000000</ele><time>2010-08-11T10:48:11Z</time></trkpt>
	<trkpt lat="51.92007833" lon="-2.237638333"><ele>89.000000</ele><time>2010-08-11T10:48:16Z</time></trkpt>
	<trkpt lat="51.92006833" lon="-2.237616667"><ele>89.000000</ele><time>2010-08-11T10:48:21Z</time></trkpt>
	<trkpt lat="51.92006333" lon="-2.237603333"><ele>88.000000</ele><time>2010-08-11T10:48:26Z</time></trkpt>
	<trkpt lat="51.92006" lon="-2.237601667"><ele>88.000000</ele><time>2010-08-11T10:48:31Z</time></trkpt>
	<trkpt lat="51.92004667" lon="-2.237598333"><ele>87.000000</ele><time>2010-08-11T10:48:36Z</time></trkpt>
	<trkpt lat="51.920045" lon="-2.237596667"><ele>87.000000</ele><time>2010-08-11T10:48:41Z</time></trkpt>
	<trkpt lat="51.92004167" lon="-2.237595"><ele>87.000000</ele><time>2010-08-11T10:48:46Z</time></trkpt>
	<trkpt lat="51.92004" lon="-2.237596667"><ele>87.000000</ele><time>2010-08-11T10:48:51Z</time></trkpt>
	<trkpt lat="51.92003833" lon="-2.237593333"><ele>87.000000</ele><time>2010-08-11T10:48:56Z</time></trkpt>
	<trkpt lat="51.92003667" lon="-2.237591667"><ele>87.000000</ele><time>2010-08-11T10:49:01Z</time></trkpt>
	<trkpt lat="51.92003333" lon="-2.237595"><ele>87.000000</ele><time>2010-08-11T10:49:06Z</time></trkpt>
	<trkpt lat="51.920035" lon="-2.237596667"><ele>87.000000</ele><time>2010-08-11T10:49:11Z</time></trkpt>
	<trkpt lat="51.920035" lon="-2.2376"><ele>88.000000</ele><time>2010-08-11T10:49:16Z</time></trkpt>
	<trkpt lat="51.920035" lon="-2.237596667"><ele>87.000000</ele><time>2010-08-11T10:49:21Z</time></trkpt>
	<trkpt lat="51.92003333" lon="-2.237593333"><ele>87.000000</ele><time>2010-08-11T10:49:26Z</time></trkpt>
	<trkpt lat="51.92003333" lon="-2.23759"><ele>87.000000</ele><time>2010-08-11T10:49:31Z</time></trkpt>
	<trkpt lat="51.92003333" lon="-2.23759"><ele>86.000000</ele><time>2010-08-11T10:49:36Z</time></trkpt>
	<trkpt lat="51.920035" lon="-2.237586667"><ele>87.000000</ele><time>2010-08-11T10:49:41Z</time></trkpt>
	<trkpt lat="51.92003333" lon="-2.237585"><ele>86.000000</ele><time>2010-08-11T10:49:46Z</time></trkpt>
	<trkpt lat="51.92003333" lon="-2.23758"><ele>86.000000</ele><time>2010-08-11T10:49:51Z</time></trkpt>
	<trkpt lat="51.92003167" lon="-2.237576667"><ele>85.000000</ele><time>2010-08-11T10:49:56Z</time></trkpt>
	<trkpt lat="51.92003167" lon="-2.237573333"><ele>85.000000</ele><time>2010-08-11T10:50:01Z</time></trkpt>
	<trkpt lat="51.92003167" lon="-2.237566667"><ele>85.000000</ele><time>2010-08-11T10:50:06Z</time></trkpt>
	<trkpt lat="51.92003333" lon="-2.237561667"><ele>85.000000</ele><time>2010-08-11T10:50:11Z</time></trkpt>
	<trkpt lat="51.92003333" lon="-2.237561667"><ele>85.000000</ele><time>2010-08-11T10:50:16Z</time></trkpt>
	<trkpt lat="51.920045" lon="-2.237521667"><ele>86.000000</ele><time>2010-08-11T10:50:21Z</time></trkpt>
	<trkpt lat="51.92008" lon="-2.237428333"><ele>86.000000</ele><time>2010-08-11T10:50:26Z</time></trkpt>
	<trkpt lat="51.92010167" lon="-2.237328333"><ele>87.000000</ele><time>2010-08-11T10:50:31Z</time></trkpt>
	<trkpt lat="51.920125" lon="-2.237226667"><ele>87.000000</ele><time>2010-08-11T10:50:36Z</time></trkpt>
	<trkpt lat="51.92015" lon="-2.237131667"><ele>88.000000</ele><time>2010-08-11T10:50:41Z</time></trkpt>
	<trkpt lat="51.92017333" lon="-2.237038333"><ele>88.000000</ele><time>2010-08-11T10:50:46Z</time></trkpt>
	<trkpt lat="51.9202" lon="-2.236951667"><ele>88.000000</ele><time>2010-08-11T10:50:51Z</time></trkpt>
	<trkpt lat="51.92022667" lon="-2.236868333"><ele>88.000000</ele><time>2010-08-11T10:50:56Z</time></trkpt>
	<trkpt lat="51.92025167" lon="-2.236785"><ele>89.000000</ele><time>2010-08-11T10:51:01Z</time></trkpt>
	<trkpt lat="51.92027333" lon="-2.236701667"><ele>89.000000</ele><time>2010-08-11T10:51:06Z</time></trkpt>
	<trkpt lat="51.92029833" lon="-2.236623333"><ele>89.000000</ele><time>2010-08-11T10:51:11Z</time></trkpt>
	<trkpt lat="51.92031833" lon="-2.236543333"><ele>90.000000</ele><time>2010-08-11T10:51:16Z</time></trkpt>
	<trkpt lat="51.92034333" lon="-2.236473333"><ele>90.000000</ele><time>2010-08-11T10:51:21Z</time></trkpt>
	<trkpt lat="51.92037" lon="-2.236405"><ele>91.000000</ele><time>2010-08-11T10:51:26Z</time></trkpt>
	<trkpt lat="51.92039667" lon="-2.236348333"><ele>92.000000</ele><time>2010-08-11T10:51:31Z</time></trkpt>
	<trkpt lat="51.92041167" lon="-2.236301667"><ele>92.000000</ele><time>2010-08-11T10:51:36Z</time></trkpt>
	<trkpt lat="51.92042" lon="-2.236288333"><ele>91.000000</ele><time>2010-08-11T10:51:41Z</time></trkpt>
	<trkpt lat="51.92042833" lon="-2.23627"><ele>91.000000</ele><time>2010-08-11T10:51:46Z</time></trkpt>
	<trkpt lat="51.92042833" lon="-2.236268333"><ele>91.000000</ele><time>2010-08-11T10:51:51Z</time></trkpt>
	<trkpt lat="51.92043167" lon="-2.236268333"><ele>91.000000</ele><time>2010-08-11T10:51:56Z</time></trkpt>
	<trkpt lat="51.92043667" lon="-2.236271667"><ele>91.000000</ele><time>2010-08-11T10:52:01Z</time></trkpt>
	<trkpt lat="51.92043667" lon="-2.236273333"><ele>91.000000</ele><time>2010-08-11T10:52:06Z</time></trkpt>
	<trkpt lat="51.92043667" lon="-2.236275"><ele>91.000000</ele><time>2010-08-11T10:52:11Z</time></trkpt>
	<trkpt lat="51.92043833" lon="-2.236275"><ele>91.000000</ele><time>2010-08-11T10:52:16Z</time></trkpt>
	<trkpt lat="51.92043833" lon="-2.236273333"><ele>91.000000</ele><time>2010-08-11T10:52:21Z</time></trkpt>
	<trkpt lat="51.92043833" lon="-2.236273333"><ele>91.000000</ele><time>2010-08-11T10:52:26Z</time></trkpt>
	<trkpt lat="51.92043667" lon="-2.236273333"><ele>91.000000</ele><time>2010-08-11T10:52:31Z</time></trkpt>
	<trkpt lat="51.92043667" lon="-2.236275"><ele>91.000000</ele><time>2010-08-11T10:52:36Z</time></trkpt>
	<trkpt lat="51.920435" lon="-2.236276667"><ele>91.000000</ele><time>2010-08-11T10:52:41Z</time></trkpt>
	<trkpt lat="51.920435" lon="-2.236278333"><ele>91.000000</ele><time>2010-08-11T10:52:46Z</time></trkpt>
	<trkpt lat="51.920435" lon="-2.236278333"><ele>91.000000</ele><time>2010-08-11T10:52:51Z</time></trkpt>
	<trkpt lat="51.92044333" lon="-2.236253333"><ele>91.000000</ele><time>2010-08-11T10:52:56Z</time></trkpt>
	<trkpt lat="51.92044667" lon="-2.236213333"><ele>91.000000</ele><time>2010-08-11T10:53:01Z</time></trkpt>
	<trkpt lat="51.92043833" lon="-2.236203333"><ele>91.000000</ele><time>2010-08-11T10:53:06Z</time></trkpt>
	<trkpt lat="51.92043833" lon="-2.236196667"><ele>91.000000</ele><time>2010-08-11T10:53:11Z</time></trkpt>
	<trkpt lat="51.92043833" lon="-2.236191667"><ele>91.000000</ele><time>2010-08-11T10:53:16Z</time></trkpt>
	<trkpt lat="51.92043667" lon="-2.236186667"><ele>91.000000</ele><time>2010-08-11T10:53:21Z</time></trkpt>
	<trkpt lat="51.92043667" lon="-2.236185"><ele>91.000000</ele><time>2010-08-11T10:53:26Z</time></trkpt>
	<trkpt lat="51.920435" lon="-2.236183333"><ele>91.000000</ele><time>2010-08-11T10:53:31Z</time></trkpt>
	<trkpt lat="51.920435" lon="-2.236178333"><ele>91.000000</ele><time>2010-08-11T10:53:36Z</time></trkpt>
	<trkpt lat="51.920435" lon="-2.236175"><ele>92.000000</ele><time>2010-08-11T10:53:41Z</time></trkpt>
	<trkpt lat="51.920435" lon="-2.236173333"><ele>92.000000</ele><time>2010-08-11T10:53:46Z</time></trkpt>
	<trkpt lat="51.920435" lon="-2.236173333"><ele>93.000000</ele><time>2010-08-11T10:53:51Z</time></trkpt>
	<trkpt lat="51.920435" lon="-2.23617"><ele>93.000000</ele><time>2010-08-11T10:53:56Z</time></trkpt>
	<trkpt lat="51.92043333" lon="-2.236176667"><ele>92.000000</ele><time>2010-08-11T10:54:01Z</time></trkpt>
	<trkpt lat="51.92044167" lon="-2.236188333"><ele>92.000000</ele><time>2010-08-11T10:54:06Z</time></trkpt>
	<trkpt lat="51.92044167" lon="-2.236191667"><ele>92.000000</ele><time>2010-08-11T10:54:11Z</time></trkpt>
	<trkpt lat="51.92044333" lon="-2.236193333"><ele>91.000000</ele><time>2010-08-11T10:54:16Z</time></trkpt>
	<trkpt lat="51.92044833" lon="-2.236196667"><ele>91.000000</ele><time>2010-08-11T10:54:21Z</time></trkpt>
	<trkpt lat="51.92049333" lon="-2.236163333"><ele>90.000000</ele><time>2010-08-11T10:54:26Z</time></trkpt>
	<trkpt lat="51.92053833" lon="-2.236121667"><ele>90.000000</ele><time>2010-08-11T10:54:31Z</time></trkpt>
	<trkpt lat="51.920585" lon="-2.236086667"><ele>90.000000</ele><time>2010-08-11T10:54:36Z</time></trkpt>
	<trkpt lat="51.920625" lon="-2.236061667"><ele>89.000000</ele><time>2010-08-11T10:54:41Z</time></trkpt>
	<trkpt lat="51.92065667" lon="-2.23604"><ele>89.000000</ele><time>2010-08-11T10:54:46Z</time></trkpt>
	<trkpt lat="51.92069667" lon="-2.236016667"><ele>89.000000</ele><time>2010-08-11T10:54:51Z</time></trkpt>
	<trkpt lat="51.92073833" lon="-2.235986667"><ele>89.000000</ele><time>2010-08-11T10:54:56Z</time></trkpt>
	<trkpt lat="51.92078333" lon="-2.235951667"><ele>89.000000</ele><time>2010-08-11T10:55:01Z</time></trkpt>
	<trkpt lat="51.92083667" lon="-2.235921667"><ele>89.000000</ele><time>2010-08-11T10:55:06Z</time></trkpt>
	<trkpt lat="51.92088667" lon="-2.235895"><ele>89.000000</ele><time>2010-08-11T10:55:11Z</time></trkpt>
	<trkpt lat="51.92093667" lon="-2.235868333"><ele>89.000000</ele><time>2010-08-11T10:55:16Z</time></trkpt>
	<trkpt lat="51.92098667" lon="-2.23584"><ele>89.000000</ele><time>2010-08-11T10:55:21Z</time></trkpt>
	<trkpt lat="51.92103833" lon="-2.235816667"><ele>89.000000</ele><time>2010-08-11T10:55:26Z</time></trkpt>
	<trkpt lat="51.92108833" lon="-2.23579"><ele>89.000000</ele><time>2010-08-11T10:55:31Z</time></trkpt>
	<trkpt lat="51.92113833" lon="-2.235763333"><ele>89.000000</ele><time>2010-08-11T10:55:36Z</time></trkpt>
	<trkpt lat="51.92118833" lon="-2.235738333"><ele>89.000000</ele><time>2010-08-11T10:55:41Z</time></trkpt>
	<trkpt lat="51.92123833" lon="-2.23571"><ele>89.000000</ele><time>2010-08-11T10:55:46Z</time></trkpt>
	<trkpt lat="51.92128833" lon="-2.235681667"><ele>89.000000</ele><time>2010-08-11T10:55:51Z</time></trkpt>
	<trkpt lat="51.92133833" lon="-2.235655"><ele>89.000000</ele><time>2010-08-11T10:55:56Z</time></trkpt>
	<trkpt lat="51.92138833" lon="-2.235628333"><ele>89.000000</ele><time>2010-08-11T10:56:01Z</time></trkpt>
	<trkpt lat="51.921435" lon="-2.235605"><ele>89.000000</ele><time>2010-08-11T10:56:06Z</time></trkpt>
	<trkpt lat="51.92148667" lon="-2.235578333"><ele>89.000000</ele><time>2010-08-11T10:56:11Z</time></trkpt>
	<trkpt lat="51.92153167" lon="-2.235551667"><ele>89.000000</ele><time>2010-08-11T10:56:16Z</time></trkpt>
	<trkpt lat="51.92158167" lon="-2.235528333"><ele>89.000000</ele><time>2010-08-11T10:56:21Z</time></trkpt>
	<trkpt lat="51.92162167" lon="-2.235505"><ele>89.000000</ele><time>2010-08-11T10:56:26Z</time></trkpt>
	<trkpt lat="51.92162167" lon="-2.235506667"><ele>90.000000</ele><time>2010-08-11T10:56:31Z</time></trkpt>
	<trkpt lat="51.92165" lon="-2.235488333"><ele>89.000000</ele><time>2010-08-11T10:56:36Z</time></trkpt>
	<trkpt lat="51.92169" lon="-2.235463333"><ele>89.000000</ele><time>2010-08-11T10:56:41Z</time></trkpt>
	<trkpt lat="51.92173833" lon="-2.235436667"><ele>89.000000</ele><time>2010-08-11T10:56:46Z</time></trkpt>
	<trkpt lat="51.92178667" lon="-2.23541"><ele>89.000000</ele><time>2010-08-11T10:56:51Z</time></trkpt>
	<trkpt lat="51.92184" lon="-2.235383333"><ele>89.000000</ele><time>2010-08-11T10:56:56Z</time></trkpt>
	<trkpt lat="51.921895" lon="-2.235356667"><ele>89.000000</ele><time>2010-08-11T10:57:01Z</time></trkpt>
	<trkpt lat="51.92195" lon="-2.235326667"><ele>89.000000</ele><time>2010-08-11T10:57:06Z</time></trkpt>
	<trkpt lat="51.92200167" lon="-2.2353"><ele>89.000000</ele><time>2010-08-11T10:57:11Z</time></trkpt>
	<trkpt lat="51.92205" lon="-2.235276667"><ele>89.000000</ele><time>2010-08-11T10:57:16Z</time></trkpt>
	<trkpt lat="51.92210167" lon="-2.235251667"><ele>89.000000</ele><time>2010-08-11T10:57:21Z</time></trkpt>
	<trkpt lat="51.92215167" lon="-2.235226667"><ele>89.000000</ele><time>2010-08-11T10:57:26Z</time></trkpt>
	<trkpt lat="51.92220167" lon="-2.235201667"><ele>88.000000</ele><time>2010-08-11T10:57:31Z</time></trkpt>
	<trkpt lat="51.92225333" lon="-2.235176667"><ele>88.000000</ele><time>2010-08-11T10:57:36Z</time></trkpt>
	<trkpt lat="51.92230667" lon="-2.235148333"><ele>88.000000</ele><time>2010-08-11T10:57:41Z</time></trkpt>
	<trkpt lat="51.92236" lon="-2.235121667"><ele>88.000000</ele><time>2010-08-11T10:57:46Z</time></trkpt>
	<trkpt lat="51.92241" lon="-2.235098333"><ele>88.000000</ele><time>2010-08-11T10:57:51Z</time></trkpt>
	<trkpt lat="51.92246" lon="-2.235073333"><ele>88.000000</ele><time>2010-08-11T10:57:56Z</time></trkpt>
	<trkpt lat="51.92251" lon="-2.235045"><ele>88.000000</ele><time>2010-08-11T10:58:01Z</time></trkpt>
	<trkpt lat="51.92256333" lon="-2.235016667"><ele>88.000000</ele><time>2010-08-11T10:58:06Z</time></trkpt>
	<trkpt lat="51.92261667" lon="-2.234995"><ele>88.000000</ele><time>2010-08-11T10:58:11Z</time></trkpt>
	<trkpt lat="51.92266833" lon="-2.234971667"><ele>88.000000</ele><time>2010-08-11T10:58:16Z</time></trkpt>
	<trkpt lat="51.92272" lon="-2.234945"><ele>88.000000</ele><time>2010-08-11T10:58:21Z</time></trkpt>
	<trkpt lat="51.92277167" lon="-2.234918333"><ele>87.000000</ele><time>2010-08-11T10:58:26Z</time></trkpt>
	<trkpt lat="51.92282" lon="-2.234893333"><ele>87.000000</ele><time>2010-08-11T10:58:31Z</time></trkpt>
	<trkpt lat="51.92286667" lon="-2.234861667"><ele>87.000000</ele><time>2010-08-11T10:58:36Z</time></trkpt>
	<trkpt lat="51.92291667" lon="-2.234828333"><ele>87.000000</ele><time>2010-08-11T10:58:41Z</time></trkpt>
	<trkpt lat="51.92296833" lon="-2.234801667"><ele>87.000000</ele><time>2010-08-11T10:58:46Z</time></trkpt>
	<trkpt lat="51.922995" lon="-2.234793333"><ele>88.000000</ele><time>2010-08-11T10:58:51Z</time></trkpt>
	<trkpt lat="51.92298667" lon="-2.234801667"><ele>89.000000</ele><time>2010-08-11T10:58:56Z</time></trkpt>
	<trkpt lat="51.92298167" lon="-2.234806667"><ele>89.000000</ele><time>2010-08-11T10:59:01Z</time></trkpt>
	<trkpt lat="51.92297833" lon="-2.234808333"><ele>89.000000</ele><time>2010-08-11T10:59:06Z</time></trkpt>
	<trkpt lat="51.92298" lon="-2.234808333"><ele>89.000000</ele><time>2010-08-11T10:59:11Z</time></trkpt>
	<trkpt lat="51.92304167" lon="-2.234771667"><ele>89.000000</ele><time>2010-08-11T10:59:16Z</time></trkpt>
	<trkpt lat="51.92311333" lon="-2.234733333"><ele>88.000000</ele><time>2010-08-11T10:59:21Z</time></trkpt>
	<trkpt lat="51.92318" lon="-2.234695"><ele>89.000000</ele><time>2010-08-11T10:59:26Z</time></trkpt>
	<trkpt lat="51.923245" lon="-2.234656667"><ele>88.000000</ele><time>2010-08-11T10:59:31Z</time></trkpt>
	<trkpt lat="51.92331" lon="-2.234616667"><ele>88.000000</ele><time>2010-08-11T10:59:36Z</time></trkpt>
	<trkpt lat="51.923375" lon="-2.234575"><ele>88.000000</ele><time>2010-08-11T10:59:41Z</time></trkpt>
	<trkpt lat="51.92344" lon="-2.234541667"><ele>88.000000</ele><time>2010-08-11T10:59:46Z</time></trkpt>
	<trkpt lat="51.92350167" lon="-2.234505"><ele>89.000000</ele><time>2010-08-11T10:59:51Z</time></trkpt>
	<trkpt lat="51.92356333" lon="-2.23447"><ele>89.000000</ele><time>2010-08-11T10:59:56Z</time></trkpt>
	<trkpt lat="51.92362667" lon="-2.234433333"><ele>88.000000</ele><time>2010-08-11T11:00:01Z</time></trkpt>
	<trkpt lat="51.92368667" lon="-2.234391667"><ele>88.000000</ele><time>2010-08-11T11:00:06Z</time></trkpt>
	<trkpt lat="51.92374" lon="-2.234356667"><ele>88.000000</ele><time>2010-08-11T11:00:11Z</time></trkpt>
	<trkpt lat="51.92378667" lon="-2.23432"><ele>88.000000</ele><time>2010-08-11T11:00:16Z</time></trkpt>
	<trkpt lat="51.92383333" lon="-2.234281667"><ele>88.000000</ele><time>2010-08-11T11:00:21Z</time></trkpt>
	<trkpt lat="51.92387833" lon="-2.234236667"><ele>88.000000</ele><time>2010-08-11T11:00:26Z</time></trkpt>
	<trkpt lat="51.92392667" lon="-2.23419"><ele>87.000000</ele><time>2010-08-11T11:00:31Z</time></trkpt>
	<trkpt lat="51.92397333" lon="-2.23415"><ele>87.000000</ele><time>2010-08-11T11:00:36Z</time></trkpt>
	<trkpt lat="51.92401667" lon="-2.234106667"><ele>87.000000</ele><time>2010-08-11T11:00:41Z</time></trkpt>
	<trkpt lat="51.92406167" lon="-2.234063333"><ele>87.000000</ele><time>2010-08-11T11:00:46Z</time></trkpt>
	<trkpt lat="51.92410667" lon="-2.234028333"><ele>88.000000</ele><time>2010-08-11T11:00:51Z</time></trkpt>
	<trkpt lat="51.92414833" lon="-2.233988333"><ele>88.000000</ele><time>2010-08-11T11:00:56Z</time></trkpt>
	<trkpt lat="51.92419167" lon="-2.23395"><ele>89.000000</ele><time>2010-08-11T11:01:01Z</time></trkpt>
	<trkpt lat="51.924235" lon="-2.233906667"><ele>89.000000</ele><time>2010-08-11T11:01:06Z</time></trkpt>
	<trkpt lat="51.92427667" lon="-2.233871667"><ele>89.000000</ele><time>2010-08-11T11:01:11Z</time></trkpt>
	<trkpt lat="51.92432167" lon="-2.233831667"><ele>90.000000</ele><time>2010-08-11T11:01:16Z</time></trkpt>
	<trkpt lat="51.924365" lon="-2.233791667"><ele>90.000000</ele><time>2010-08-11T11:01:21Z</time></trkpt>
	<trkpt lat="51.92440167" lon="-2.233746667"><ele>91.000000</ele><time>2010-08-11T11:01:26Z</time></trkpt>
	<trkpt lat="51.924435" lon="-2.233696667"><ele>92.000000</ele><time>2010-08-11T11:01:31Z</time></trkpt>
	<trkpt lat="51.924465" lon="-2.233635"><ele>92.000000</ele><time>2010-08-11T11:01:36Z</time></trkpt>
	<trkpt lat="51.92449833" lon="-2.23358"><ele>92.000000</ele><time>2010-08-11T11:01:41Z</time></trkpt>
	<trkpt lat="51.924535" lon="-2.233551667"><ele>95.000000</ele><time>2010-08-11T11:01:46Z</time></trkpt>
	<trkpt lat="51.92458333" lon="-2.233526667"><ele>96.000000</ele><time>2010-08-11T11:01:51Z</time></trkpt>
	<trkpt lat="51.92461" lon="-2.233475"><ele>95.000000</ele><time>2010-08-11T11:01:56Z</time></trkpt>
	<trkpt lat="51.92463833" lon="-2.233433333"><ele>95.000000</ele><time>2010-08-11T11:02:01Z</time></trkpt>
	<trkpt lat="51.92467667" lon="-2.23339"><ele>95.000000</ele><time>2010-08-11T11:02:06Z</time></trkpt>
	<trkpt lat="51.92471667" lon="-2.233346667"><ele>95.000000</ele><time>2010-08-11T11:02:11Z</time></trkpt>
	<trkpt lat="51.924745" lon="-2.23332"><ele>93.000000</ele><time>2010-08-11T11:02:16Z</time></trkpt>
	<trkpt lat="51.92478833" lon="-2.233268333"><ele>94.000000</ele><time>2010-08-11T11:02:21Z</time></trkpt>
	<trkpt lat="51.924825" lon="-2.23323"><ele>95.000000</ele><time>2010-08-11T11:02:26Z</time></trkpt>
	<trkpt lat="51.924855" lon="-2.23319"><ele>97.000000</ele><time>2010-08-11T11:02:31Z</time></trkpt>
	<trkpt lat="51.92489667" lon="-2.233146667"><ele>96.000000</ele><time>2010-08-11T11:02:36Z</time></trkpt>
	<trkpt lat="51.924935" lon="-2.233113333"><ele>97.000000</ele><time>2010-08-11T11:02:41Z</time></trkpt>
	<trkpt lat="51.92496" lon="-2.233085"><ele>100.000000</ele><time>2010-08-11T11:02:46Z</time></trkpt>
	<trkpt lat="51.92501" lon="-2.233038333"><ele>100.000000</ele><time>2010-08-11T11:02:51Z</time></trkpt>
	<trkpt lat="51.92506167" lon="-2.233003333"><ele>99.000000</ele><time>2010-08-11T11:02:56Z</time></trkpt>
	<trkpt lat="51.92511" lon="-2.232968333"><ele>98.000000</ele><time>2010-08-11T11:03:01Z</time></trkpt>
	<trkpt lat="51.92514833" lon="-2.232928333"><ele>96.000000</ele><time>2010-08-11T11:03:06Z</time></trkpt>
	<trkpt lat="51.92518167" lon="-2.23289"><ele>95.000000</ele><time>2010-08-11T11:03:11Z</time></trkpt>
	<trkpt lat="51.92522333" lon="-2.232868333"><ele>93.000000</ele><time>2010-08-11T11:03:16Z</time></trkpt>
	<trkpt lat="51.92526333" lon="-2.232846667"><ele>92.000000</ele><time>2010-08-11T11:03:21Z</time></trkpt>
	<trkpt lat="51.92529333" lon="-2.232825"><ele>93.000000</ele><time>2010-08-11T11:03:26Z</time></trkpt>
	<trkpt lat="51.92532333" lon="-2.232793333"><ele>92.000000</ele><time>2010-08-11T11:03:31Z</time></trkpt>
	<trkpt lat="51.925365" lon="-2.232755"><ele>94.000000</ele><time>2010-08-11T11:03:36Z</time></trkpt>
	<trkpt lat="51.92541167" lon="-2.2327"><ele>95.000000</ele><time>2010-08-11T11:03:41Z</time></trkpt>
	<trkpt lat="51.92546" lon="-2.232633333"><ele>97.000000</ele><time>2010-08-11T11:03:46Z</time></trkpt>
	<trkpt lat="51.92551" lon="-2.232565"><ele>98.000000</ele><time>2010-08-11T11:03:51Z</time></trkpt>
	<trkpt lat="51.92555167" lon="-2.232501667"><ele>97.000000</ele><time>2010-08-11T11:03:56Z</time></trkpt>
	<trkpt lat="51.92559167" lon="-2.23245"><ele>98.000000</ele><time>2010-08-11T11:04:01Z</time></trkpt>
	<trkpt lat="51.92563667" lon="-2.232385"><ele>97.000000</ele><time>2010-08-11T11:04:06Z</time></trkpt>
	<trkpt lat="51.92567667" lon="-2.232325"><ele>97.000000</ele><time>2010-08-11T11:04:11Z</time></trkpt>
	<trkpt lat="51.92571" lon="-2.232275"><ele>98.000000</ele><time>2010-08-11T11:04:16Z</time></trkpt>
	<trkpt lat="51.925765" lon="-2.2322"><ele>94.000000</ele><time>2010-08-11T11:04:21Z</time></trkpt>
	<trkpt lat="51.92581167" lon="-2.232131667"><ele>93.000000</ele><time>2010-08-11T11:04:26Z</time></trkpt>
	<trkpt lat="51.92584833" lon="-2.232078333"><ele>92.000000</ele><time>2010-08-11T11:04:31Z</time></trkpt>
	<trkpt lat="51.92589333" lon="-2.23201"><ele>94.000000</ele><time>2010-08-11T11:04:36Z</time></trkpt>
	<trkpt lat="51.925955" lon="-2.231926667"><ele>92.000000</ele><time>2010-08-11T11:04:41Z</time></trkpt>
	<trkpt lat="51.92599167" lon="-2.231868333"><ele>93.000000</ele><time>2010-08-11T11:04:46Z</time></trkpt>
	<trkpt lat="51.92602833" lon="-2.231821667"><ele>93.000000</ele><time>2010-08-11T11:04:51Z</time></trkpt>
	<trkpt lat="51.92606333" lon="-2.231768333"><ele>94.000000</ele><time>2010-08-11T11:04:56Z</time></trkpt>
	<trkpt lat="51.926095" lon="-2.23172"><ele>95.000000</ele><time>2010-08-11T11:05:01Z</time></trkpt>
	<trkpt lat="51.92612667" lon="-2.231675"><ele>95.000000</ele><time>2010-08-11T11:05:06Z</time></trkpt>
	<trkpt lat="51.92616667" lon="-2.231626667"><ele>95.000000</ele><time>2010-08-11T11:05:11Z</time></trkpt>
	<trkpt lat="51.92619833" lon="-2.23158"><ele>95.000000</ele><time>2010-08-11T11:05:16Z</time></trkpt>
	<trkpt lat="51.926225" lon="-2.23153"><ele>95.000000</ele><time>2010-08-11T11:05:21Z</time></trkpt>
	<trkpt lat="51.92626" lon="-2.23148"><ele>95.000000</ele><time>2010-08-11T11:05:26Z</time></trkpt>
	<trkpt lat="51.92630167" lon="-2.231415"><ele>93.000000</ele><time>2010-08-11T11:05:31Z</time></trkpt>
	<trkpt lat="51.92632833" lon="-2.23138"><ele>95.000000</ele><time>2010-08-11T11:05:36Z</time></trkpt>
	<trkpt lat="51.92636333" lon="-2.231336667"><ele>94.000000</ele><time>2010-08-11T11:05:41Z</time></trkpt>
	<trkpt lat="51.92639333" lon="-2.23128"><ele>94.000000</ele><time>2010-08-11T11:05:46Z</time></trkpt>
	<trkpt lat="51.926425" lon="-2.231225"><ele>95.000000</ele><time>2010-08-11T11:05:51Z</time></trkpt>
	<trkpt lat="51.92645833" lon="-2.231163333"><ele>94.000000</ele><time>2010-08-11T11:05:56Z</time></trkpt>
	<trkpt lat="51.92649167" lon="-2.231106667"><ele>94.000000</ele><time>2010-08-11T11:06:01Z</time></trkpt>
	<trkpt lat="51.926525" lon="-2.231058333"><ele>94.000000</ele><time>2010-08-11T11:06:06Z</time></trkpt>
	<trkpt lat="51.92656167" lon="-2.231008333"><ele>93.000000</ele><time>2010-08-11T11:06:11Z</time></trkpt>
	<trkpt lat="51.92659" lon="-2.230955"><ele>94.000000</ele><time>2010-08-11T11:06:16Z</time></trkpt>
	<trkpt lat="51.92662" lon="-2.230903333"><ele>93.000000</ele><time>2010-08-11T11:06:21Z</time></trkpt>
	<trkpt lat="51.92664" lon="-2.230865"><ele>93.000000</ele><time>2010-08-11T11:06:26Z</time></trkpt>
	<trkpt lat="51.92664833" lon="-2.230858333"><ele>92.000000</ele><time>2010-08-11T11:06:31Z</time></trkpt>
	<trkpt lat="51.92665" lon="-2.230848333"><ele>91.000000</ele><time>2010-08-11T11:06:36Z</time></trkpt>
	<trkpt lat="51.92665667" lon="-2.230843333"><ele>89.000000</ele><time>2010-08-11T11:06:41Z</time></trkpt>
	<trkpt lat="51.926665" lon="-2.230828333"><ele>88.000000</ele><time>2010-08-11T11:06:46Z</time></trkpt>
	<trkpt lat="51.92667833" lon="-2.230816667"><ele>87.000000</ele><time>2010-08-11T11:06:51Z</time></trkpt>
	<trkpt lat="51.92669333" lon="-2.230805"><ele>85.000000</ele><time>2010-08-11T11:06:56Z</time></trkpt>
	<trkpt lat="51.92670833" lon="-2.23079"><ele>83.000000</ele><time>2010-08-11T11:07:01Z</time></trkpt>
	<trkpt lat="51.92671" lon="-2.230781667"><ele>83.000000</ele><time>2010-08-11T11:07:06Z</time></trkpt>
	<trkpt lat="51.92671333" lon="-2.230776667"><ele>83.000000</ele><time>2010-08-11T11:07:11Z</time></trkpt>
	<trkpt lat="51.92671833" lon="-2.23076"><ele>82.000000</ele><time>2010-08-11T11:07:16Z</time></trkpt>
	<trkpt lat="51.92674167" lon="-2.230718333"><ele>82.000000</ele><time>2010-08-11T11:07:21Z</time></trkpt>
	<trkpt lat="51.92677" lon="-2.23067"><ele>82.000000</ele><time>2010-08-11T11:07:26Z</time></trkpt>
	<trkpt lat="51.92680167" lon="-2.23062"><ele>82.000000</ele><time>2010-08-11T11:07:31Z</time></trkpt>
	<trkpt lat="51.92683667" lon="-2.23056"><ele>82.000000</ele><time>2010-08-11T11:07:36Z</time></trkpt>
	<trkpt lat="51.92687333" lon="-2.230496667"><ele>82.000000</ele><time>2010-08-11T11:07:41Z</time></trkpt>
	<trkpt lat="51.92691" lon="-2.230428333"><ele>82.000000</ele><time>2010-08-11T11:07:46Z</time></trkpt>
	<trkpt lat="51.92695333" lon="-2.230363333"><ele>81.000000</ele><time>2010-08-11T11:07:51Z</time></trkpt>
	<trkpt lat="51.92699667" lon="-2.2303"><ele>80.000000</ele><time>2010-08-11T11:07:56Z</time></trkpt>
	<trkpt lat="51.92704333" lon="-2.23024"><ele>79.000000</ele><time>2010-08-11T11:08:01Z</time></trkpt>
	<trkpt lat="51.92708833" lon="-2.230175"><ele>78.000000</ele><time>2010-08-11T11:08:06Z</time></trkpt>
	<trkpt lat="51.92713" lon="-2.230103333"><ele>77.000000</ele><time>2010-08-11T11:08:11Z</time></trkpt>
	<trkpt lat="51.92716667" lon="-2.230041667"><ele>76.000000</ele><time>2010-08-11T11:08:16Z</time></trkpt>
	<trkpt lat="51.92719833" lon="-2.229985"><ele>75.000000</ele><time>2010-08-11T11:08:21Z</time></trkpt>
	<trkpt lat="51.92722667" lon="-2.229926667"><ele>75.000000</ele><time>2010-08-11T11:08:26Z</time></trkpt>
	<trkpt lat="51.92724833" lon="-2.229875"><ele>75.000000</ele><time>2010-08-11T11:08:31Z</time></trkpt>
	<trkpt lat="51.92727333" lon="-2.229821667"><ele>74.000000</ele><time>2010-08-11T11:08:36Z</time></trkpt>
	<trkpt lat="51.92729333" lon="-2.229763333"><ele>74.000000</ele><time>2010-08-11T11:08:41Z</time></trkpt>
	<trkpt lat="51.927325" lon="-2.229715"><ele>73.000000</ele><time>2010-08-11T11:08:46Z</time></trkpt>
	<trkpt lat="51.92734833" lon="-2.229661667"><ele>73.000000</ele><time>2010-08-11T11:08:51Z</time></trkpt>
	<trkpt lat="51.927375" lon="-2.229611667"><ele>72.000000</ele><time>2010-08-11T11:08:56Z</time></trkpt>
	<trkpt lat="51.927405" lon="-2.229558333"><ele>72.000000</ele><time>2010-08-11T11:09:01Z</time></trkpt>
	<trkpt lat="51.92744667" lon="-2.229503333"><ele>71.000000</ele><time>2010-08-11T11:09:06Z</time></trkpt>
	<trkpt lat="51.92748333" lon="-2.229456667"><ele>70.000000</ele><time>2010-08-11T11:09:11Z</time></trkpt>
	<trkpt lat="51.92750833" lon="-2.229421667"><ele>71.000000</ele><time>2010-08-11T11:09:16Z</time></trkpt>
	<trkpt lat="51.92753333" lon="-2.22938"><ele>71.000000</ele><time>2010-08-11T11:09:21Z</time></trkpt>
	<trkpt lat="51.92756333" lon="-2.229343333"><ele>71.000000</ele><time>2010-08-11T11:09:26Z</time></trkpt>
	<trkpt lat="51.92759333" lon="-2.229308333"><ele>71.000000</ele><time>2010-08-11T11:09:31Z</time></trkpt>
	<trkpt lat="51.92763" lon="-2.22926"><ele>71.000000</ele><time>2010-08-11T11:09:36Z</time></trkpt>
	<trkpt lat="51.927665" lon="-2.229215"><ele>71.000000</ele><time>2010-08-11T11:09:41Z</time></trkpt>
	<trkpt lat="51.92769" lon="-2.229166667"><ele>72.000000</ele><time>2010-08-11T11:09:46Z</time></trkpt>
	<trkpt lat="51.92773667" lon="-2.229103333"><ele>70.000000</ele><time>2010-08-11T11:09:51Z</time></trkpt>
	<trkpt lat="51.92776" lon="-2.229048333"><ele>70.000000</ele><time>2010-08-11T11:09:56Z</time></trkpt>
	<trkpt lat="51.927785" lon="-2.228991667"><ele>70.000000</ele><time>2010-08-11T11:10:01Z</time></trkpt>
	<trkpt lat="51.927815" lon="-2.228935"><ele>69.000000</ele><time>2010-08-11T11:10:06Z</time></trkpt>
	<trkpt lat="51.92783333" lon="-2.228881667"><ele>69.000000</ele><time>2010-08-11T11:10:11Z</time></trkpt>
	<trkpt lat="51.92785667" lon="-2.228828333"><ele>69.000000</ele><time>2010-08-11T11:10:16Z</time></trkpt>
	<trkpt lat="51.92788333" lon="-2.228781667"><ele>69.000000</ele><time>2010-08-11T11:10:21Z</time></trkpt>
	<trkpt lat="51.92791833" lon="-2.228738333"><ele>69.000000</ele><time>2010-08-11T11:10:26Z</time></trkpt>
	<trkpt lat="51.92795167" lon="-2.2287"><ele>70.000000</ele><time>2010-08-11T11:10:31Z</time></trkpt>
	<trkpt lat="51.92798333" lon="-2.22865"><ele>70.000000</ele><time>2010-08-11T11:10:36Z</time></trkpt>
	<trkpt lat="51.92801333" lon="-2.228598333"><ele>70.000000</ele><time>2010-08-11T11:10:41Z</time></trkpt>
	<trkpt lat="51.92803833" lon="-2.228545"><ele>70.000000</ele><time>2010-08-11T11:10:46Z</time></trkpt>
	<trkpt lat="51.92807" lon="-2.228513333"><ele>70.000000</ele><time>2010-08-11T11:10:51Z</time></trkpt>
	<trkpt lat="51.92809667" lon="-2.228496667"><ele>69.000000</ele><time>2010-08-11T11:10:56Z</time></trkpt>
	<trkpt lat="51.92811667" lon="-2.228488333"><ele>69.000000</ele><time>2010-08-11T11:11:01Z</time></trkpt>
	<trkpt lat="51.92814833" lon="-2.22845"><ele>65.000000</ele><time>2010-08-11T11:11:06Z</time></trkpt>
	<trkpt lat="51.928185" lon="-2.22844"><ele>64.000000</ele><time>2010-08-11T11:11:11Z</time></trkpt>
	<trkpt lat="51.92821667" lon="-2.228436667"><ele>62.000000</ele><time>2010-08-11T11:11:16Z</time></trkpt>
	<trkpt lat="51.928225" lon="-2.228426667"><ele>62.000000</ele><time>2010-08-11T11:11:21Z</time></trkpt>
	<trkpt lat="51.92822833" lon="-2.228406667"><ele>62.000000</ele><time>2010-08-11T11:11:26Z</time></trkpt>
	<trkpt lat="51.92824667" lon="-2.228401667"><ele>64.000000</ele><time>2010-08-11T11:11:31Z</time></trkpt>
	<trkpt lat="51.928255" lon="-2.22839"><ele>63.000000</ele><time>2010-08-11T11:11:36Z</time></trkpt>
	<trkpt lat="51.92829" lon="-2.22839"><ele>63.000000</ele><time>2010-08-11T11:11:41Z</time></trkpt>
	<trkpt lat="51.92832333" lon="-2.22839"><ele>63.000000</ele><time>2010-08-11T11:11:46Z</time></trkpt>
	<trkpt lat="51.92835667" lon="-2.228388333"><ele>64.000000</ele><time>2010-08-11T11:11:51Z</time></trkpt>
	<trkpt lat="51.92839667" lon="-2.22837"><ele>66.000000</ele><time>2010-08-11T11:11:56Z</time></trkpt>
	<trkpt lat="51.928435" lon="-2.228353333"><ele>66.000000</ele><time>2010-08-11T11:12:01Z</time></trkpt>
	<trkpt lat="51.92848833" lon="-2.228328333"><ele>64.000000</ele><time>2010-08-11T11:12:06Z</time></trkpt>
	<trkpt lat="51.92852833" lon="-2.228303333"><ele>63.000000</ele><time>2010-08-11T11:12:11Z</time></trkpt>
	<trkpt lat="51.92856" lon="-2.22829"><ele>63.000000</ele><time>2010-08-11T11:12:16Z</time></trkpt>
	<trkpt lat="51.92860167" lon="-2.22825"><ele>61.000000</ele><time>2010-08-11T11:12:21Z</time></trkpt>
	<trkpt lat="51.92863" lon="-2.228235"><ele>62.000000</ele><time>2010-08-11T11:12:26Z</time></trkpt>
	<trkpt lat="51.92865833" lon="-2.228223333"><ele>63.000000</ele><time>2010-08-11T11:12:31Z</time></trkpt>
	<trkpt lat="51.92869167" lon="-2.228206667"><ele>62.000000</ele><time>2010-08-11T11:12:36Z</time></trkpt>
	<trkpt lat="51.92872333" lon="-2.228198333"><ele>62.000000</ele><time>2010-08-11T11:12:41Z</time></trkpt>
	<trkpt lat="51.92875667" lon="-2.228183333"><ele>60.000000</ele><time>2010-08-11T11:12:46Z</time></trkpt>
	<trkpt lat="51.92879333" lon="-2.228151667"><ele>59.000000</ele><time>2010-08-11T11:12:51Z</time></trkpt>
	<trkpt lat="51.928825" lon="-2.228143333"><ele>58.000000</ele><time>2010-08-11T11:12:56Z</time></trkpt>
	<trkpt lat="51.928855" lon="-2.22811"><ele>56.000000</ele><time>2010-08-11T11:13:01Z</time></trkpt>
	<trkpt lat="51.92889167" lon="-2.228085"><ele>55.000000</ele><time>2010-08-11T11:13:06Z</time></trkpt>
	<trkpt lat="51.92892" lon="-2.22807"><ele>55.000000</ele><time>2010-08-11T11:13:11Z</time></trkpt>
	<trkpt lat="51.92895167" lon="-2.228045"><ele>56.000000</ele><time>2010-08-11T11:13:16Z</time></trkpt>
	<trkpt lat="51.92899" lon="-2.22801"><ele>55.000000</ele><time>2010-08-11T11:13:21Z</time></trkpt>
	<trkpt lat="51.929025" lon="-2.227991667"><ele>55.000000</ele><time>2010-08-11T11:13:26Z</time></trkpt>
	<trkpt lat="51.929065" lon="-2.227958333"><ele>53.000000</ele><time>2010-08-11T11:13:31Z</time></trkpt>
	<trkpt lat="51.929105" lon="-2.227933333"><ele>52.000000</ele><time>2010-08-11T11:13:36Z</time></trkpt>
	<trkpt lat="51.92913167" lon="-2.22792"><ele>52.000000</ele><time>2010-08-11T11:13:41Z</time></trkpt>
	<trkpt lat="51.92917667" lon="-2.227916667"><ele>49.000000</ele><time>2010-08-11T11:13:46Z</time></trkpt>
	<trkpt lat="51.92920667" lon="-2.227906667"><ele>49.000000</ele><time>2010-08-11T11:13:51Z</time></trkpt>
	<trkpt lat="51.92924" lon="-2.227901667"><ele>48.000000</ele><time>2010-08-11T11:13:56Z</time></trkpt>
	<trkpt lat="51.929295" lon="-2.227873333"><ele>44.000000</ele><time>2010-08-11T11:14:01Z</time></trkpt>
	<trkpt lat="51.92931167" lon="-2.227868333"><ele>47.000000</ele><time>2010-08-11T11:14:06Z</time></trkpt>
	<trkpt lat="51.92932667" lon="-2.22788"><ele>49.000000</ele><time>2010-08-11T11:14:11Z</time></trkpt>
	<trkpt lat="51.92935167" lon="-2.227868333"><ele>45.000000</ele><time>2010-08-11T11:14:16Z</time></trkpt>
	<trkpt lat="51.92936333" lon="-2.227818333"><ele>42.000000</ele><time>2010-08-11T11:14:21Z</time></trkpt>
	<trkpt lat="51.92937667" lon="-2.22781"><ele>40.000000</ele><time>2010-08-11T11:14:26Z</time></trkpt>
	<trkpt lat="51.92937167" lon="-2.2278"><ele>40.000000</ele><time>2010-08-11T11:14:31Z</time></trkpt>
	<trkpt lat="51.92937167" lon="-2.227795"><ele>41.000000</ele><time>2010-08-11T11:14:36Z</time></trkpt>
	<trkpt lat="51.92937167" lon="-2.227791667"><ele>43.000000</ele><time>2010-08-11T11:14:41Z</time></trkpt>
	<trkpt lat="51.92939333" lon="-2.227743333"><ele>44.000000</ele><time>2010-08-11T11:14:46Z</time></trkpt>
	<trkpt lat="51.92941167" lon="-2.227668333"><ele>45.000000</ele><time>2010-08-11T11:14:51Z</time></trkpt>
	<trkpt lat="51.92942833" lon="-2.22762"><ele>46.000000</ele><time>2010-08-11T11:14:56Z</time></trkpt>
	<trkpt lat="51.92943833" lon="-2.227551667"><ele>44.000000</ele><time>2010-08-11T11:15:01Z</time></trkpt>
	<trkpt lat="51.92944333" lon="-2.227485"><ele>43.000000</ele><time>2010-08-11T11:15:06Z</time></trkpt>
	<trkpt lat="51.929455" lon="-2.227413333"><ele>43.000000</ele><time>2010-08-11T11:15:11Z</time></trkpt>
	<trkpt lat="51.929475" lon="-2.227336667"><ele>42.000000</ele><time>2010-08-11T11:15:16Z</time></trkpt>
	<trkpt lat="51.92949333" lon="-2.227258333"><ele>42.000000</ele><time>2010-08-11T11:15:21Z</time></trkpt>
	<trkpt lat="51.92951167" lon="-2.22718"><ele>41.000000</ele><time>2010-08-11T11:15:26Z</time></trkpt>
	<trkpt lat="51.929535" lon="-2.227106667"><ele>40.000000</ele><time>2010-08-11T11:15:31Z</time></trkpt>
	<trkpt lat="51.92955667" lon="-2.22703"><ele>40.000000</ele><time>2010-08-11T11:15:36Z</time></trkpt>
	<trkpt lat="51.929575" lon="-2.226956667"><ele>40.000000</ele><time>2010-08-11T11:15:41Z</time></trkpt>
	<trkpt lat="51.92959333" lon="-2.22688"><ele>40.000000</ele><time>2010-08-11T11:15:46Z</time></trkpt>
	<trkpt lat="51.92961" lon="-2.226798333"><ele>40.000000</ele><time>2010-08-11T11:15:51Z</time></trkpt>
	<trkpt lat="51.929625" lon="-2.226713333"><ele>40.000000</ele><time>2010-08-11T11:15:56Z</time></trkpt>
	<trkpt lat="51.92964333" lon="-2.226626667"><ele>40.000000</ele><time>2010-08-11T11:16:01Z</time></trkpt>
	<trkpt lat="51.92965833" lon="-2.22654"><ele>40.000000</ele><time>2010-08-11T11:16:06Z</time></trkpt>
	<trkpt lat="51.92967167" lon="-2.226456667"><ele>40.000000</ele><time>2010-08-11T11:16:11Z</time></trkpt>
	<trkpt lat="51.92969" lon="-2.226371667"><ele>39.000000</ele><time>2010-08-11T11:16:16Z</time></trkpt>
	<trkpt lat="51.92970833" lon="-2.226285"><ele>39.000000</ele><time>2010-08-11T11:16:21Z</time></trkpt>
	<trkpt lat="51.92972333" lon="-2.2262"><ele>39.000000</ele><time>2010-08-11T11:16:26Z</time></trkpt>
	<trkpt lat="51.92973833" lon="-2.226118333"><ele>39.000000</ele><time>2010-08-11T11:16:31Z</time></trkpt>
	<trkpt lat="51.92974333" lon="-2.226035"><ele>39.000000</ele><time>2010-08-11T11:16:36Z</time></trkpt>
	<trkpt lat="51.92975333" lon="-2.225958333"><ele>39.000000</ele><time>2010-08-11T11:16:41Z</time></trkpt>
	<trkpt lat="51.92976" lon="-2.225893333"><ele>39.000000</ele><time>2010-08-11T11:16:46Z</time></trkpt>
	<trkpt lat="51.92976833" lon="-2.22583"><ele>40.000000</ele><time>2010-08-11T11:16:51Z</time></trkpt>
	<trkpt lat="51.92977667" lon="-2.225756667"><ele>39.000000</ele><time>2010-08-11T11:16:56Z</time></trkpt>
	<trkpt lat="51.92978333" lon="-2.225678333"><ele>39.000000</ele><time>2010-08-11T11:17:01Z</time></trkpt>
	<trkpt lat="51.92979333" lon="-2.225596667"><ele>39.000000</ele><time>2010-08-11T11:17:06Z</time></trkpt>
	<trkpt lat="51.92980333" lon="-2.225525"><ele>39.000000</ele><time>2010-08-11T11:17:11Z</time></trkpt>
	<trkpt lat="51.92980833" lon="-2.225498333"><ele>38.000000</ele><time>2010-08-11T11:17:16Z</time></trkpt>
	<trkpt lat="51.92981167" lon="-2.225498333"><ele>38.000000</ele><time>2010-08-11T11:17:21Z</time></trkpt>
	<trkpt lat="51.92981333" lon="-2.225496667"><ele>38.000000</ele><time>2010-08-11T11:17:26Z</time></trkpt>
	<trkpt lat="51.92981333" lon="-2.225496667"><ele>38.000000</ele><time>2010-08-11T11:17:31Z</time></trkpt>
	<trkpt lat="51.92982" lon="-2.225483333"><ele>38.000000</ele><time>2010-08-11T11:17:36Z</time></trkpt>
	<trkpt lat="51.92983333" lon="-2.225425"><ele>38.000000</ele><time>2010-08-11T11:17:41Z</time></trkpt>
	<trkpt lat="51.92984333" lon="-2.225358333"><ele>38.000000</ele><time>2010-08-11T11:17:46Z</time></trkpt>
	<trkpt lat="51.92985333" lon="-2.225293333"><ele>38.000000</ele><time>2010-08-11T11:17:51Z</time></trkpt>
	<trkpt lat="51.92986333" lon="-2.225228333"><ele>38.000000</ele><time>2010-08-11T11:17:56Z</time></trkpt>
	<trkpt lat="51.92987333" lon="-2.22516"><ele>38.000000</ele><time>2010-08-11T11:18:01Z</time></trkpt>
	<trkpt lat="51.92988833" lon="-2.225091667"><ele>38.000000</ele><time>2010-08-11T11:18:06Z</time></trkpt>
	<trkpt lat="51.9299" lon="-2.225025"><ele>38.000000</ele><time>2010-08-11T11:18:11Z</time></trkpt>
	<trkpt lat="51.92991333" lon="-2.22496"><ele>37.000000</ele><time>2010-08-11T11:18:16Z</time></trkpt>
	<trkpt lat="51.92992833" lon="-2.224891667"><ele>37.000000</ele><time>2010-08-11T11:18:21Z</time></trkpt>
	<trkpt lat="51.92994167" lon="-2.224825"><ele>37.000000</ele><time>2010-08-11T11:18:26Z</time></trkpt>
	<trkpt lat="51.92995667" lon="-2.224758333"><ele>36.000000</ele><time>2010-08-11T11:18:31Z</time></trkpt>
	<trkpt lat="51.92996833" lon="-2.22469"><ele>35.000000</ele><time>2010-08-11T11:18:36Z</time></trkpt>
	<trkpt lat="51.92998333" lon="-2.22462"><ele>35.000000</ele><time>2010-08-11T11:18:41Z</time></trkpt>
	<trkpt lat="51.92999833" lon="-2.224555"><ele>34.000000</ele><time>2010-08-11T11:18:46Z</time></trkpt>
	<trkpt lat="51.93000833" lon="-2.22449"><ele>34.000000</ele><time>2010-08-11T11:18:51Z</time></trkpt>
	<trkpt lat="51.93002333" lon="-2.224421667"><ele>34.000000</ele><time>2010-08-11T11:18:56Z</time></trkpt>
	<trkpt lat="51.93003333" lon="-2.224351667"><ele>33.000000</ele><time>2010-08-11T11:19:01Z</time></trkpt>
	<trkpt lat="51.93004667" lon="-2.224281667"><ele>32.000000</ele><time>2010-08-11T11:19:06Z</time></trkpt>
	<trkpt lat="51.93006333" lon="-2.224211667"><ele>32.000000</ele><time>2010-08-11T11:19:11Z</time></trkpt>
	<trkpt lat="51.93008167" lon="-2.224166667"><ele>31.000000</ele><time>2010-08-11T11:19:16Z</time></trkpt>
	<trkpt lat="51.930105" lon="-2.224145"><ele>31.000000</ele><time>2010-08-11T11:19:21Z</time></trkpt>
	<trkpt lat="51.93012167" lon="-2.224123333"><ele>32.000000</ele><time>2010-08-11T11:19:26Z</time></trkpt>
	<trkpt lat="51.93012167" lon="-2.224105"><ele>32.000000</ele><time>2010-08-11T11:19:31Z</time></trkpt>
	<trkpt lat="51.93013667" lon="-2.224091667"><ele>32.000000</ele><time>2010-08-11T11:19:36Z</time></trkpt>
	<trkpt lat="51.93014333" lon="-2.22407"><ele>32.000000</ele><time>2010-08-11T11:19:41Z</time></trkpt>
	<trkpt lat="51.93015167" lon="-2.224063333"><ele>31.000000</ele><time>2010-08-11T11:19:46Z</time></trkpt>
	<trkpt lat="51.93016333" lon="-2.224063333"><ele>30.000000</ele><time>2010-08-11T11:19:51Z</time></trkpt>
	<trkpt lat="51.93017" lon="-2.22406"><ele>29.000000</ele><time>2010-08-11T11:19:56Z</time></trkpt>
	<trkpt lat="51.93017333" lon="-2.224056667"><ele>29.000000</ele><time>2010-08-11T11:20:01Z</time></trkpt>
	<trkpt lat="51.93017333" lon="-2.224051667"><ele>30.000000</ele><time>2010-08-11T11:20:06Z</time></trkpt>
	<trkpt lat="51.93017" lon="-2.22404"><ele>30.000000</ele><time>2010-08-11T11:20:11Z</time></trkpt>
	<trkpt lat="51.93016167" lon="-2.224031667"><ele>29.000000</ele><time>2010-08-11T11:20:16Z</time></trkpt>
	<trkpt lat="51.93017833" lon="-2.223996667"><ele>29.000000</ele><time>2010-08-11T11:20:21Z</time></trkpt>
	<trkpt lat="51.93020667" lon="-2.223948333"><ele>28.000000</ele><time>2010-08-11T11:20:26Z</time></trkpt>
	<trkpt lat="51.93024167" lon="-2.223901667"><ele>28.000000</ele><time>2010-08-11T11:20:31Z</time></trkpt>
	<trkpt lat="51.93024667" lon="-2.223891667"><ele>27.000000</ele><time>2010-08-11T11:20:36Z</time></trkpt>
	<trkpt lat="51.930245" lon="-2.223901667"><ele>27.000000</ele><time>2010-08-11T11:20:41Z</time></trkpt>
	<trkpt lat="51.93024167" lon="-2.223906667"><ele>27.000000</ele><time>2010-08-11T11:20:46Z</time></trkpt>
	<trkpt lat="51.93024" lon="-2.223911667"><ele>28.000000</ele><time>2010-08-11T11:20:51Z</time></trkpt>
	<trkpt lat="51.93023833" lon="-2.223916667"><ele>28.000000</ele><time>2010-08-11T11:20:56Z</time></trkpt>
	<trkpt lat="51.93023333" lon="-2.22392"><ele>28.000000</ele><time>2010-08-11T11:21:01Z</time></trkpt>
	<trkpt lat="51.93023333" lon="-2.223923333"><ele>28.000000</ele><time>2010-08-11T11:21:06Z</time></trkpt>
	<trkpt lat="51.93023333" lon="-2.223923333"><ele>28.000000</ele><time>2010-08-11T11:21:11Z</time></trkpt>
	<trkpt lat="51.93023333" lon="-2.223926667"><ele>28.000000</ele><time>2010-08-11T11:21:16Z</time></trkpt>
	<trkpt lat="51.93023167" lon="-2.223923333"><ele>27.000000</ele><time>2010-08-11T11:21:21Z</time></trkpt>
	<trkpt lat="51.93023833" lon="-2.22393"><ele>27.000000</ele><time>2010-08-11T11:21:26Z</time></trkpt>
	<trkpt lat="51.930255" lon="-2.223943333"><ele>26.000000</ele><time>2010-08-11T11:21:31Z</time></trkpt>
	<trkpt lat="51.930255" lon="-2.223941667"><ele>26.000000</ele><time>2010-08-11T11:21:36Z</time></trkpt>
	<trkpt lat="51.930255" lon="-2.223941667"><ele>26.000000</ele><time>2010-08-11T11:21:41Z</time></trkpt>
	<trkpt lat="51.93025333" lon="-2.22394"><ele>26.000000</ele><time>2010-08-11T11:21:46Z</time></trkpt>
	<trkpt lat="51.93025167" lon="-2.223938333"><ele>26.000000</ele><time>2010-08-11T11:21:51Z</time></trkpt>
	<trkpt lat="51.93024833" lon="-2.22394"><ele>26.000000</ele><time>2010-08-11T11:21:56Z</time></trkpt>
	<trkpt lat="51.93024833" lon="-2.22394"><ele>26.000000</ele><time>2010-08-11T11:22:01Z</time></trkpt>
	<trkpt lat="51.93024833" lon="-2.223941667"><ele>26.000000</ele><time>2010-08-11T11:22:06Z</time></trkpt>
	<trkpt lat="51.93024667" lon="-2.223903333"><ele>26.000000</ele><time>2010-08-11T11:22:11Z</time></trkpt>
	<trkpt lat="51.93025833" lon="-2.22382"><ele>25.000000</ele><time>2010-08-11T11:22:16Z</time></trkpt>
	<trkpt lat="51.930275" lon="-2.223751667"><ele>25.000000</ele><time>2010-08-11T11:22:21Z</time></trkpt>
	<trkpt lat="51.93028833" lon="-2.223695"><ele>24.000000</ele><time>2010-08-11T11:22:26Z</time></trkpt>
	<trkpt lat="51.93030333" lon="-2.223645"><ele>23.000000</ele><time>2010-08-11T11:22:31Z</time></trkpt>
	<trkpt lat="51.93030667" lon="-2.223603333"><ele>22.000000</ele><time>2010-08-11T11:22:36Z</time></trkpt>
	<trkpt lat="51.93029667" lon="-2.223545"><ele>23.000000</ele><time>2010-08-11T11:22:41Z</time></trkpt>
	<trkpt lat="51.9303" lon="-2.22347"><ele>24.000000</ele><time>2010-08-11T11:22:46Z</time></trkpt>
	<trkpt lat="51.93032167" lon="-2.223408333"><ele>24.000000</ele><time>2010-08-11T11:22:51Z</time></trkpt>
	<trkpt lat="51.93034667" lon="-2.22336"><ele>24.000000</ele><time>2010-08-11T11:22:56Z</time></trkpt>
	<trkpt lat="51.93038167" lon="-2.223298333"><ele>24.000000</ele><time>2010-08-11T11:23:01Z</time></trkpt>
	<trkpt lat="51.93041333" lon="-2.22324"><ele>23.000000</ele><time>2010-08-11T11:23:06Z</time></trkpt>
	<trkpt lat="51.93043667" lon="-2.223176667"><ele>23.000000</ele><time>2010-08-11T11:23:11Z</time></trkpt>
	<trkpt lat="51.93045833" lon="-2.223108333"><ele>23.000000</ele><time>2010-08-11T11:23:16Z</time></trkpt>
	<trkpt lat="51.93050167" lon="-2.223058333"><ele>22.000000</ele><time>2010-08-11T11:23:21Z</time></trkpt>
	<trkpt lat="51.93054333" lon="-2.22302"><ele>21.000000</ele><time>2010-08-11T11:23:26Z</time></trkpt>
	<trkpt lat="51.930575" lon="-2.223005"><ele>21.000000</ele><time>2010-08-11T11:23:31Z</time></trkpt>
	<trkpt lat="51.93059667" lon="-2.222991667"><ele>20.000000</ele><time>2010-08-11T11:23:36Z</time></trkpt>
	<trkpt lat="51.930615" lon="-2.222936667"><ele>19.000000</ele><time>2010-08-11T11:23:41Z</time></trkpt>
	<trkpt lat="51.93065167" lon="-2.222886667"><ele>19.000000</ele><time>2010-08-11T11:23:46Z</time></trkpt>
	<trkpt lat="51.930695" lon="-2.22282"><ele>19.000000</ele><time>2010-08-11T11:23:51Z</time></trkpt>
	<trkpt lat="51.93075" lon="-2.222756667"><ele>19.000000</ele><time>2010-08-11T11:23:56Z</time></trkpt>
	<trkpt lat="51.93080167" lon="-2.222698333"><ele>18.000000</ele><time>2010-08-11T11:24:01Z</time></trkpt>
	<trkpt lat="51.930855" lon="-2.222643333"><ele>18.000000</ele><time>2010-08-11T11:24:06Z</time></trkpt>
	<trkpt lat="51.93091167" lon="-2.222605"><ele>17.000000</ele><time>2010-08-11T11:24:11Z</time></trkpt>
	<trkpt lat="51.930965" lon="-2.222626667"><ele>17.000000</ele><time>2010-08-11T11:24:16Z</time></trkpt>
	<trkpt lat="51.93101333" lon="-2.222591667"><ele>17.000000</ele><time>2010-08-11T11:24:21Z</time></trkpt>
	<trkpt lat="51.93106167" lon="-2.222563333"><ele>17.000000</ele><time>2010-08-11T11:24:26Z</time></trkpt>
	<trkpt lat="51.93111" lon="-2.22253"><ele>17.000000</ele><time>2010-08-11T11:24:31Z</time></trkpt>
	<trkpt lat="51.93117667" lon="-2.2225"><ele>17.000000</ele><time>2010-08-11T11:24:36Z</time></trkpt>
	<trkpt lat="51.93123667" lon="-2.222466667"><ele>16.000000</ele><time>2010-08-11T11:24:41Z</time></trkpt>
	<trkpt lat="51.931295" lon="-2.22243"><ele>16.000000</ele><time>2010-08-11T11:24:46Z</time></trkpt>
	<trkpt lat="51.93134667" lon="-2.222398333"><ele>16.000000</ele><time>2010-08-11T11:24:51Z</time></trkpt>
	<trkpt lat="51.93137667" lon="-2.222376667"><ele>15.000000</ele><time>2010-08-11T11:24:56Z</time></trkpt>
	<trkpt lat="51.93138" lon="-2.222373333"><ele>15.000000</ele><time>2010-08-11T11:25:01Z</time></trkpt>
	<trkpt lat="51.93138" lon="-2.222371667"><ele>15.000000</ele><time>2010-08-11T11:25:06Z</time></trkpt>
	<trkpt lat="51.93138" lon="-2.22237"><ele>15.000000</ele><time>2010-08-11T11:25:11Z</time></trkpt>
	<trkpt lat="51.93137833" lon="-2.222363333"><ele>15.000000</ele><time>2010-08-11T11:25:16Z</time></trkpt>
	<trkpt lat="51.93137833" lon="-2.22236"><ele>15.000000</ele><time>2010-08-11T11:25:21Z</time></trkpt>
	<trkpt lat="51.93138" lon="-2.22236"><ele>15.000000</ele><time>2010-08-11T11:25:26Z</time></trkpt>
	<trkpt lat="51.93138" lon="-2.222361667"><ele>15.000000</ele><time>2010-08-11T11:25:31Z</time></trkpt>
	<trkpt lat="51.93138" lon="-2.222358333"><ele>15.000000</ele><time>2010-08-11T11:25:36Z</time></trkpt>
	<trkpt lat="51.93138" lon="-2.222358333"><ele>15.000000</ele><time>2010-08-11T11:25:41Z</time></trkpt>
	<trkpt lat="51.93140833" lon="-2.222336667"><ele>14.000000</ele><time>2010-08-11T11:25:46Z</time></trkpt>
	<trkpt lat="51.931455" lon="-2.222281667"><ele>15.000000</ele><time>2010-08-11T11:25:51Z</time></trkpt>
	<trkpt lat="51.93150333" lon="-2.222225"><ele>15.000000</ele><time>2010-08-11T11:25:56Z</time></trkpt>
	<trkpt lat="51.93154833" lon="-2.222171667"><ele>16.000000</ele><time>2010-08-11T11:26:01Z</time></trkpt>
	<trkpt lat="51.931555" lon="-2.22209"><ele>16.000000</ele><time>2010-08-11T11:26:06Z</time></trkpt>
	<trkpt lat="51.93157333" lon="-2.222073333"><ele>16.000000</ele><time>2010-08-11T11:26:11Z</time></trkpt>
	<trkpt lat="51.93158167" lon="-2.222073333"><ele>15.000000</ele><time>2010-08-11T11:26:16Z</time></trkpt>
	<trkpt lat="51.93157833" lon="-2.222063333"><ele>15.000000</ele><time>2010-08-11T11:26:21Z</time></trkpt>
	<trkpt lat="51.93157167" lon="-2.222036667"><ele>16.000000</ele><time>2010-08-11T11:26:26Z</time></trkpt>
	<trkpt lat="51.93157167" lon="-2.222048333"><ele>16.000000</ele><time>2010-08-11T11:26:31Z</time></trkpt>
	<trkpt lat="51.931575" lon="-2.222046667"><ele>15.000000</ele><time>2010-08-11T11:26:36Z</time></trkpt>
	<trkpt lat="51.93157667" lon="-2.222046667"><ele>16.000000</ele><time>2010-08-11T11:26:41Z</time></trkpt>
</trkseg>
</trk>
</gpx>
